<?xml version="1.0" encoding="UTF-8" standalone="no" ?>
<gpx xmlns="http://www.topografix.com/GPX/1/1" xmlns:xsi="http://www.w3.org/2001/XMLSchema-instance" xsi:schemaLocation="http://www.topografix.com/GPX/1/1 http://www.topografix.com/GPX/1/1/gpx.xsd" version="1.1" creator="VisuGPX - https://www.visugpx.com">
  <metadata>
    <name>Kaarst -&gt; Düsseldorf Hbf</name>
  </metadata>
  <trk>
    <name><![CDATA[Kaarst -> Düsseldorf Hbf]]></name>
    <extensions>
      <line xmlns="http://www.topografix.com/GPX/gpx_style/0/2">
        <color>0000FF</color>
        <width>4</width>
      </line>
    </extensions>
    <trkseg>
      <trkpt lat="51.21974" lon="6.63802">
        <ele>92.413978</ele>
        <time>2024-08-15T07:33:44.253Z</time>
      </trkpt>
      <trkpt lat="51.21967" lon="6.63794">
        <ele>92.413978</ele>
        <time>2024-08-15T07:33:45.870Z</time>
      </trkpt>
      <trkpt lat="51.21957" lon="6.63794">
        <ele>92.413978</ele>
        <time>2024-08-15T07:36:56.889Z</time>
      </trkpt>
      <trkpt lat="51.21947" lon="6.63792">
        <ele>92.413978</ele>
        <time>2024-08-15T07:37:00.884Z</time>
      </trkpt>
      <trkpt lat="51.21936" lon="6.63788">
        <ele>92.413978</ele>
        <time>2024-08-15T07:37:04.912Z</time>
      </trkpt>
      <trkpt lat="51.21925" lon="6.63782">
        <ele>92.413978</ele>
        <time>2024-08-15T07:37:08.901Z</time>
      </trkpt>
      <trkpt lat="51.21915" lon="6.63775">
        <ele>92.413978</ele>
        <time>2024-08-15T07:37:12.891Z</time>
      </trkpt>
      <trkpt lat="51.21911" lon="6.63759">
        <ele>92.413978</ele>
        <time>2024-08-15T07:37:16.907Z</time>
      </trkpt>
      <trkpt lat="51.21904" lon="6.63747">
        <ele>92.413978</ele>
        <time>2024-08-15T07:37:20.894Z</time>
      </trkpt>
      <trkpt lat="51.21901" lon="6.63733">
        <ele>92.318829</ele>
        <time>2024-08-15T07:37:24.907Z</time>
      </trkpt>
      <trkpt lat="51.21902" lon="6.63715">
        <ele>91.992698</ele>
        <time>2024-08-15T07:37:28.902Z</time>
      </trkpt>
      <trkpt lat="51.21902" lon="6.63701">
        <ele>91.721018</ele>
        <time>2024-08-15T07:37:31.896Z</time>
      </trkpt>
      <trkpt lat="51.21902" lon="6.63686">
        <ele>91.444202</ele>
        <time>2024-08-15T07:37:34.896Z</time>
      </trkpt>
      <trkpt lat="51.21904" lon="6.63671">
        <ele>91.167787</ele>
        <time>2024-08-15T07:37:37.900Z</time>
      </trkpt>
      <trkpt lat="51.21904" lon="6.63655">
        <ele>90.875672</ele>
        <time>2024-08-15T07:37:40.885Z</time>
      </trkpt>
      <trkpt lat="51.21907" lon="6.63639">
        <ele>90.577766</ele>
        <time>2024-08-15T07:37:43.893Z</time>
      </trkpt>
      <trkpt lat="51.21909" lon="6.63622">
        <ele>90.258246</ele>
        <time>2024-08-15T07:37:46.890Z</time>
      </trkpt>
      <trkpt lat="51.21911" lon="6.63605">
        <ele>89.930662</ele>
        <time>2024-08-15T07:37:49.907Z</time>
      </trkpt>
      <trkpt lat="51.21912" lon="6.63586">
        <ele>89.581277</ele>
        <time>2024-08-15T07:37:52.917Z</time>
      </trkpt>
      <trkpt lat="51.21913" lon="6.63568">
        <ele>89.245064</ele>
        <time>2024-08-15T07:37:55.894Z</time>
      </trkpt>
      <trkpt lat="51.21915" lon="6.6355">
        <ele>88.90264</ele>
        <time>2024-08-15T07:37:58.889Z</time>
      </trkpt>
      <trkpt lat="51.21918" lon="6.63535">
        <ele>88.615561</ele>
        <time>2024-08-15T07:38:01.899Z</time>
      </trkpt>
      <trkpt lat="51.21918" lon="6.63519">
        <ele>88.321413</ele>
        <time>2024-08-15T07:38:04.912Z</time>
      </trkpt>
      <trkpt lat="51.21909" lon="6.63508">
        <ele>87.963917</ele>
        <time>2024-08-15T07:38:07.910Z</time>
      </trkpt>
      <trkpt lat="51.21897" lon="6.63505">
        <ele>87.628512</ele>
        <time>2024-08-15T07:38:09.891Z</time>
      </trkpt>
      <trkpt lat="51.21885" lon="6.63505">
        <ele>87.262934</ele>
        <time>2024-08-15T07:38:11.907Z</time>
      </trkpt>
      <trkpt lat="51.21872" lon="6.63503">
        <ele>87.018213</ele>
        <time>2024-08-15T07:38:13.887Z</time>
      </trkpt>
      <trkpt lat="51.2186" lon="6.63503">
        <ele>86.860675</ele>
        <time>2024-08-15T07:38:15.903Z</time>
      </trkpt>
      <trkpt lat="51.21849" lon="6.635">
        <ele>86.714211</ele>
        <time>2024-08-15T07:38:17.895Z</time>
      </trkpt>
      <trkpt lat="51.2184" lon="6.6349">
        <ele>86.572949</ele>
        <time>2024-08-15T07:38:19.881Z</time>
      </trkpt>
      <trkpt lat="51.21834" lon="6.63475">
        <ele>86.434252</ele>
        <time>2024-08-15T07:38:21.909Z</time>
      </trkpt>
      <trkpt lat="51.21831" lon="6.63458">
        <ele>86.291017</ele>
        <time>2024-08-15T07:38:23.887Z</time>
      </trkpt>
      <trkpt lat="51.2183" lon="6.63441">
        <ele>86.157103</ele>
        <time>2024-08-15T07:38:25.913Z</time>
      </trkpt>
      <trkpt lat="51.2183" lon="6.63424">
        <ele>86.023105</ele>
        <time>2024-08-15T07:38:27.911Z</time>
      </trkpt>
      <trkpt lat="51.2183" lon="6.63408">
        <ele>85.889077</ele>
        <time>2024-08-15T07:38:29.911Z</time>
      </trkpt>
      <trkpt lat="51.2183" lon="6.63392">
        <ele>85.762323</ele>
        <time>2024-08-15T07:38:31.909Z</time>
      </trkpt>
      <trkpt lat="51.21829" lon="6.63376">
        <ele>85.6316</ele>
        <time>2024-08-15T07:38:33.882Z</time>
      </trkpt>
      <trkpt lat="51.21828" lon="6.6336">
        <ele>85.505173</ele>
        <time>2024-08-15T07:38:35.888Z</time>
      </trkpt>
      <trkpt lat="51.21827" lon="6.63345">
        <ele>85.383488</ele>
        <time>2024-08-15T07:38:37.895Z</time>
      </trkpt>
      <trkpt lat="51.21827" lon="6.63325">
        <ele>85.225364</ele>
        <time>2024-08-15T07:38:40.898Z</time>
      </trkpt>
      <trkpt lat="51.21827" lon="6.63308">
        <ele>85.085751</ele>
        <time>2024-08-15T07:38:43.896Z</time>
      </trkpt>
      <trkpt lat="51.21828" lon="6.6329">
        <ele>84.941071</ele>
        <time>2024-08-15T07:38:46.906Z</time>
      </trkpt>
      <trkpt lat="51.2183" lon="6.6327">
        <ele>84.814342</ele>
        <time>2024-08-15T07:38:49.884Z</time>
      </trkpt>
      <trkpt lat="51.21832" lon="6.63251">
        <ele>84.833166</ele>
        <time>2024-08-15T07:38:52.896Z</time>
      </trkpt>
      <trkpt lat="51.21834" lon="6.63231">
        <ele>84.85166</ele>
        <time>2024-08-15T07:38:55.863Z</time>
      </trkpt>
      <trkpt lat="51.21836" lon="6.63212">
        <ele>84.870552</ele>
        <time>2024-08-15T07:38:58.893Z</time>
      </trkpt>
      <trkpt lat="51.21838" lon="6.63194">
        <ele>84.887872</ele>
        <time>2024-08-15T07:39:01.899Z</time>
      </trkpt>
      <trkpt lat="51.2184" lon="6.63175">
        <ele>84.905501</ele>
        <time>2024-08-15T07:39:04.912Z</time>
      </trkpt>
      <trkpt lat="51.21841" lon="6.63157">
        <ele>84.922764</ele>
        <time>2024-08-15T07:39:07.906Z</time>
      </trkpt>
      <trkpt lat="51.2184" lon="6.63141">
        <ele>84.93866</ele>
        <time>2024-08-15T07:39:10.895Z</time>
      </trkpt>
      <trkpt lat="51.21838" lon="6.63125">
        <ele>84.953697</ele>
        <time>2024-08-15T07:39:13.891Z</time>
      </trkpt>
      <trkpt lat="51.21837" lon="6.6311">
        <ele>84.968601</ele>
        <time>2024-08-15T07:39:16.895Z</time>
      </trkpt>
      <trkpt lat="51.21834" lon="6.63093">
        <ele>84.985208</ele>
        <time>2024-08-15T07:39:20.914Z</time>
      </trkpt>
      <trkpt lat="51.21834" lon="6.63075">
        <ele>85.001887</ele>
        <time>2024-08-15T07:39:24.901Z</time>
      </trkpt>
      <trkpt lat="51.21825" lon="6.63072">
        <ele>85.015689</ele>
        <time>2024-08-15T07:39:27.884Z</time>
      </trkpt>
      <trkpt lat="51.21815" lon="6.63072">
        <ele>85.030817</ele>
        <time>2024-08-15T07:39:30.890Z</time>
      </trkpt>
      <trkpt lat="51.21804" lon="6.6307">
        <ele>85.047394</ele>
        <time>2024-08-15T07:39:33.889Z</time>
      </trkpt>
      <trkpt lat="51.21792" lon="6.63069">
        <ele>85.065151</ele>
        <time>2024-08-15T07:39:36.890Z</time>
      </trkpt>
      <trkpt lat="51.2178" lon="6.63068">
        <ele>85.08421</ele>
        <time>2024-08-15T07:39:39.909Z</time>
      </trkpt>
      <trkpt lat="51.21768" lon="6.63065">
        <ele>85.110554</ele>
        <time>2024-08-15T07:39:42.893Z</time>
      </trkpt>
      <trkpt lat="51.21757" lon="6.63062">
        <ele>85.137476</ele>
        <time>2024-08-15T07:39:45.910Z</time>
      </trkpt>
      <trkpt lat="51.21747" lon="6.63055">
        <ele>85.1619</ele>
        <time>2024-08-15T07:39:48.892Z</time>
      </trkpt>
      <trkpt lat="51.2173" lon="6.63048">
        <ele>85.202719</ele>
        <time>2024-08-15T07:41:21.890Z</time>
      </trkpt>
      <trkpt lat="51.21726" lon="6.63062">
        <ele>85.224436</ele>
        <time>2024-08-15T07:41:24.897Z</time>
      </trkpt>
      <trkpt lat="51.21725" lon="6.63081">
        <ele>85.250921</ele>
        <time>2024-08-15T07:41:27.900Z</time>
      </trkpt>
      <trkpt lat="51.21724" lon="6.631">
        <ele>85.27883</ele>
        <time>2024-08-15T07:41:30.903Z</time>
      </trkpt>
      <trkpt lat="51.21722" lon="6.6312">
        <ele>85.308255</ele>
        <time>2024-08-15T07:41:33.890Z</time>
      </trkpt>
      <trkpt lat="51.21721" lon="6.63141">
        <ele>85.337991</ele>
        <time>2024-08-15T07:41:36.900Z</time>
      </trkpt>
      <trkpt lat="51.2172" lon="6.63162">
        <ele>85.367609</ele>
        <time>2024-08-15T07:41:39.900Z</time>
      </trkpt>
      <trkpt lat="51.21718" lon="6.63183">
        <ele>85.398394</ele>
        <time>2024-08-15T07:41:42.905Z</time>
      </trkpt>
      <trkpt lat="51.21717" lon="6.63204">
        <ele>85.428886</ele>
        <time>2024-08-15T07:41:45.914Z</time>
      </trkpt>
      <trkpt lat="51.21716" lon="6.63225">
        <ele>85.459335</ele>
        <time>2024-08-15T07:41:48.901Z</time>
      </trkpt>
      <trkpt lat="51.21715" lon="6.6324">
        <ele>85.48115</ele>
        <time>2024-08-15T07:41:50.914Z</time>
      </trkpt>
      <trkpt lat="51.21713" lon="6.63255">
        <ele>85.492681</ele>
        <time>2024-08-15T07:41:52.896Z</time>
      </trkpt>
      <trkpt lat="51.21712" lon="6.63276">
        <ele>85.483163</ele>
        <time>2024-08-15T07:41:55.901Z</time>
      </trkpt>
      <trkpt lat="51.21712" lon="6.63291">
        <ele>85.476352</ele>
        <time>2024-08-15T07:41:57.902Z</time>
      </trkpt>
      <trkpt lat="51.21711" lon="6.63306">
        <ele>85.469807</ele>
        <time>2024-08-15T07:41:59.885Z</time>
      </trkpt>
      <trkpt lat="51.21709" lon="6.63321">
        <ele>85.46281</ele>
        <time>2024-08-15T07:42:01.914Z</time>
      </trkpt>
      <trkpt lat="51.21709" lon="6.63337">
        <ele>85.455999</ele>
        <time>2024-08-15T07:42:03.889Z</time>
      </trkpt>
      <trkpt lat="51.21708" lon="6.63351">
        <ele>85.449427</ele>
        <time>2024-08-15T07:42:05.890Z</time>
      </trkpt>
      <trkpt lat="51.21706" lon="6.63366">
        <ele>85.442795</ele>
        <time>2024-08-15T07:42:07.910Z</time>
      </trkpt>
      <trkpt lat="51.21705" lon="6.63381">
        <ele>85.435815</ele>
        <time>2024-08-15T07:42:09.890Z</time>
      </trkpt>
      <trkpt lat="51.21704" lon="6.63397">
        <ele>85.428862</ele>
        <time>2024-08-15T07:42:11.887Z</time>
      </trkpt>
      <trkpt lat="51.21703" lon="6.63412">
        <ele>85.421882</ele>
        <time>2024-08-15T07:42:13.894Z</time>
      </trkpt>
      <trkpt lat="51.21702" lon="6.63428">
        <ele>85.414954</ele>
        <time>2024-08-15T07:42:15.896Z</time>
      </trkpt>
      <trkpt lat="51.21702" lon="6.63443">
        <ele>85.408277</ele>
        <time>2024-08-15T07:42:17.919Z</time>
      </trkpt>
      <trkpt lat="51.21701" lon="6.63458">
        <ele>85.401318</ele>
        <time>2024-08-15T07:42:19.913Z</time>
      </trkpt>
      <trkpt lat="51.21701" lon="6.63472">
        <ele>85.394913</ele>
        <time>2024-08-15T07:42:21.908Z</time>
      </trkpt>
      <trkpt lat="51.217" lon="6.63487">
        <ele>85.388288</ele>
        <time>2024-08-15T07:42:23.898Z</time>
      </trkpt>
      <trkpt lat="51.21699" lon="6.63502">
        <ele>85.381558</ele>
        <time>2024-08-15T07:42:25.901Z</time>
      </trkpt>
      <trkpt lat="51.21699" lon="6.63517">
        <ele>85.375066</ele>
        <time>2024-08-15T07:42:27.898Z</time>
      </trkpt>
      <trkpt lat="51.21697" lon="6.63531">
        <ele>85.368353</ele>
        <time>2024-08-15T07:42:29.898Z</time>
      </trkpt>
      <trkpt lat="51.21697" lon="6.63547">
        <ele>85.356136</ele>
        <time>2024-08-15T07:42:31.898Z</time>
      </trkpt>
      <trkpt lat="51.21696" lon="6.63562">
        <ele>85.342625</ele>
        <time>2024-08-15T07:42:33.894Z</time>
      </trkpt>
      <trkpt lat="51.21695" lon="6.63578">
        <ele>85.329142</ele>
        <time>2024-08-15T07:42:35.906Z</time>
      </trkpt>
      <trkpt lat="51.21694" lon="6.63592">
        <ele>85.315941</ele>
        <time>2024-08-15T07:42:37.900Z</time>
      </trkpt>
      <trkpt lat="51.21693" lon="6.63607">
        <ele>85.302739</ele>
        <time>2024-08-15T07:42:39.888Z</time>
      </trkpt>
      <trkpt lat="51.2169" lon="6.63628">
        <ele>85.284096</ele>
        <time>2024-08-15T07:42:42.905Z</time>
      </trkpt>
      <trkpt lat="51.21687" lon="6.63642">
        <ele>85.271162</ele>
        <time>2024-08-15T07:42:44.917Z</time>
      </trkpt>
      <trkpt lat="51.21686" lon="6.63656">
        <ele>85.258294</ele>
        <time>2024-08-15T07:42:46.896Z</time>
      </trkpt>
      <trkpt lat="51.21685" lon="6.63671">
        <ele>85.24498</ele>
        <time>2024-08-15T07:42:48.912Z</time>
      </trkpt>
      <trkpt lat="51.21684" lon="6.63686">
        <ele>85.231585</ele>
        <time>2024-08-15T07:42:50.884Z</time>
      </trkpt>
      <trkpt lat="51.21683" lon="6.63701">
        <ele>85.218399</ele>
        <time>2024-08-15T07:42:52.915Z</time>
      </trkpt>
      <trkpt lat="51.21683" lon="6.63715">
        <ele>85.205615</ele>
        <time>2024-08-15T07:42:54.910Z</time>
      </trkpt>
      <trkpt lat="51.21681" lon="6.63735">
        <ele>85.1883</ele>
        <time>2024-08-15T07:42:57.899Z</time>
      </trkpt>
      <trkpt lat="51.2168" lon="6.63753">
        <ele>85.172305</ele>
        <time>2024-08-15T07:43:00.917Z</time>
      </trkpt>
      <trkpt lat="51.21678" lon="6.63768">
        <ele>85.158626</ele>
        <time>2024-08-15T07:43:04.892Z</time>
      </trkpt>
      <trkpt lat="51.2168" lon="6.63784">
        <ele>85.14377</ele>
        <time>2024-08-15T07:43:21.909Z</time>
      </trkpt>
      <trkpt lat="51.21678" lon="6.63801">
        <ele>85.128567</ele>
        <time>2024-08-15T07:43:46.898Z</time>
      </trkpt>
      <trkpt lat="51.21678" lon="6.63816">
        <ele>85.114922</ele>
        <time>2024-08-15T07:43:49.902Z</time>
      </trkpt>
      <trkpt lat="51.21676" lon="6.63833">
        <ele>85.162959</ele>
        <time>2024-08-15T07:43:52.896Z</time>
      </trkpt>
      <trkpt lat="51.21674" lon="6.63851">
        <ele>85.227858</ele>
        <time>2024-08-15T07:43:55.911Z</time>
      </trkpt>
      <trkpt lat="51.21673" lon="6.63869">
        <ele>85.296969</ele>
        <time>2024-08-15T07:43:58.897Z</time>
      </trkpt>
      <trkpt lat="51.21673" lon="6.63889">
        <ele>85.369215</ele>
        <time>2024-08-15T07:44:01.901Z</time>
      </trkpt>
      <trkpt lat="51.21674" lon="6.6391">
        <ele>85.443825</ele>
        <time>2024-08-15T07:44:04.901Z</time>
      </trkpt>
      <trkpt lat="51.21673" lon="6.63931">
        <ele>85.521176</ele>
        <time>2024-08-15T07:44:07.897Z</time>
      </trkpt>
      <trkpt lat="51.21671" lon="6.63951">
        <ele>85.596336</ele>
        <time>2024-08-15T07:44:10.896Z</time>
      </trkpt>
      <trkpt lat="51.21669" lon="6.63972">
        <ele>85.671635</ele>
        <time>2024-08-15T07:44:13.891Z</time>
      </trkpt>
      <trkpt lat="51.21669" lon="6.63987">
        <ele>85.727102</ele>
        <time>2024-08-15T07:44:15.890Z</time>
      </trkpt>
      <trkpt lat="51.21669" lon="6.64007">
        <ele>85.799705</ele>
        <time>2024-08-15T07:44:18.896Z</time>
      </trkpt>
      <trkpt lat="51.21668" lon="6.64022">
        <ele>85.854601</ele>
        <time>2024-08-15T07:44:20.901Z</time>
      </trkpt>
      <trkpt lat="51.21667" lon="6.64037">
        <ele>85.911622</ele>
        <time>2024-08-15T07:44:22.888Z</time>
      </trkpt>
      <trkpt lat="51.21666" lon="6.64052">
        <ele>85.964316</ele>
        <time>2024-08-15T07:44:24.907Z</time>
      </trkpt>
      <trkpt lat="51.21666" lon="6.64066">
        <ele>86.018754</ele>
        <time>2024-08-15T07:44:26.902Z</time>
      </trkpt>
      <trkpt lat="51.21665" lon="6.64081">
        <ele>86.074</ele>
        <time>2024-08-15T07:44:28.910Z</time>
      </trkpt>
      <trkpt lat="51.21664" lon="6.64097">
        <ele>86.129928</ele>
        <time>2024-08-15T07:44:30.864Z</time>
      </trkpt>
      <trkpt lat="51.21663" lon="6.64112">
        <ele>86.155833</ele>
        <time>2024-08-15T07:44:32.909Z</time>
      </trkpt>
      <trkpt lat="51.21663" lon="6.64128">
        <ele>86.146976</ele>
        <time>2024-08-15T07:44:34.906Z</time>
      </trkpt>
      <trkpt lat="51.21662" lon="6.64143">
        <ele>86.138533</ele>
        <time>2024-08-15T07:44:36.894Z</time>
      </trkpt>
      <trkpt lat="51.21661" lon="6.64159">
        <ele>86.130005</ele>
        <time>2024-08-15T07:44:38.908Z</time>
      </trkpt>
      <trkpt lat="51.21659" lon="6.64173">
        <ele>86.121924</ele>
        <time>2024-08-15T07:44:40.885Z</time>
      </trkpt>
      <trkpt lat="51.21659" lon="6.64189">
        <ele>86.113231</ele>
        <time>2024-08-15T07:44:42.894Z</time>
      </trkpt>
      <trkpt lat="51.21658" lon="6.64204">
        <ele>86.104867</ele>
        <time>2024-08-15T07:44:44.907Z</time>
      </trkpt>
      <trkpt lat="51.21657" lon="6.64221">
        <ele>86.095906</ele>
        <time>2024-08-15T07:44:46.917Z</time>
      </trkpt>
      <trkpt lat="51.21657" lon="6.64237">
        <ele>86.086725</ele>
        <time>2024-08-15T07:44:48.914Z</time>
      </trkpt>
      <trkpt lat="51.21656" lon="6.64253">
        <ele>86.078262</ele>
        <time>2024-08-15T07:44:50.910Z</time>
      </trkpt>
      <trkpt lat="51.21655" lon="6.64268">
        <ele>86.069919</ele>
        <time>2024-08-15T07:44:52.893Z</time>
      </trkpt>
      <trkpt lat="51.21654" lon="6.64284">
        <ele>86.061243</ele>
        <time>2024-08-15T07:44:54.911Z</time>
      </trkpt>
      <trkpt lat="51.21652" lon="6.64299">
        <ele>86.052878</ele>
        <time>2024-08-15T07:44:56.899Z</time>
      </trkpt>
      <trkpt lat="51.21652" lon="6.64315">
        <ele>86.044027</ele>
        <time>2024-08-15T07:44:58.899Z</time>
      </trkpt>
      <trkpt lat="51.21651" lon="6.64329">
        <ele>86.035966</ele>
        <time>2024-08-15T07:45:00.904Z</time>
      </trkpt>
      <trkpt lat="51.21652" lon="6.6435">
        <ele>86.024448</ele>
        <time>2024-08-15T07:45:03.884Z</time>
      </trkpt>
      <trkpt lat="51.2165" lon="6.64366">
        <ele>86.015894</ele>
        <time>2024-08-15T07:45:05.886Z</time>
      </trkpt>
      <trkpt lat="51.21648" lon="6.64381">
        <ele>86.007459</ele>
        <time>2024-08-15T07:45:07.891Z</time>
      </trkpt>
      <trkpt lat="51.21647" lon="6.64399">
        <ele>86.005376</ele>
        <time>2024-08-15T07:45:09.886Z</time>
      </trkpt>
      <trkpt lat="51.21646" lon="6.64415">
        <ele>86.011277</ele>
        <time>2024-08-15T07:45:11.891Z</time>
      </trkpt>
      <trkpt lat="51.21645" lon="6.64432">
        <ele>86.017459</ele>
        <time>2024-08-15T07:45:13.887Z</time>
      </trkpt>
      <trkpt lat="51.21644" lon="6.64448">
        <ele>86.023257</ele>
        <time>2024-08-15T07:45:15.906Z</time>
      </trkpt>
      <trkpt lat="51.21643" lon="6.64464">
        <ele>86.029253</ele>
        <time>2024-08-15T07:45:17.898Z</time>
      </trkpt>
      <trkpt lat="51.21642" lon="6.6448">
        <ele>86.035076</ele>
        <time>2024-08-15T07:45:19.892Z</time>
      </trkpt>
      <trkpt lat="51.21642" lon="6.64496">
        <ele>86.04085</ele>
        <time>2024-08-15T07:45:21.903Z</time>
      </trkpt>
      <trkpt lat="51.2164" lon="6.64511">
        <ele>86.046544</ele>
        <time>2024-08-15T07:45:23.882Z</time>
      </trkpt>
      <trkpt lat="51.21638" lon="6.64527">
        <ele>86.052376</ele>
        <time>2024-08-15T07:45:25.897Z</time>
      </trkpt>
      <trkpt lat="51.21636" lon="6.64542">
        <ele>86.058158</ele>
        <time>2024-08-15T07:45:27.894Z</time>
      </trkpt>
      <trkpt lat="51.21633" lon="6.64563">
        <ele>86.06605</ele>
        <time>2024-08-15T07:45:30.909Z</time>
      </trkpt>
      <trkpt lat="51.21631" lon="6.64578">
        <ele>86.071493</ele>
        <time>2024-08-15T07:45:32.911Z</time>
      </trkpt>
      <trkpt lat="51.21629" lon="6.64593">
        <ele>86.076979</ele>
        <time>2024-08-15T07:45:34.896Z</time>
      </trkpt>
      <trkpt lat="51.21627" lon="6.64608">
        <ele>86.082776</ele>
        <time>2024-08-15T07:45:36.918Z</time>
      </trkpt>
      <trkpt lat="51.21625" lon="6.64623">
        <ele>86.088156</ele>
        <time>2024-08-15T07:45:38.899Z</time>
      </trkpt>
      <trkpt lat="51.21623" lon="6.64638">
        <ele>86.093847</ele>
        <time>2024-08-15T07:45:40.903Z</time>
      </trkpt>
      <trkpt lat="51.2162" lon="6.64653">
        <ele>86.099635</ele>
        <time>2024-08-15T07:45:42.879Z</time>
      </trkpt>
      <trkpt lat="51.21618" lon="6.64668">
        <ele>86.105277</ele>
        <time>2024-08-15T07:45:44.900Z</time>
      </trkpt>
      <trkpt lat="51.21615" lon="6.64684">
        <ele>86.046327</ele>
        <time>2024-08-15T07:45:46.897Z</time>
      </trkpt>
      <trkpt lat="51.21612" lon="6.647">
        <ele>85.963738</ele>
        <time>2024-08-15T07:45:48.906Z</time>
      </trkpt>
      <trkpt lat="51.21609" lon="6.64715">
        <ele>85.883956</ele>
        <time>2024-08-15T07:45:50.899Z</time>
      </trkpt>
      <trkpt lat="51.21608" lon="6.6473">
        <ele>85.809851</ele>
        <time>2024-08-15T07:45:52.892Z</time>
      </trkpt>
      <trkpt lat="51.21609" lon="6.64744">
        <ele>85.734564</ele>
        <time>2024-08-15T07:45:54.888Z</time>
      </trkpt>
      <trkpt lat="51.2161" lon="6.64759">
        <ele>85.659957</ele>
        <time>2024-08-15T07:45:56.909Z</time>
      </trkpt>
      <trkpt lat="51.21613" lon="6.64779">
        <ele>85.556376</ele>
        <time>2024-08-15T07:45:59.884Z</time>
      </trkpt>
      <trkpt lat="51.21617" lon="6.64795">
        <ele>85.469719</ele>
        <time>2024-08-15T07:46:02.902Z</time>
      </trkpt>
      <trkpt lat="51.21621" lon="6.64811">
        <ele>85.384609</ele>
        <time>2024-08-15T07:46:05.887Z</time>
      </trkpt>
      <trkpt lat="51.21624" lon="6.64828">
        <ele>85.294319</ele>
        <time>2024-08-15T07:46:08.920Z</time>
      </trkpt>
      <trkpt lat="51.21622" lon="6.64844">
        <ele>85.208537</ele>
        <time>2024-08-15T07:46:11.889Z</time>
      </trkpt>
      <trkpt lat="51.21617" lon="6.64858">
        <ele>85.123872</ele>
        <time>2024-08-15T07:46:14.888Z</time>
      </trkpt>
      <trkpt lat="51.21606" lon="6.64867">
        <ele>85.02977</ele>
        <time>2024-08-15T07:46:17.896Z</time>
      </trkpt>
      <trkpt lat="51.21597" lon="6.64877">
        <ele>84.942172</ele>
        <time>2024-08-15T07:46:20.890Z</time>
      </trkpt>
      <trkpt lat="51.21594" lon="6.64895">
        <ele>84.84819</ele>
        <time>2024-08-15T07:46:23.891Z</time>
      </trkpt>
      <trkpt lat="51.21591" lon="6.64915">
        <ele>84.745503</ele>
        <time>2024-08-15T07:46:26.899Z</time>
      </trkpt>
      <trkpt lat="51.21589" lon="6.64934">
        <ele>84.659248</ele>
        <time>2024-08-15T07:46:29.886Z</time>
      </trkpt>
      <trkpt lat="51.21586" lon="6.6495">
        <ele>84.671208</ele>
        <time>2024-08-15T07:46:32.898Z</time>
      </trkpt>
      <trkpt lat="51.2158" lon="6.64965">
        <ele>84.683023</ele>
        <time>2024-08-15T07:46:35.885Z</time>
      </trkpt>
      <trkpt lat="51.21575" lon="6.6498">
        <ele>84.695258</ele>
        <time>2024-08-15T07:46:38.877Z</time>
      </trkpt>
      <trkpt lat="51.2157" lon="6.64995">
        <ele>84.70742</ele>
        <time>2024-08-15T07:46:41.903Z</time>
      </trkpt>
      <trkpt lat="51.21559" lon="6.65008">
        <ele>84.721932</ele>
        <time>2024-08-15T07:46:44.873Z</time>
      </trkpt>
      <trkpt lat="51.21551" lon="6.65016">
        <ele>84.732185</ele>
        <time>2024-08-15T07:46:46.904Z</time>
      </trkpt>
      <trkpt lat="51.21542" lon="6.65021">
        <ele>84.743266</ele>
        <time>2024-08-15T07:46:48.883Z</time>
      </trkpt>
      <trkpt lat="51.21533" lon="6.65025">
        <ele>84.753937</ele>
        <time>2024-08-15T07:46:50.972Z</time>
      </trkpt>
      <trkpt lat="51.21522" lon="6.65038">
        <ele>84.768489</ele>
        <time>2024-08-15T07:46:53.886Z</time>
      </trkpt>
      <trkpt lat="51.21515" lon="6.65055">
        <ele>84.783368</ele>
        <time>2024-08-15T07:46:56.899Z</time>
      </trkpt>
      <trkpt lat="51.21509" lon="6.65067">
        <ele>84.793977</ele>
        <time>2024-08-15T07:46:58.904Z</time>
      </trkpt>
      <trkpt lat="51.21503" lon="6.6508">
        <ele>84.80467</ele>
        <time>2024-08-15T07:47:00.889Z</time>
      </trkpt>
      <trkpt lat="51.21498" lon="6.65092">
        <ele>84.815379</ele>
        <time>2024-08-15T07:47:02.892Z</time>
      </trkpt>
      <trkpt lat="51.21492" lon="6.65105">
        <ele>84.825845</ele>
        <time>2024-08-15T07:47:04.891Z</time>
      </trkpt>
      <trkpt lat="51.21483" lon="6.65121">
        <ele>84.84104</ele>
        <time>2024-08-15T07:47:07.878Z</time>
      </trkpt>
      <trkpt lat="51.21478" lon="6.65132">
        <ele>84.851018</ele>
        <time>2024-08-15T07:47:09.911Z</time>
      </trkpt>
      <trkpt lat="51.21471" lon="6.65143">
        <ele>84.838377</ele>
        <time>2024-08-15T07:47:11.896Z</time>
      </trkpt>
      <trkpt lat="51.21463" lon="6.65159">
        <ele>84.754703</ele>
        <time>2024-08-15T07:47:14.900Z</time>
      </trkpt>
      <trkpt lat="51.21455" lon="6.65174">
        <ele>84.669909</ele>
        <time>2024-08-15T07:47:17.903Z</time>
      </trkpt>
      <trkpt lat="51.21447" lon="6.65188">
        <ele>84.59004</ele>
        <time>2024-08-15T07:47:20.898Z</time>
      </trkpt>
      <trkpt lat="51.21438" lon="6.65202">
        <ele>84.509471</ele>
        <time>2024-08-15T07:47:23.882Z</time>
      </trkpt>
      <trkpt lat="51.21429" lon="6.65217">
        <ele>84.423483</ele>
        <time>2024-08-15T07:47:26.895Z</time>
      </trkpt>
      <trkpt lat="51.21421" lon="6.65232">
        <ele>84.340004</ele>
        <time>2024-08-15T07:47:29.903Z</time>
      </trkpt>
      <trkpt lat="51.21412" lon="6.65247">
        <ele>84.253974</ele>
        <time>2024-08-15T07:47:32.899Z</time>
      </trkpt>
      <trkpt lat="51.21404" lon="6.65262">
        <ele>84.172176</ele>
        <time>2024-08-15T07:47:35.907Z</time>
      </trkpt>
      <trkpt lat="51.21395" lon="6.65276">
        <ele>84.092348</ele>
        <time>2024-08-15T07:47:38.904Z</time>
      </trkpt>
      <trkpt lat="51.21387" lon="6.6529">
        <ele>84.012356</ele>
        <time>2024-08-15T07:47:41.887Z</time>
      </trkpt>
      <trkpt lat="51.2138" lon="6.65306">
        <ele>83.933585</ele>
        <time>2024-08-15T07:47:44.897Z</time>
      </trkpt>
      <trkpt lat="51.21373" lon="6.65321">
        <ele>83.854037</ele>
        <time>2024-08-15T07:47:47.897Z</time>
      </trkpt>
      <trkpt lat="51.21365" lon="6.65333">
        <ele>83.784041</ele>
        <time>2024-08-15T07:47:50.901Z</time>
      </trkpt>
      <trkpt lat="51.21358" lon="6.65345">
        <ele>83.71281</ele>
        <time>2024-08-15T07:47:53.884Z</time>
      </trkpt>
      <trkpt lat="51.21349" lon="6.65359">
        <ele>83.663232</ele>
        <time>2024-08-15T07:47:56.882Z</time>
      </trkpt>
      <trkpt lat="51.2134" lon="6.65374">
        <ele>83.64998</ele>
        <time>2024-08-15T07:47:59.891Z</time>
      </trkpt>
      <trkpt lat="51.21333" lon="6.65389">
        <ele>83.638062</ele>
        <time>2024-08-15T07:48:02.934Z</time>
      </trkpt>
      <trkpt lat="51.21324" lon="6.65403">
        <ele>83.625389</ele>
        <time>2024-08-15T07:48:05.898Z</time>
      </trkpt>
      <trkpt lat="51.21314" lon="6.65412">
        <ele>83.61355</ele>
        <time>2024-08-15T07:48:08.890Z</time>
      </trkpt>
      <trkpt lat="51.21301" lon="6.65418">
        <ele>83.600043</ele>
        <time>2024-08-15T07:48:11.886Z</time>
      </trkpt>
      <trkpt lat="51.21292" lon="6.65421">
        <ele>83.590751</ele>
        <time>2024-08-15T07:48:13.904Z</time>
      </trkpt>
      <trkpt lat="51.21283" lon="6.65427">
        <ele>83.580554</ele>
        <time>2024-08-15T07:48:15.897Z</time>
      </trkpt>
      <trkpt lat="51.21273" lon="6.65435">
        <ele>83.569728</ele>
        <time>2024-08-15T07:48:17.890Z</time>
      </trkpt>
      <trkpt lat="51.21266" lon="6.65444">
        <ele>83.56</ele>
        <time>2024-08-15T07:48:19.890Z</time>
      </trkpt>
      <trkpt lat="51.21258" lon="6.65454">
        <ele>83.550088</ele>
        <time>2024-08-15T07:48:21.895Z</time>
      </trkpt>
      <trkpt lat="51.2125" lon="6.65464">
        <ele>83.539899</ele>
        <time>2024-08-15T07:48:23.874Z</time>
      </trkpt>
      <trkpt lat="51.21243" lon="6.65473">
        <ele>83.530466</ele>
        <time>2024-08-15T07:48:25.901Z</time>
      </trkpt>
      <trkpt lat="51.21236" lon="6.65484">
        <ele>83.520595</ele>
        <time>2024-08-15T07:48:27.907Z</time>
      </trkpt>
      <trkpt lat="51.21229" lon="6.65494">
        <ele>83.510952</ele>
        <time>2024-08-15T07:48:29.876Z</time>
      </trkpt>
      <trkpt lat="51.21222" lon="6.65504">
        <ele>83.501105</ele>
        <time>2024-08-15T07:48:31.878Z</time>
      </trkpt>
      <trkpt lat="51.21215" lon="6.65514">
        <ele>83.491613</ele>
        <time>2024-08-15T07:48:33.890Z</time>
      </trkpt>
      <trkpt lat="51.21208" lon="6.65525">
        <ele>83.477444</ele>
        <time>2024-08-15T07:48:35.897Z</time>
      </trkpt>
      <trkpt lat="51.21201" lon="6.65535">
        <ele>83.456187</ele>
        <time>2024-08-15T07:48:37.883Z</time>
      </trkpt>
      <trkpt lat="51.21194" lon="6.65545">
        <ele>83.434948</ele>
        <time>2024-08-15T07:48:39.899Z</time>
      </trkpt>
      <trkpt lat="51.21187" lon="6.65556">
        <ele>83.414715</ele>
        <time>2024-08-15T07:48:41.895Z</time>
      </trkpt>
      <trkpt lat="51.21179" lon="6.65565">
        <ele>83.393374</ele>
        <time>2024-08-15T07:48:43.874Z</time>
      </trkpt>
      <trkpt lat="51.21171" lon="6.65575">
        <ele>83.370672</ele>
        <time>2024-08-15T07:48:45.889Z</time>
      </trkpt>
      <trkpt lat="51.21164" lon="6.65586">
        <ele>83.349274</ele>
        <time>2024-08-15T07:48:47.881Z</time>
      </trkpt>
      <trkpt lat="51.21156" lon="6.65597">
        <ele>83.327484</ele>
        <time>2024-08-15T07:48:49.888Z</time>
      </trkpt>
      <trkpt lat="51.21149" lon="6.65608">
        <ele>83.304957</ele>
        <time>2024-08-15T07:48:51.888Z</time>
      </trkpt>
      <trkpt lat="51.21141" lon="6.65619">
        <ele>83.282661</ele>
        <time>2024-08-15T07:48:53.889Z</time>
      </trkpt>
      <trkpt lat="51.21134" lon="6.65631">
        <ele>83.259716</ele>
        <time>2024-08-15T07:48:55.920Z</time>
      </trkpt>
      <trkpt lat="51.21125" lon="6.65642">
        <ele>83.236241</ele>
        <time>2024-08-15T07:48:57.958Z</time>
      </trkpt>
      <trkpt lat="51.21116" lon="6.65653">
        <ele>83.210907</ele>
        <time>2024-08-15T07:48:59.902Z</time>
      </trkpt>
      <trkpt lat="51.21108" lon="6.65665">
        <ele>83.187432</ele>
        <time>2024-08-15T07:49:01.871Z</time>
      </trkpt>
      <trkpt lat="51.211" lon="6.65676">
        <ele>83.164119</ele>
        <time>2024-08-15T07:49:03.881Z</time>
      </trkpt>
      <trkpt lat="51.21093" lon="6.65687">
        <ele>83.141986</ele>
        <time>2024-08-15T07:49:05.893Z</time>
      </trkpt>
      <trkpt lat="51.21085" lon="6.65698">
        <ele>83.120773</ele>
        <time>2024-08-15T07:49:07.877Z</time>
      </trkpt>
      <trkpt lat="51.21078" lon="6.65709">
        <ele>83.099155</ele>
        <time>2024-08-15T07:49:09.886Z</time>
      </trkpt>
      <trkpt lat="51.2107" lon="6.65719">
        <ele>83.17394</ele>
        <time>2024-08-15T07:49:11.886Z</time>
      </trkpt>
      <trkpt lat="51.21063" lon="6.6573">
        <ele>83.271694</ele>
        <time>2024-08-15T07:49:13.894Z</time>
      </trkpt>
      <trkpt lat="51.21056" lon="6.6574">
        <ele>83.361499</ele>
        <time>2024-08-15T07:49:15.896Z</time>
      </trkpt>
      <trkpt lat="51.21049" lon="6.6575">
        <ele>83.454511</ele>
        <time>2024-08-15T07:49:17.881Z</time>
      </trkpt>
      <trkpt lat="51.21042" lon="6.6576">
        <ele>83.541053</ele>
        <time>2024-08-15T07:49:19.896Z</time>
      </trkpt>
      <trkpt lat="51.21032" lon="6.65773">
        <ele>83.659658</ele>
        <time>2024-08-15T07:49:22.886Z</time>
      </trkpt>
      <trkpt lat="51.21025" lon="6.65783">
        <ele>83.754319</ele>
        <time>2024-08-15T07:49:25.883Z</time>
      </trkpt>
      <trkpt lat="51.21019" lon="6.65795">
        <ele>83.84188</ele>
        <time>2024-08-15T07:49:29.883Z</time>
      </trkpt>
      <trkpt lat="51.21011" lon="6.65787">
        <ele>83.93593</ele>
        <time>2024-08-15T07:49:36.888Z</time>
      </trkpt>
      <trkpt lat="51.21008" lon="6.65771">
        <ele>84.03519</ele>
        <time>2024-08-15T07:49:40.887Z</time>
      </trkpt>
      <trkpt lat="51.21004" lon="6.65758">
        <ele>84.124701</ele>
        <time>2024-08-15T07:49:43.878Z</time>
      </trkpt>
      <trkpt lat="51.20997" lon="6.65746">
        <ele>84.217757</ele>
        <time>2024-08-15T07:49:47.894Z</time>
      </trkpt>
      <trkpt lat="51.20988" lon="6.65752">
        <ele>84.308433</ele>
        <time>2024-08-15T07:49:52.875Z</time>
      </trkpt>
      <trkpt lat="51.20982" lon="6.65766">
        <ele>84.412881</ele>
        <time>2024-08-15T07:49:57.880Z</time>
      </trkpt>
      <trkpt lat="51.20973" lon="6.65777">
        <ele>84.519086</ele>
        <time>2024-08-15T07:50:01.891Z</time>
      </trkpt>
      <trkpt lat="51.20964" lon="6.65789">
        <ele>84.630605</ele>
        <time>2024-08-15T07:50:04.899Z</time>
      </trkpt>
      <trkpt lat="51.20955" lon="6.65801">
        <ele>84.739108</ele>
        <time>2024-08-15T07:50:07.882Z</time>
      </trkpt>
      <trkpt lat="51.20946" lon="6.65816">
        <ele>84.86201</ele>
        <time>2024-08-15T07:50:10.906Z</time>
      </trkpt>
      <trkpt lat="51.20939" lon="6.65826">
        <ele>84.949324</ele>
        <time>2024-08-15T07:50:12.893Z</time>
      </trkpt>
      <trkpt lat="51.20929" lon="6.65839">
        <ele>85.067434</ele>
        <time>2024-08-15T07:50:15.894Z</time>
      </trkpt>
      <trkpt lat="51.20919" lon="6.65853">
        <ele>85.189141</ele>
        <time>2024-08-15T07:50:18.894Z</time>
      </trkpt>
      <trkpt lat="51.20909" lon="6.65867">
        <ele>85.308676</ele>
        <time>2024-08-15T07:50:21.896Z</time>
      </trkpt>
      <trkpt lat="51.20901" lon="6.65876">
        <ele>85.391783</ele>
        <time>2024-08-15T07:50:23.882Z</time>
      </trkpt>
      <trkpt lat="51.20892" lon="6.6589">
        <ele>85.505171</ele>
        <time>2024-08-15T07:50:26.895Z</time>
      </trkpt>
      <trkpt lat="51.20884" lon="6.65902">
        <ele>85.608748</ele>
        <time>2024-08-15T07:50:29.886Z</time>
      </trkpt>
      <trkpt lat="51.20873" lon="6.65916">
        <ele>85.729623</ele>
        <time>2024-08-15T07:50:32.890Z</time>
      </trkpt>
      <trkpt lat="51.20864" lon="6.6593">
        <ele>85.847796</ele>
        <time>2024-08-15T07:50:35.894Z</time>
      </trkpt>
      <trkpt lat="51.20857" lon="6.65939">
        <ele>85.931692</ele>
        <time>2024-08-15T07:50:37.897Z</time>
      </trkpt>
      <trkpt lat="51.20849" lon="6.65948">
        <ele>86.015101</ele>
        <time>2024-08-15T07:50:39.867Z</time>
      </trkpt>
      <trkpt lat="51.20842" lon="6.65958">
        <ele>86.098147</ele>
        <time>2024-08-15T07:50:41.884Z</time>
      </trkpt>
      <trkpt lat="51.20836" lon="6.65968">
        <ele>86.180175</ele>
        <time>2024-08-15T07:50:43.886Z</time>
      </trkpt>
      <trkpt lat="51.20826" lon="6.6598">
        <ele>86.290848</ele>
        <time>2024-08-15T07:50:46.902Z</time>
      </trkpt>
      <trkpt lat="51.20817" lon="6.65994">
        <ele>86.40557</ele>
        <time>2024-08-15T07:50:49.888Z</time>
      </trkpt>
      <trkpt lat="51.20807" lon="6.66009">
        <ele>86.479396</ele>
        <time>2024-08-15T07:50:52.870Z</time>
      </trkpt>
      <trkpt lat="51.20797" lon="6.66023">
        <ele>86.533087</ele>
        <time>2024-08-15T07:50:55.900Z</time>
      </trkpt>
      <trkpt lat="51.2079" lon="6.66034">
        <ele>86.571029</ele>
        <time>2024-08-15T07:50:57.886Z</time>
      </trkpt>
      <trkpt lat="51.2078" lon="6.66047">
        <ele>86.620622</ele>
        <time>2024-08-15T07:51:00.889Z</time>
      </trkpt>
      <trkpt lat="51.20769" lon="6.66062">
        <ele>86.673141</ele>
        <time>2024-08-15T07:51:03.888Z</time>
      </trkpt>
      <trkpt lat="51.2076" lon="6.66076">
        <ele>86.72422</ele>
        <time>2024-08-15T07:51:06.887Z</time>
      </trkpt>
      <trkpt lat="51.20753" lon="6.66086">
        <ele>86.75954</ele>
        <time>2024-08-15T07:51:08.894Z</time>
      </trkpt>
      <trkpt lat="51.20743" lon="6.66099">
        <ele>86.811124</ele>
        <time>2024-08-15T07:51:11.905Z</time>
      </trkpt>
      <trkpt lat="51.20736" lon="6.66109">
        <ele>86.846405</ele>
        <time>2024-08-15T07:51:13.881Z</time>
      </trkpt>
      <trkpt lat="51.20729" lon="6.66119">
        <ele>86.882056</ele>
        <time>2024-08-15T07:51:15.889Z</time>
      </trkpt>
      <trkpt lat="51.20719" lon="6.66133">
        <ele>86.932774</ele>
        <time>2024-08-15T07:51:18.894Z</time>
      </trkpt>
      <trkpt lat="51.20712" lon="6.66142">
        <ele>86.968505</ele>
        <time>2024-08-15T07:51:20.893Z</time>
      </trkpt>
      <trkpt lat="51.20706" lon="6.66153">
        <ele>87.004156</ele>
        <time>2024-08-15T07:51:22.866Z</time>
      </trkpt>
      <trkpt lat="51.20699" lon="6.66163">
        <ele>87.039761</ele>
        <time>2024-08-15T07:51:24.909Z</time>
      </trkpt>
      <trkpt lat="51.20693" lon="6.66173">
        <ele>87.074633</ele>
        <time>2024-08-15T07:51:26.898Z</time>
      </trkpt>
      <trkpt lat="51.20682" lon="6.66186">
        <ele>87.125432</ele>
        <time>2024-08-15T07:51:29.884Z</time>
      </trkpt>
      <trkpt lat="51.20674" lon="6.66198">
        <ele>87.116217</ele>
        <time>2024-08-15T07:51:32.898Z</time>
      </trkpt>
      <trkpt lat="51.20664" lon="6.66211">
        <ele>87.0839</ele>
        <time>2024-08-15T07:51:35.887Z</time>
      </trkpt>
      <trkpt lat="51.20656" lon="6.66224">
        <ele>87.053107</ele>
        <time>2024-08-15T07:51:38.874Z</time>
      </trkpt>
      <trkpt lat="51.20649" lon="6.66235">
        <ele>87.027428</ele>
        <time>2024-08-15T07:51:40.896Z</time>
      </trkpt>
      <trkpt lat="51.20642" lon="6.66245">
        <ele>87.002193</ele>
        <time>2024-08-15T07:51:42.893Z</time>
      </trkpt>
      <trkpt lat="51.20635" lon="6.66254">
        <ele>86.977908</ele>
        <time>2024-08-15T07:51:44.895Z</time>
      </trkpt>
      <trkpt lat="51.20627" lon="6.66264">
        <ele>86.952401</ele>
        <time>2024-08-15T07:51:46.890Z</time>
      </trkpt>
      <trkpt lat="51.2062" lon="6.66275">
        <ele>86.926338</ele>
        <time>2024-08-15T07:51:48.903Z</time>
      </trkpt>
      <trkpt lat="51.20612" lon="6.66286">
        <ele>86.900402</ele>
        <time>2024-08-15T07:51:50.894Z</time>
      </trkpt>
      <trkpt lat="51.20605" lon="6.66296">
        <ele>86.875186</ele>
        <time>2024-08-15T07:51:52.886Z</time>
      </trkpt>
      <trkpt lat="51.20598" lon="6.66305">
        <ele>86.85142</ele>
        <time>2024-08-15T07:51:54.898Z</time>
      </trkpt>
      <trkpt lat="51.20591" lon="6.66315">
        <ele>86.82624</ele>
        <time>2024-08-15T07:51:56.892Z</time>
      </trkpt>
      <trkpt lat="51.20584" lon="6.66326">
        <ele>86.799812</ele>
        <time>2024-08-15T07:51:58.897Z</time>
      </trkpt>
      <trkpt lat="51.20576" lon="6.66336">
        <ele>86.775225</ele>
        <time>2024-08-15T07:52:00.893Z</time>
      </trkpt>
      <trkpt lat="51.20569" lon="6.66345">
        <ele>86.751663</ele>
        <time>2024-08-15T07:52:02.887Z</time>
      </trkpt>
      <trkpt lat="51.20558" lon="6.66358">
        <ele>86.715391</ele>
        <time>2024-08-15T07:52:05.890Z</time>
      </trkpt>
      <trkpt lat="51.20551" lon="6.66368">
        <ele>86.689546</ele>
        <time>2024-08-15T07:52:07.901Z</time>
      </trkpt>
      <trkpt lat="51.20544" lon="6.66379">
        <ele>86.654035</ele>
        <time>2024-08-15T07:52:09.888Z</time>
      </trkpt>
      <trkpt lat="51.20534" lon="6.66393">
        <ele>86.478936</ele>
        <time>2024-08-15T07:52:12.897Z</time>
      </trkpt>
      <trkpt lat="51.20524" lon="6.66407">
        <ele>86.307396</ele>
        <time>2024-08-15T07:52:15.907Z</time>
      </trkpt>
      <trkpt lat="51.20514" lon="6.66422">
        <ele>86.13067</ele>
        <time>2024-08-15T07:52:18.901Z</time>
      </trkpt>
      <trkpt lat="51.20507" lon="6.66432">
        <ele>86.005815</ele>
        <time>2024-08-15T07:52:20.892Z</time>
      </trkpt>
      <trkpt lat="51.205" lon="6.66442">
        <ele>85.885897</ele>
        <time>2024-08-15T07:52:22.901Z</time>
      </trkpt>
      <trkpt lat="51.20493" lon="6.66452">
        <ele>85.767618</ele>
        <time>2024-08-15T07:52:24.919Z</time>
      </trkpt>
      <trkpt lat="51.20486" lon="6.66462">
        <ele>85.64588</ele>
        <time>2024-08-15T07:52:26.891Z</time>
      </trkpt>
      <trkpt lat="51.20479" lon="6.66471">
        <ele>85.528278</ele>
        <time>2024-08-15T07:52:28.892Z</time>
      </trkpt>
      <trkpt lat="51.20472" lon="6.6648">
        <ele>85.407124</ele>
        <time>2024-08-15T07:52:30.897Z</time>
      </trkpt>
      <trkpt lat="51.20464" lon="6.66491">
        <ele>85.280317</ele>
        <time>2024-08-15T07:52:32.893Z</time>
      </trkpt>
      <trkpt lat="51.20457" lon="6.66501">
        <ele>85.155999</ele>
        <time>2024-08-15T07:52:34.895Z</time>
      </trkpt>
      <trkpt lat="51.2045" lon="6.66511">
        <ele>85.031235</ele>
        <time>2024-08-15T07:52:36.892Z</time>
      </trkpt>
      <trkpt lat="51.20443" lon="6.6652">
        <ele>84.91008</ele>
        <time>2024-08-15T07:52:38.880Z</time>
      </trkpt>
      <trkpt lat="51.20436" lon="6.66531">
        <ele>84.786051</ele>
        <time>2024-08-15T07:52:40.889Z</time>
      </trkpt>
      <trkpt lat="51.20428" lon="6.6654">
        <ele>84.663328</ele>
        <time>2024-08-15T07:52:42.894Z</time>
      </trkpt>
      <trkpt lat="51.20422" lon="6.66551">
        <ele>84.543804</ele>
        <time>2024-08-15T07:52:44.897Z</time>
      </trkpt>
      <trkpt lat="51.20412" lon="6.66565">
        <ele>84.367327</ele>
        <time>2024-08-15T07:52:47.893Z</time>
      </trkpt>
      <trkpt lat="51.20405" lon="6.66575">
        <ele>84.393212</ele>
        <time>2024-08-15T07:52:49.890Z</time>
      </trkpt>
      <trkpt lat="51.20399" lon="6.66585">
        <ele>84.476069</ele>
        <time>2024-08-15T07:52:51.902Z</time>
      </trkpt>
      <trkpt lat="51.20392" lon="6.66596">
        <ele>84.561432</ele>
        <time>2024-08-15T07:52:53.873Z</time>
      </trkpt>
      <trkpt lat="51.20385" lon="6.66607">
        <ele>84.648726</ele>
        <time>2024-08-15T07:52:55.897Z</time>
      </trkpt>
      <trkpt lat="51.20378" lon="6.66615">
        <ele>84.732746</ele>
        <time>2024-08-15T07:52:57.896Z</time>
      </trkpt>
      <trkpt lat="51.20371" lon="6.66625">
        <ele>84.816712</ele>
        <time>2024-08-15T07:52:59.870Z</time>
      </trkpt>
      <trkpt lat="51.20364" lon="6.66635">
        <ele>84.904038</ele>
        <time>2024-08-15T07:53:01.889Z</time>
      </trkpt>
      <trkpt lat="51.20357" lon="6.66646">
        <ele>84.988768</ele>
        <time>2024-08-15T07:53:03.885Z</time>
      </trkpt>
      <trkpt lat="51.20347" lon="6.66659">
        <ele>85.109903</ele>
        <time>2024-08-15T07:53:06.893Z</time>
      </trkpt>
      <trkpt lat="51.2034" lon="6.66668">
        <ele>85.195648</ele>
        <time>2024-08-15T07:53:08.895Z</time>
      </trkpt>
      <trkpt lat="51.2033" lon="6.66683">
        <ele>85.314362</ele>
        <time>2024-08-15T07:53:11.869Z</time>
      </trkpt>
      <trkpt lat="51.20322" lon="6.66693">
        <ele>85.412456</ele>
        <time>2024-08-15T07:53:14.894Z</time>
      </trkpt>
      <trkpt lat="51.20313" lon="6.66709">
        <ele>85.536227</ele>
        <time>2024-08-15T07:53:17.892Z</time>
      </trkpt>
      <trkpt lat="51.20305" lon="6.66719">
        <ele>85.626305</ele>
        <time>2024-08-15T07:53:19.901Z</time>
      </trkpt>
      <trkpt lat="51.20297" lon="6.66728">
        <ele>85.718196</ele>
        <time>2024-08-15T07:53:21.891Z</time>
      </trkpt>
      <trkpt lat="51.2029" lon="6.66739">
        <ele>85.805233</ele>
        <time>2024-08-15T07:53:23.880Z</time>
      </trkpt>
      <trkpt lat="51.20283" lon="6.66748">
        <ele>85.888837</ele>
        <time>2024-08-15T07:53:25.890Z</time>
      </trkpt>
      <trkpt lat="51.20273" lon="6.66762">
        <ele>85.955759</ele>
        <time>2024-08-15T07:53:28.897Z</time>
      </trkpt>
      <trkpt lat="51.20264" lon="6.66775">
        <ele>85.866878</ele>
        <time>2024-08-15T07:53:31.888Z</time>
      </trkpt>
      <trkpt lat="51.20254" lon="6.66788">
        <ele>85.779305</ele>
        <time>2024-08-15T07:53:34.894Z</time>
      </trkpt>
      <trkpt lat="51.20247" lon="6.66799">
        <ele>85.709227</ele>
        <time>2024-08-15T07:53:37.890Z</time>
      </trkpt>
      <trkpt lat="51.2024" lon="6.66809">
        <ele>85.63961</ele>
        <time>2024-08-15T07:53:40.905Z</time>
      </trkpt>
      <trkpt lat="51.20231" lon="6.66821">
        <ele>85.556787</ele>
        <time>2024-08-15T07:53:43.901Z</time>
      </trkpt>
      <trkpt lat="51.20223" lon="6.66832">
        <ele>85.483261</ele>
        <time>2024-08-15T07:53:46.899Z</time>
      </trkpt>
      <trkpt lat="51.20214" lon="6.66842">
        <ele>85.41057</ele>
        <time>2024-08-15T07:53:49.881Z</time>
      </trkpt>
      <trkpt lat="51.20205" lon="6.66856">
        <ele>85.318194</ele>
        <time>2024-08-15T07:53:52.885Z</time>
      </trkpt>
      <trkpt lat="51.20196" lon="6.66868">
        <ele>85.234193</ele>
        <time>2024-08-15T07:53:54.895Z</time>
      </trkpt>
      <trkpt lat="51.20189" lon="6.6688">
        <ele>85.163311</ele>
        <time>2024-08-15T07:53:56.903Z</time>
      </trkpt>
      <trkpt lat="51.20182" lon="6.66891">
        <ele>85.092522</ele>
        <time>2024-08-15T07:53:58.878Z</time>
      </trkpt>
      <trkpt lat="51.20173" lon="6.66903">
        <ele>85.015373</ele>
        <time>2024-08-15T07:54:00.902Z</time>
      </trkpt>
      <trkpt lat="51.20166" lon="6.66913">
        <ele>84.948702</ele>
        <time>2024-08-15T07:54:02.889Z</time>
      </trkpt>
      <trkpt lat="51.20159" lon="6.66923">
        <ele>84.878459</ele>
        <time>2024-08-15T07:54:04.892Z</time>
      </trkpt>
      <trkpt lat="51.20152" lon="6.66933">
        <ele>84.812078</ele>
        <time>2024-08-15T07:54:06.891Z</time>
      </trkpt>
      <trkpt lat="51.20145" lon="6.66943">
        <ele>84.746808</ele>
        <time>2024-08-15T07:54:08.903Z</time>
      </trkpt>
      <trkpt lat="51.20138" lon="6.66952">
        <ele>84.690586</ele>
        <time>2024-08-15T07:54:10.878Z</time>
      </trkpt>
      <trkpt lat="51.20128" lon="6.66966">
        <ele>84.622392</ele>
        <time>2024-08-15T07:54:13.873Z</time>
      </trkpt>
      <trkpt lat="51.20118" lon="6.66979">
        <ele>84.55393</ele>
        <time>2024-08-15T07:54:16.883Z</time>
      </trkpt>
      <trkpt lat="51.20111" lon="6.66989">
        <ele>84.503676</ele>
        <time>2024-08-15T07:54:18.895Z</time>
      </trkpt>
      <trkpt lat="51.20102" lon="6.67004">
        <ele>84.436493</ele>
        <time>2024-08-15T07:54:21.902Z</time>
      </trkpt>
      <trkpt lat="51.20095" lon="6.67014">
        <ele>84.38816</ele>
        <time>2024-08-15T07:54:23.883Z</time>
      </trkpt>
      <trkpt lat="51.20084" lon="6.67027">
        <ele>84.317477</ele>
        <time>2024-08-15T07:54:26.892Z</time>
      </trkpt>
      <trkpt lat="51.20074" lon="6.67041">
        <ele>84.247405</ele>
        <time>2024-08-15T07:54:29.897Z</time>
      </trkpt>
      <trkpt lat="51.20065" lon="6.67056">
        <ele>84.17915</ele>
        <time>2024-08-15T07:54:32.889Z</time>
      </trkpt>
      <trkpt lat="51.20056" lon="6.67069">
        <ele>84.115172</ele>
        <time>2024-08-15T07:54:35.881Z</time>
      </trkpt>
      <trkpt lat="51.20047" lon="6.67074">
        <ele>84.06536</ele>
        <time>2024-08-15T07:54:39.889Z</time>
      </trkpt>
      <trkpt lat="51.20038" lon="6.6707">
        <ele>84.017288</ele>
        <time>2024-08-15T07:54:42.894Z</time>
      </trkpt>
      <trkpt lat="51.20028" lon="6.67078">
        <ele>83.960514</ele>
        <time>2024-08-15T07:54:46.884Z</time>
      </trkpt>
      <trkpt lat="51.20021" lon="6.6709">
        <ele>83.904192</ele>
        <time>2024-08-15T07:54:49.888Z</time>
      </trkpt>
      <trkpt lat="51.2001" lon="6.67107">
        <ele>83.82721</ele>
        <time>2024-08-15T07:54:52.900Z</time>
      </trkpt>
      <trkpt lat="51.20002" lon="6.67122">
        <ele>83.760917</ele>
        <time>2024-08-15T07:54:54.891Z</time>
      </trkpt>
      <trkpt lat="51.19992" lon="6.67136">
        <ele>83.694256</ele>
        <time>2024-08-15T07:54:56.889Z</time>
      </trkpt>
      <trkpt lat="51.19982" lon="6.67151">
        <ele>83.622613</ele>
        <time>2024-08-15T07:54:58.896Z</time>
      </trkpt>
      <trkpt lat="51.19972" lon="6.67162">
        <ele>83.559283</ele>
        <time>2024-08-15T07:55:00.885Z</time>
      </trkpt>
      <trkpt lat="51.19965" lon="6.67176">
        <ele>83.501042</ele>
        <time>2024-08-15T07:55:03.878Z</time>
      </trkpt>
      <trkpt lat="51.19959" lon="6.67192">
        <ele>83.442586</ele>
        <time>2024-08-15T07:55:07.879Z</time>
      </trkpt>
      <trkpt lat="51.19951" lon="6.67206">
        <ele>83.381648</ele>
        <time>2024-08-15T07:55:11.891Z</time>
      </trkpt>
      <trkpt lat="51.19944" lon="6.67219">
        <ele>83.328288</ele>
        <time>2024-08-15T07:55:14.885Z</time>
      </trkpt>
      <trkpt lat="51.19936" lon="6.67232">
        <ele>83.268508</ele>
        <time>2024-08-15T07:55:17.890Z</time>
      </trkpt>
      <trkpt lat="51.19928" lon="6.67245">
        <ele>83.208981</ele>
        <time>2024-08-15T07:55:20.887Z</time>
      </trkpt>
      <trkpt lat="51.19919" lon="6.67257">
        <ele>83.149644</ele>
        <time>2024-08-15T07:55:23.885Z</time>
      </trkpt>
      <trkpt lat="51.19911" lon="6.67268">
        <ele>83.094141</ele>
        <time>2024-08-15T07:55:26.894Z</time>
      </trkpt>
      <trkpt lat="51.19905" lon="6.67278">
        <ele>83.047743</ele>
        <time>2024-08-15T07:55:28.886Z</time>
      </trkpt>
      <trkpt lat="51.19898" lon="6.67292">
        <ele>82.989501</ele>
        <time>2024-08-15T07:55:31.877Z</time>
      </trkpt>
      <trkpt lat="51.1989" lon="6.67305">
        <ele>82.93066</ele>
        <time>2024-08-15T07:55:34.909Z</time>
      </trkpt>
      <trkpt lat="51.1988" lon="6.67319">
        <ele>82.865926</ele>
        <time>2024-08-15T07:55:37.897Z</time>
      </trkpt>
      <trkpt lat="51.19872" lon="6.67326">
        <ele>82.983678</ele>
        <time>2024-08-15T07:55:39.899Z</time>
      </trkpt>
      <trkpt lat="51.19865" lon="6.67334">
        <ele>83.207476</ele>
        <time>2024-08-15T07:55:41.889Z</time>
      </trkpt>
      <trkpt lat="51.19856" lon="6.67344">
        <ele>83.459551</ele>
        <time>2024-08-15T07:55:43.899Z</time>
      </trkpt>
      <trkpt lat="51.19846" lon="6.67354">
        <ele>83.7581</ele>
        <time>2024-08-15T07:55:46.913Z</time>
      </trkpt>
      <trkpt lat="51.19838" lon="6.67362">
        <ele>83.990295</ele>
        <time>2024-08-15T07:55:48.883Z</time>
      </trkpt>
      <trkpt lat="51.19828" lon="6.67371">
        <ele>84.275407</ele>
        <time>2024-08-15T07:55:51.894Z</time>
      </trkpt>
      <trkpt lat="51.1982" lon="6.6738">
        <ele>84.519665</ele>
        <time>2024-08-15T07:55:54.890Z</time>
      </trkpt>
      <trkpt lat="51.19814" lon="6.6739">
        <ele>84.743281</ele>
        <time>2024-08-15T07:55:59.897Z</time>
      </trkpt>
      <trkpt lat="51.19811" lon="6.67409">
        <ele>85.051309</ele>
        <time>2024-08-15T07:56:20.911Z</time>
      </trkpt>
      <trkpt lat="51.19816" lon="6.67425">
        <ele>85.320271</ele>
        <time>2024-08-15T07:56:23.881Z</time>
      </trkpt>
      <trkpt lat="51.19821" lon="6.67439">
        <ele>85.575528</ele>
        <time>2024-08-15T07:56:26.887Z</time>
      </trkpt>
      <trkpt lat="51.19825" lon="6.67453">
        <ele>85.82141</ele>
        <time>2024-08-15T07:56:29.887Z</time>
      </trkpt>
      <trkpt lat="51.19825" lon="6.67471">
        <ele>86.094741</ele>
        <time>2024-08-15T07:56:33.885Z</time>
      </trkpt>
      <trkpt lat="51.19816" lon="6.67478">
        <ele>86.364604</ele>
        <time>2024-08-15T07:56:37.886Z</time>
      </trkpt>
      <trkpt lat="51.19807" lon="6.67479">
        <ele>86.590522</ele>
        <time>2024-08-15T07:56:40.891Z</time>
      </trkpt>
      <trkpt lat="51.19797" lon="6.6749">
        <ele>86.88346</ele>
        <time>2024-08-15T07:56:44.901Z</time>
      </trkpt>
      <trkpt lat="51.19788" lon="6.67502">
        <ele>87.164366</ele>
        <time>2024-08-15T07:56:47.893Z</time>
      </trkpt>
      <trkpt lat="51.19778" lon="6.67515">
        <ele>87.22171</ele>
        <time>2024-08-15T07:56:50.892Z</time>
      </trkpt>
      <trkpt lat="51.19769" lon="6.6753">
        <ele>87.083815</ele>
        <time>2024-08-15T07:56:53.871Z</time>
      </trkpt>
      <trkpt lat="51.1976" lon="6.67542">
        <ele>86.949727</ele>
        <time>2024-08-15T07:56:56.897Z</time>
      </trkpt>
      <trkpt lat="51.1975" lon="6.67556">
        <ele>86.811286</ele>
        <time>2024-08-15T07:56:59.890Z</time>
      </trkpt>
      <trkpt lat="51.1974" lon="6.6757">
        <ele>86.669663</ele>
        <time>2024-08-15T07:57:02.893Z</time>
      </trkpt>
      <trkpt lat="51.1973" lon="6.67584">
        <ele>86.52725</ele>
        <time>2024-08-15T07:57:05.877Z</time>
      </trkpt>
      <trkpt lat="51.19721" lon="6.67598">
        <ele>86.389354</ele>
        <time>2024-08-15T07:57:08.894Z</time>
      </trkpt>
      <trkpt lat="51.19711" lon="6.67612">
        <ele>86.248858</ele>
        <time>2024-08-15T07:57:11.884Z</time>
      </trkpt>
      <trkpt lat="51.19702" lon="6.67626">
        <ele>86.110181</ele>
        <time>2024-08-15T07:57:14.887Z</time>
      </trkpt>
      <trkpt lat="51.19692" lon="6.6764">
        <ele>85.971013</ele>
        <time>2024-08-15T07:57:17.884Z</time>
      </trkpt>
      <trkpt lat="51.19682" lon="6.67654">
        <ele>85.829969</ele>
        <time>2024-08-15T07:57:20.891Z</time>
      </trkpt>
      <trkpt lat="51.19673" lon="6.67668">
        <ele>85.685706</ele>
        <time>2024-08-15T07:57:23.885Z</time>
      </trkpt>
      <trkpt lat="51.19663" lon="6.67683">
        <ele>85.545069</ele>
        <time>2024-08-15T07:57:26.893Z</time>
      </trkpt>
      <trkpt lat="51.19654" lon="6.677">
        <ele>85.399018</ele>
        <time>2024-08-15T07:57:29.891Z</time>
      </trkpt>
      <trkpt lat="51.19648" lon="6.6771">
        <ele>85.371711</ele>
        <time>2024-08-15T07:57:31.886Z</time>
      </trkpt>
      <trkpt lat="51.19641" lon="6.67721">
        <ele>85.377513</ele>
        <time>2024-08-15T07:57:33.883Z</time>
      </trkpt>
      <trkpt lat="51.19636" lon="6.67733">
        <ele>85.383142</ele>
        <time>2024-08-15T07:57:35.895Z</time>
      </trkpt>
      <trkpt lat="51.19629" lon="6.67743">
        <ele>85.388717</ele>
        <time>2024-08-15T07:57:37.898Z</time>
      </trkpt>
      <trkpt lat="51.19621" lon="6.67759">
        <ele>85.396825</ele>
        <time>2024-08-15T07:57:40.890Z</time>
      </trkpt>
      <trkpt lat="51.19616" lon="6.67771">
        <ele>85.402418</ele>
        <time>2024-08-15T07:57:42.889Z</time>
      </trkpt>
      <trkpt lat="51.19611" lon="6.67783">
        <ele>85.408032</ele>
        <time>2024-08-15T07:57:44.885Z</time>
      </trkpt>
      <trkpt lat="51.19605" lon="6.67795">
        <ele>85.413847</ele>
        <time>2024-08-15T07:57:46.879Z</time>
      </trkpt>
      <trkpt lat="51.196" lon="6.67808">
        <ele>85.41966</ele>
        <time>2024-08-15T07:57:48.899Z</time>
      </trkpt>
      <trkpt lat="51.19595" lon="6.6782">
        <ele>85.425406</ele>
        <time>2024-08-15T07:57:50.881Z</time>
      </trkpt>
      <trkpt lat="51.1959" lon="6.67832">
        <ele>85.431058</ele>
        <time>2024-08-15T07:57:52.885Z</time>
      </trkpt>
      <trkpt lat="51.19585" lon="6.67845">
        <ele>85.436708</ele>
        <time>2024-08-15T07:57:54.891Z</time>
      </trkpt>
      <trkpt lat="51.19579" lon="6.67863">
        <ele>85.444952</ele>
        <time>2024-08-15T07:57:57.890Z</time>
      </trkpt>
      <trkpt lat="51.19573" lon="6.67883">
        <ele>85.453127</ele>
        <time>2024-08-15T07:58:00.868Z</time>
      </trkpt>
      <trkpt lat="51.19569" lon="6.67902">
        <ele>85.461047</ele>
        <time>2024-08-15T07:58:03.874Z</time>
      </trkpt>
      <trkpt lat="51.19566" lon="6.67921">
        <ele>85.468729</ele>
        <time>2024-08-15T07:58:06.887Z</time>
      </trkpt>
      <trkpt lat="51.19565" lon="6.67938">
        <ele>85.475449</ele>
        <time>2024-08-15T07:58:09.880Z</time>
      </trkpt>
      <trkpt lat="51.19564" lon="6.67956">
        <ele>85.456948</ele>
        <time>2024-08-15T07:58:12.877Z</time>
      </trkpt>
      <trkpt lat="51.19561" lon="6.67972">
        <ele>85.415203</ele>
        <time>2024-08-15T07:58:15.892Z</time>
      </trkpt>
      <trkpt lat="51.19557" lon="6.67989">
        <ele>85.3707</ele>
        <time>2024-08-15T07:58:18.876Z</time>
      </trkpt>
      <trkpt lat="51.19552" lon="6.68005">
        <ele>85.327254</ele>
        <time>2024-08-15T07:58:21.889Z</time>
      </trkpt>
      <trkpt lat="51.19546" lon="6.68021">
        <ele>85.279889</ele>
        <time>2024-08-15T07:58:24.890Z</time>
      </trkpt>
      <trkpt lat="51.19539" lon="6.68033">
        <ele>85.237426</ele>
        <time>2024-08-15T07:58:27.889Z</time>
      </trkpt>
      <trkpt lat="51.19534" lon="6.68046">
        <ele>85.201011</ele>
        <time>2024-08-15T07:58:38.888Z</time>
      </trkpt>
      <trkpt lat="51.19541" lon="6.68056">
        <ele>85.164984</ele>
        <time>2024-08-15T07:58:42.891Z</time>
      </trkpt>
      <trkpt lat="51.19539" lon="6.68073">
        <ele>85.12042</ele>
        <time>2024-08-15T07:58:46.893Z</time>
      </trkpt>
      <trkpt lat="51.19536" lon="6.6809">
        <ele>85.076678</ele>
        <time>2024-08-15T07:58:50.902Z</time>
      </trkpt>
      <trkpt lat="51.19532" lon="6.68106">
        <ele>85.034721</ele>
        <time>2024-08-15T07:58:55.882Z</time>
      </trkpt>
      <trkpt lat="51.19538" lon="6.6809">
        <ele>84.990233</ele>
        <time>2024-08-15T07:59:07.890Z</time>
      </trkpt>
      <trkpt lat="51.19541" lon="6.68076">
        <ele>84.950796</ele>
        <time>2024-08-15T07:59:11.889Z</time>
      </trkpt>
      <trkpt lat="51.19544" lon="6.68062">
        <ele>84.914647</ele>
        <time>2024-08-15T07:59:15.890Z</time>
      </trkpt>
      <trkpt lat="51.19535" lon="6.6806">
        <ele>84.877595</ele>
        <time>2024-08-15T07:59:19.878Z</time>
      </trkpt>
      <trkpt lat="51.19524" lon="6.68065">
        <ele>84.831738</ele>
        <time>2024-08-15T07:59:23.878Z</time>
      </trkpt>
      <trkpt lat="51.19519" lon="6.68078">
        <ele>84.794468</ele>
        <time>2024-08-15T07:59:26.899Z</time>
      </trkpt>
      <trkpt lat="51.19516" lon="6.68092">
        <ele>84.786192</ele>
        <time>2024-08-15T07:59:29.894Z</time>
      </trkpt>
      <trkpt lat="51.19513" lon="6.68106">
        <ele>84.868014</ele>
        <time>2024-08-15T07:59:32.899Z</time>
      </trkpt>
      <trkpt lat="51.19509" lon="6.68124">
        <ele>84.973977</ele>
        <time>2024-08-15T07:59:36.898Z</time>
      </trkpt>
      <trkpt lat="51.19507" lon="6.6814">
        <ele>85.060901</ele>
        <time>2024-08-15T07:59:39.898Z</time>
      </trkpt>
      <trkpt lat="51.19504" lon="6.68155">
        <ele>85.149668</ele>
        <time>2024-08-15T07:59:42.900Z</time>
      </trkpt>
      <trkpt lat="51.195" lon="6.6817">
        <ele>85.24075</ele>
        <time>2024-08-15T07:59:45.878Z</time>
      </trkpt>
      <trkpt lat="51.19496" lon="6.68189">
        <ele>85.352282</ele>
        <time>2024-08-15T07:59:48.890Z</time>
      </trkpt>
      <trkpt lat="51.19493" lon="6.6821">
        <ele>85.471016</ele>
        <time>2024-08-15T07:59:51.889Z</time>
      </trkpt>
      <trkpt lat="51.19488" lon="6.68229">
        <ele>85.585884</ele>
        <time>2024-08-15T07:59:54.906Z</time>
      </trkpt>
      <trkpt lat="51.19482" lon="6.68248">
        <ele>85.704632</ele>
        <time>2024-08-15T07:59:57.890Z</time>
      </trkpt>
      <trkpt lat="51.19478" lon="6.68267">
        <ele>85.814606</ele>
        <time>2024-08-15T08:00:00.887Z</time>
      </trkpt>
      <trkpt lat="51.19474" lon="6.68286">
        <ele>85.927746</ele>
        <time>2024-08-15T08:00:03.886Z</time>
      </trkpt>
      <trkpt lat="51.19472" lon="6.68304">
        <ele>86.028931</ele>
        <time>2024-08-15T08:00:06.898Z</time>
      </trkpt>
      <trkpt lat="51.19469" lon="6.68322">
        <ele>86.132596</ele>
        <time>2024-08-15T08:00:09.890Z</time>
      </trkpt>
      <trkpt lat="51.19465" lon="6.68341">
        <ele>86.243186</ele>
        <time>2024-08-15T08:00:12.876Z</time>
      </trkpt>
      <trkpt lat="51.19461" lon="6.68358">
        <ele>86.349566</ele>
        <time>2024-08-15T08:00:15.889Z</time>
      </trkpt>
      <trkpt lat="51.19457" lon="6.68379">
        <ele>86.357083</ele>
        <time>2024-08-15T08:00:18.889Z</time>
      </trkpt>
      <trkpt lat="51.19454" lon="6.68392">
        <ele>86.352215</ele>
        <time>2024-08-15T08:00:20.883Z</time>
      </trkpt>
      <trkpt lat="51.1945" lon="6.68412">
        <ele>86.345427</ele>
        <time>2024-08-15T08:00:23.881Z</time>
      </trkpt>
      <trkpt lat="51.19447" lon="6.68425">
        <ele>86.340622</ele>
        <time>2024-08-15T08:00:25.886Z</time>
      </trkpt>
      <trkpt lat="51.19443" lon="6.68445">
        <ele>86.333627</ele>
        <time>2024-08-15T08:00:28.889Z</time>
      </trkpt>
      <trkpt lat="51.19438" lon="6.68464">
        <ele>86.326754</ele>
        <time>2024-08-15T08:00:31.900Z</time>
      </trkpt>
      <trkpt lat="51.19433" lon="6.68482">
        <ele>86.320272</ele>
        <time>2024-08-15T08:00:34.904Z</time>
      </trkpt>
      <trkpt lat="51.1943" lon="6.68497">
        <ele>86.314814</ele>
        <time>2024-08-15T08:00:37.880Z</time>
      </trkpt>
      <trkpt lat="51.19427" lon="6.68512">
        <ele>86.309687</ele>
        <time>2024-08-15T08:00:40.875Z</time>
      </trkpt>
      <trkpt lat="51.19424" lon="6.68527">
        <ele>86.304419</ele>
        <time>2024-08-15T08:00:43.877Z</time>
      </trkpt>
      <trkpt lat="51.1942" lon="6.68542">
        <ele>86.298864</ele>
        <time>2024-08-15T08:00:46.891Z</time>
      </trkpt>
      <trkpt lat="51.19417" lon="6.68557">
        <ele>86.293708</ele>
        <time>2024-08-15T08:00:49.880Z</time>
      </trkpt>
      <trkpt lat="51.19414" lon="6.68572">
        <ele>86.288329</ele>
        <time>2024-08-15T08:00:52.898Z</time>
      </trkpt>
      <trkpt lat="51.19411" lon="6.6859">
        <ele>86.282296</ele>
        <time>2024-08-15T08:00:55.887Z</time>
      </trkpt>
      <trkpt lat="51.19407" lon="6.6861">
        <ele>86.275226</ele>
        <time>2024-08-15T08:00:57.891Z</time>
      </trkpt>
      <trkpt lat="51.19404" lon="6.68627">
        <ele>86.269385</ele>
        <time>2024-08-15T08:00:59.905Z</time>
      </trkpt>
      <trkpt lat="51.19401" lon="6.68643">
        <ele>86.251137</ele>
        <time>2024-08-15T08:01:01.890Z</time>
      </trkpt>
      <trkpt lat="51.19398" lon="6.68657">
        <ele>86.226947</ele>
        <time>2024-08-15T08:01:03.884Z</time>
      </trkpt>
      <trkpt lat="51.19394" lon="6.68672">
        <ele>86.202803</ele>
        <time>2024-08-15T08:01:05.888Z</time>
      </trkpt>
      <trkpt lat="51.19392" lon="6.68687">
        <ele>86.179397</ele>
        <time>2024-08-15T08:01:07.888Z</time>
      </trkpt>
      <trkpt lat="51.19389" lon="6.68701">
        <ele>86.155722</ele>
        <time>2024-08-15T08:01:09.880Z</time>
      </trkpt>
      <trkpt lat="51.19386" lon="6.68717">
        <ele>86.130502</ele>
        <time>2024-08-15T08:01:11.890Z</time>
      </trkpt>
      <trkpt lat="51.19384" lon="6.68732">
        <ele>86.106076</ele>
        <time>2024-08-15T08:01:13.907Z</time>
      </trkpt>
      <trkpt lat="51.19381" lon="6.68747">
        <ele>86.083211</ele>
        <time>2024-08-15T08:01:15.904Z</time>
      </trkpt>
      <trkpt lat="51.19376" lon="6.68767">
        <ele>86.050114</ele>
        <time>2024-08-15T08:01:18.890Z</time>
      </trkpt>
      <trkpt lat="51.19373" lon="6.68781">
        <ele>86.027355</ele>
        <time>2024-08-15T08:01:20.896Z</time>
      </trkpt>
      <trkpt lat="51.1937" lon="6.68796">
        <ele>86.002506</ele>
        <time>2024-08-15T08:01:23.880Z</time>
      </trkpt>
      <trkpt lat="51.19374" lon="6.6881">
        <ele>85.978312</ele>
        <time>2024-08-15T08:01:29.891Z</time>
      </trkpt>
      <trkpt lat="51.19372" lon="6.68826">
        <ele>85.95316</ele>
        <time>2024-08-15T08:01:33.886Z</time>
      </trkpt>
      <trkpt lat="51.19369" lon="6.68842">
        <ele>85.926984</ele>
        <time>2024-08-15T08:01:36.899Z</time>
      </trkpt>
      <trkpt lat="51.19365" lon="6.6886">
        <ele>85.89787</ele>
        <time>2024-08-15T08:01:39.894Z</time>
      </trkpt>
      <trkpt lat="51.19362" lon="6.68878">
        <ele>85.870006</ele>
        <time>2024-08-15T08:01:42.904Z</time>
      </trkpt>
      <trkpt lat="51.19358" lon="6.68894">
        <ele>85.843748</ele>
        <time>2024-08-15T08:01:45.899Z</time>
      </trkpt>
      <trkpt lat="51.19354" lon="6.68912">
        <ele>85.834736</ele>
        <time>2024-08-15T08:01:48.893Z</time>
      </trkpt>
      <trkpt lat="51.19351" lon="6.6893">
        <ele>85.861306</ele>
        <time>2024-08-15T08:01:51.888Z</time>
      </trkpt>
      <trkpt lat="51.19347" lon="6.68949">
        <ele>85.888755</ele>
        <time>2024-08-15T08:01:54.888Z</time>
      </trkpt>
      <trkpt lat="51.19344" lon="6.68964">
        <ele>85.910875</ele>
        <time>2024-08-15T08:01:57.890Z</time>
      </trkpt>
      <trkpt lat="51.19339" lon="6.68976">
        <ele>85.930931</ele>
        <time>2024-08-15T08:02:02.910Z</time>
      </trkpt>
      <trkpt lat="51.19331" lon="6.68985">
        <ele>85.952134</ele>
        <time>2024-08-15T08:02:08.896Z</time>
      </trkpt>
      <trkpt lat="51.19328" lon="6.69004">
        <ele>85.979314</ele>
        <time>2024-08-15T08:02:12.888Z</time>
      </trkpt>
      <trkpt lat="51.19326" lon="6.69018">
        <ele>85.999463</ele>
        <time>2024-08-15T08:02:15.897Z</time>
      </trkpt>
      <trkpt lat="51.19323" lon="6.69034">
        <ele>86.022638</ele>
        <time>2024-08-15T08:02:18.894Z</time>
      </trkpt>
      <trkpt lat="51.19319" lon="6.69054">
        <ele>86.052411</ele>
        <time>2024-08-15T08:02:21.887Z</time>
      </trkpt>
      <trkpt lat="51.19314" lon="6.69073">
        <ele>86.080637</ele>
        <time>2024-08-15T08:02:24.878Z</time>
      </trkpt>
      <trkpt lat="51.1931" lon="6.69091">
        <ele>86.107488</ele>
        <time>2024-08-15T08:02:27.889Z</time>
      </trkpt>
      <trkpt lat="51.19307" lon="6.69106">
        <ele>86.129608</ele>
        <time>2024-08-15T08:02:30.903Z</time>
      </trkpt>
      <trkpt lat="51.19303" lon="6.69124">
        <ele>86.155899</ele>
        <time>2024-08-15T08:02:34.890Z</time>
      </trkpt>
      <trkpt lat="51.19298" lon="6.6914">
        <ele>86.180417</ele>
        <time>2024-08-15T08:02:37.892Z</time>
      </trkpt>
      <trkpt lat="51.19294" lon="6.69154">
        <ele>86.20264</ele>
        <time>2024-08-15T08:02:39.899Z</time>
      </trkpt>
      <trkpt lat="51.1929" lon="6.69169">
        <ele>86.224206</ele>
        <time>2024-08-15T08:02:41.891Z</time>
      </trkpt>
      <trkpt lat="51.19286" lon="6.69183">
        <ele>86.198038</ele>
        <time>2024-08-15T08:02:43.891Z</time>
      </trkpt>
      <trkpt lat="51.19282" lon="6.692">
        <ele>86.16929</ele>
        <time>2024-08-15T08:02:45.894Z</time>
      </trkpt>
      <trkpt lat="51.19278" lon="6.69213">
        <ele>86.143769</ele>
        <time>2024-08-15T08:02:47.873Z</time>
      </trkpt>
      <trkpt lat="51.19273" lon="6.6923">
        <ele>86.111677</ele>
        <time>2024-08-15T08:02:49.876Z</time>
      </trkpt>
      <trkpt lat="51.19269" lon="6.69246">
        <ele>86.08446</ele>
        <time>2024-08-15T08:02:51.888Z</time>
      </trkpt>
      <trkpt lat="51.19267" lon="6.69267">
        <ele>86.049207</ele>
        <time>2024-08-15T08:02:53.886Z</time>
      </trkpt>
      <trkpt lat="51.19268" lon="6.69282">
        <ele>86.022777</ele>
        <time>2024-08-15T08:02:55.889Z</time>
      </trkpt>
      <trkpt lat="51.19268" lon="6.693">
        <ele>85.993181</ele>
        <time>2024-08-15T08:02:59.897Z</time>
      </trkpt>
      <trkpt lat="51.19265" lon="6.69316">
        <ele>85.96502</ele>
        <time>2024-08-15T08:03:02.901Z</time>
      </trkpt>
      <trkpt lat="51.1926" lon="6.69335">
        <ele>85.930387</ele>
        <time>2024-08-15T08:03:05.889Z</time>
      </trkpt>
      <trkpt lat="51.19256" lon="6.69355">
        <ele>85.895931</ele>
        <time>2024-08-15T08:03:08.889Z</time>
      </trkpt>
      <trkpt lat="51.19252" lon="6.69374">
        <ele>85.861485</ele>
        <time>2024-08-15T08:03:11.893Z</time>
      </trkpt>
      <trkpt lat="51.19248" lon="6.69394">
        <ele>85.827122</ele>
        <time>2024-08-15T08:03:14.904Z</time>
      </trkpt>
      <trkpt lat="51.19244" lon="6.69413">
        <ele>85.79403</ele>
        <time>2024-08-15T08:03:17.903Z</time>
      </trkpt>
      <trkpt lat="51.1924" lon="6.69433">
        <ele>85.759013</ele>
        <time>2024-08-15T08:03:20.892Z</time>
      </trkpt>
      <trkpt lat="51.19235" lon="6.69452">
        <ele>85.833046</ele>
        <time>2024-08-15T08:03:23.889Z</time>
      </trkpt>
      <trkpt lat="51.19231" lon="6.69472">
        <ele>85.978116</ele>
        <time>2024-08-15T08:03:26.888Z</time>
      </trkpt>
      <trkpt lat="51.19228" lon="6.69485">
        <ele>86.07875</ele>
        <time>2024-08-15T08:03:28.894Z</time>
      </trkpt>
      <trkpt lat="51.19225" lon="6.69499">
        <ele>86.180549</ele>
        <time>2024-08-15T08:03:30.893Z</time>
      </trkpt>
      <trkpt lat="51.19221" lon="6.69518">
        <ele>86.319814</ele>
        <time>2024-08-15T08:03:33.903Z</time>
      </trkpt>
      <trkpt lat="51.19216" lon="6.69537">
        <ele>86.463578</ele>
        <time>2024-08-15T08:03:36.904Z</time>
      </trkpt>
      <trkpt lat="51.19213" lon="6.69556">
        <ele>86.602618</ele>
        <time>2024-08-15T08:03:39.890Z</time>
      </trkpt>
      <trkpt lat="51.1921" lon="6.69576">
        <ele>86.751037</ele>
        <time>2024-08-15T08:03:42.896Z</time>
      </trkpt>
      <trkpt lat="51.19207" lon="6.69596">
        <ele>86.890746</ele>
        <time>2024-08-15T08:03:45.891Z</time>
      </trkpt>
      <trkpt lat="51.19203" lon="6.69609">
        <ele>86.994352</ele>
        <time>2024-08-15T08:03:47.869Z</time>
      </trkpt>
      <trkpt lat="51.19199" lon="6.6963">
        <ele>87.14518</ele>
        <time>2024-08-15T08:03:50.898Z</time>
      </trkpt>
      <trkpt lat="51.19194" lon="6.69649">
        <ele>87.292058</ele>
        <time>2024-08-15T08:03:53.887Z</time>
      </trkpt>
      <trkpt lat="51.19191" lon="6.69663">
        <ele>87.397886</ele>
        <time>2024-08-15T08:03:55.904Z</time>
      </trkpt>
      <trkpt lat="51.19189" lon="6.69677">
        <ele>87.498392</ele>
        <time>2024-08-15T08:03:57.898Z</time>
      </trkpt>
      <trkpt lat="51.19184" lon="6.69697">
        <ele>87.648561</ele>
        <time>2024-08-15T08:04:00.899Z</time>
      </trkpt>
      <trkpt lat="51.19181" lon="6.69716">
        <ele>87.74559</ele>
        <time>2024-08-15T08:04:03.904Z</time>
      </trkpt>
      <trkpt lat="51.19177" lon="6.69737">
        <ele>87.671018</ele>
        <time>2024-08-15T08:04:06.900Z</time>
      </trkpt>
      <trkpt lat="51.19174" lon="6.69751">
        <ele>87.620909</ele>
        <time>2024-08-15T08:04:08.898Z</time>
      </trkpt>
      <trkpt lat="51.19169" lon="6.69771">
        <ele>87.545134</ele>
        <time>2024-08-15T08:04:11.889Z</time>
      </trkpt>
      <trkpt lat="51.19167" lon="6.69785">
        <ele>87.49354</ele>
        <time>2024-08-15T08:04:13.900Z</time>
      </trkpt>
      <trkpt lat="51.19163" lon="6.69806">
        <ele>87.419339</ele>
        <time>2024-08-15T08:04:16.888Z</time>
      </trkpt>
      <trkpt lat="51.19159" lon="6.69825">
        <ele>87.350883</ele>
        <time>2024-08-15T08:04:19.898Z</time>
      </trkpt>
      <trkpt lat="51.19155" lon="6.69839">
        <ele>87.296352</ele>
        <time>2024-08-15T08:04:22.898Z</time>
      </trkpt>
      <trkpt lat="51.19146" lon="6.69841">
        <ele>87.246645</ele>
        <time>2024-08-15T08:04:26.894Z</time>
      </trkpt>
      <trkpt lat="51.19137" lon="6.69838">
        <ele>87.192081</ele>
        <time>2024-08-15T08:04:30.905Z</time>
      </trkpt>
      <trkpt lat="51.19128" lon="6.69844">
        <ele>87.138791</ele>
        <time>2024-08-15T08:04:34.905Z</time>
      </trkpt>
      <trkpt lat="51.19124" lon="6.69859">
        <ele>87.082652</ele>
        <time>2024-08-15T08:04:37.889Z</time>
      </trkpt>
      <trkpt lat="51.19122" lon="6.69873">
        <ele>87.033052</ele>
        <time>2024-08-15T08:04:40.887Z</time>
      </trkpt>
      <trkpt lat="51.19123" lon="6.69889">
        <ele>86.977427</ele>
        <time>2024-08-15T08:04:44.895Z</time>
      </trkpt>
      <trkpt lat="51.19121" lon="6.69908">
        <ele>86.910205</ele>
        <time>2024-08-15T08:05:20.893Z</time>
      </trkpt>
      <trkpt lat="51.19129" lon="6.69919">
        <ele>86.851859</ele>
        <time>2024-08-15T08:05:26.902Z</time>
      </trkpt>
      <trkpt lat="51.19139" lon="6.69922">
        <ele>86.796051</ele>
        <time>2024-08-15T08:05:29.893Z</time>
      </trkpt>
      <trkpt lat="51.19149" lon="6.69927">
        <ele>86.677502</ele>
        <time>2024-08-15T08:05:32.893Z</time>
      </trkpt>
      <trkpt lat="51.1915" lon="6.6994">
        <ele>86.528835</ele>
        <time>2024-08-15T08:05:44.762Z</time>
      </trkpt>
      <trkpt lat="51.1916" lon="6.69936">
        <ele>86.342472</ele>
        <time>2024-08-15T08:13:12.907Z</time>
      </trkpt>
      <trkpt lat="51.1917" lon="6.69941">
        <ele>86.151722</ele>
        <time>2024-08-15T08:13:15.911Z</time>
      </trkpt>
      <trkpt lat="51.19183" lon="6.69947">
        <ele>85.902027</ele>
        <time>2024-08-15T08:13:18.891Z</time>
      </trkpt>
      <trkpt lat="51.19192" lon="6.69956">
        <ele>85.713661</ele>
        <time>2024-08-15T08:13:20.909Z</time>
      </trkpt>
      <trkpt lat="51.19201" lon="6.69966">
        <ele>85.512262</ele>
        <time>2024-08-15T08:13:22.901Z</time>
      </trkpt>
      <trkpt lat="51.1921" lon="6.69976">
        <ele>85.317223</ele>
        <time>2024-08-15T08:13:24.898Z</time>
      </trkpt>
      <trkpt lat="51.19218" lon="6.69986">
        <ele>85.117191</ele>
        <time>2024-08-15T08:13:26.910Z</time>
      </trkpt>
      <trkpt lat="51.19227" lon="6.69997">
        <ele>84.917312</ele>
        <time>2024-08-15T08:13:28.897Z</time>
      </trkpt>
      <trkpt lat="51.19235" lon="6.70008">
        <ele>84.725569</ele>
        <time>2024-08-15T08:13:30.900Z</time>
      </trkpt>
      <trkpt lat="51.19241" lon="6.7002">
        <ele>84.552189</ele>
        <time>2024-08-15T08:13:32.907Z</time>
      </trkpt>
      <trkpt lat="51.19248" lon="6.70035">
        <ele>84.337184</ele>
        <time>2024-08-15T08:13:35.911Z</time>
      </trkpt>
      <trkpt lat="51.19255" lon="6.7005">
        <ele>84.119036</ele>
        <time>2024-08-15T08:13:38.897Z</time>
      </trkpt>
      <trkpt lat="51.19261" lon="6.70061">
        <ele>83.951529</ele>
        <time>2024-08-15T08:13:40.897Z</time>
      </trkpt>
      <trkpt lat="51.1927" lon="6.70076">
        <ele>83.712587</ele>
        <time>2024-08-15T08:13:43.891Z</time>
      </trkpt>
      <trkpt lat="51.19274" lon="6.70091">
        <ele>83.531301</ele>
        <time>2024-08-15T08:13:46.918Z</time>
      </trkpt>
      <trkpt lat="51.19275" lon="6.70111">
        <ele>83.495007</ele>
        <time>2024-08-15T08:14:19.881Z</time>
      </trkpt>
      <trkpt lat="51.19285" lon="6.70115">
        <ele>83.525416</ele>
        <time>2024-08-15T08:14:24.896Z</time>
      </trkpt>
      <trkpt lat="51.19291" lon="6.70128">
        <ele>83.552904</ele>
        <time>2024-08-15T08:14:27.888Z</time>
      </trkpt>
      <trkpt lat="51.19295" lon="6.70144">
        <ele>83.584867</ele>
        <time>2024-08-15T08:14:30.892Z</time>
      </trkpt>
      <trkpt lat="51.193" lon="6.70162">
        <ele>83.620817</ele>
        <time>2024-08-15T08:14:33.895Z</time>
      </trkpt>
      <trkpt lat="51.19305" lon="6.7018">
        <ele>83.655713</ele>
        <time>2024-08-15T08:14:36.904Z</time>
      </trkpt>
      <trkpt lat="51.19309" lon="6.70199">
        <ele>83.692392</ele>
        <time>2024-08-15T08:14:39.899Z</time>
      </trkpt>
      <trkpt lat="51.19313" lon="6.7022">
        <ele>83.730971</ele>
        <time>2024-08-15T08:14:42.904Z</time>
      </trkpt>
      <trkpt lat="51.19318" lon="6.70239">
        <ele>83.767785</ele>
        <time>2024-08-15T08:14:45.893Z</time>
      </trkpt>
      <trkpt lat="51.19322" lon="6.70258">
        <ele>83.804092</ele>
        <time>2024-08-15T08:14:48.914Z</time>
      </trkpt>
      <trkpt lat="51.19327" lon="6.70275">
        <ele>83.837177</ele>
        <time>2024-08-15T08:14:51.913Z</time>
      </trkpt>
      <trkpt lat="51.19333" lon="6.70292">
        <ele>83.872508</ele>
        <time>2024-08-15T08:14:54.886Z</time>
      </trkpt>
      <trkpt lat="51.19337" lon="6.70309">
        <ele>83.906959</ele>
        <time>2024-08-15T08:14:57.904Z</time>
      </trkpt>
      <trkpt lat="51.19344" lon="6.70328">
        <ele>83.945939</ele>
        <time>2024-08-15T08:15:00.911Z</time>
      </trkpt>
      <trkpt lat="51.19349" lon="6.70341">
        <ele>83.971881</ele>
        <time>2024-08-15T08:15:02.889Z</time>
      </trkpt>
      <trkpt lat="51.19355" lon="6.70358">
        <ele>84.072014</ele>
        <time>2024-08-15T08:15:05.897Z</time>
      </trkpt>
      <trkpt lat="51.19361" lon="6.70375">
        <ele>84.210298</ele>
        <time>2024-08-15T08:15:08.886Z</time>
      </trkpt>
      <trkpt lat="51.19369" lon="6.70393">
        <ele>84.360922</ele>
        <time>2024-08-15T08:15:11.916Z</time>
      </trkpt>
      <trkpt lat="51.19374" lon="6.70406">
        <ele>84.464205</ele>
        <time>2024-08-15T08:15:13.899Z</time>
      </trkpt>
      <trkpt lat="51.1938" lon="6.70418">
        <ele>84.567377</ele>
        <time>2024-08-15T08:15:15.902Z</time>
      </trkpt>
      <trkpt lat="51.19384" lon="6.70431">
        <ele>84.668262</ele>
        <time>2024-08-15T08:15:17.893Z</time>
      </trkpt>
      <trkpt lat="51.19389" lon="6.70443">
        <ele>84.768471</ele>
        <time>2024-08-15T08:15:19.892Z</time>
      </trkpt>
      <trkpt lat="51.19397" lon="6.70458">
        <ele>84.908311</ele>
        <time>2024-08-15T08:15:22.897Z</time>
      </trkpt>
      <trkpt lat="51.19406" lon="6.7047">
        <ele>85.039424</ele>
        <time>2024-08-15T08:15:25.896Z</time>
      </trkpt>
      <trkpt lat="51.19415" lon="6.70484">
        <ele>85.170169</ele>
        <time>2024-08-15T08:15:28.913Z</time>
      </trkpt>
      <trkpt lat="51.19423" lon="6.70498">
        <ele>85.307583</ele>
        <time>2024-08-15T08:15:31.898Z</time>
      </trkpt>
      <trkpt lat="51.19433" lon="6.70513">
        <ele>85.454565</ele>
        <time>2024-08-15T08:15:34.903Z</time>
      </trkpt>
      <trkpt lat="51.1944" lon="6.70523">
        <ele>85.558975</ele>
        <time>2024-08-15T08:15:36.902Z</time>
      </trkpt>
      <trkpt lat="51.19447" lon="6.70534">
        <ele>85.663867</ele>
        <time>2024-08-15T08:15:38.898Z</time>
      </trkpt>
      <trkpt lat="51.19453" lon="6.70545">
        <ele>85.772445</ele>
        <time>2024-08-15T08:15:40.897Z</time>
      </trkpt>
      <trkpt lat="51.1946" lon="6.70557">
        <ele>85.882848</ele>
        <time>2024-08-15T08:15:42.906Z</time>
      </trkpt>
      <trkpt lat="51.19467" lon="6.70568">
        <ele>85.966778</ele>
        <time>2024-08-15T08:15:44.900Z</time>
      </trkpt>
      <trkpt lat="51.19474" lon="6.7058">
        <ele>85.949743</ele>
        <time>2024-08-15T08:15:46.907Z</time>
      </trkpt>
      <trkpt lat="51.19481" lon="6.7059">
        <ele>85.933906</ele>
        <time>2024-08-15T08:15:48.909Z</time>
      </trkpt>
      <trkpt lat="51.19488" lon="6.706">
        <ele>85.918353</ele>
        <time>2024-08-15T08:15:50.911Z</time>
      </trkpt>
      <trkpt lat="51.19495" lon="6.70609">
        <ele>85.902088</ele>
        <time>2024-08-15T08:15:52.898Z</time>
      </trkpt>
      <trkpt lat="51.19502" lon="6.70618">
        <ele>85.886813</ele>
        <time>2024-08-15T08:15:54.898Z</time>
      </trkpt>
      <trkpt lat="51.19512" lon="6.70631">
        <ele>85.865263</ele>
        <time>2024-08-15T08:15:57.905Z</time>
      </trkpt>
      <trkpt lat="51.1952" lon="6.7064">
        <ele>85.849454</ele>
        <time>2024-08-15T08:15:59.907Z</time>
      </trkpt>
      <trkpt lat="51.19528" lon="6.7065">
        <ele>85.832389</ele>
        <time>2024-08-15T08:16:01.902Z</time>
      </trkpt>
      <trkpt lat="51.19536" lon="6.7066">
        <ele>85.815197</ele>
        <time>2024-08-15T08:16:03.894Z</time>
      </trkpt>
      <trkpt lat="51.19544" lon="6.70669">
        <ele>85.798165</ele>
        <time>2024-08-15T08:16:05.905Z</time>
      </trkpt>
      <trkpt lat="51.19552" lon="6.70678">
        <ele>85.782094</ele>
        <time>2024-08-15T08:16:07.921Z</time>
      </trkpt>
      <trkpt lat="51.1956" lon="6.70687">
        <ele>85.765539</ele>
        <time>2024-08-15T08:16:09.890Z</time>
      </trkpt>
      <trkpt lat="51.19568" lon="6.70698">
        <ele>85.748081</ele>
        <time>2024-08-15T08:16:11.902Z</time>
      </trkpt>
      <trkpt lat="51.19575" lon="6.70706">
        <ele>85.732262</ele>
        <time>2024-08-15T08:16:13.909Z</time>
      </trkpt>
      <trkpt lat="51.19583" lon="6.70716">
        <ele>85.716</ele>
        <time>2024-08-15T08:16:15.914Z</time>
      </trkpt>
      <trkpt lat="51.19592" lon="6.70726">
        <ele>85.697572</ele>
        <time>2024-08-15T08:16:17.900Z</time>
      </trkpt>
      <trkpt lat="51.196" lon="6.70735">
        <ele>85.680632</ele>
        <time>2024-08-15T08:16:19.900Z</time>
      </trkpt>
      <trkpt lat="51.19607" lon="6.70744">
        <ele>85.669491</ele>
        <time>2024-08-15T08:16:21.906Z</time>
      </trkpt>
      <trkpt lat="51.19615" lon="6.70753">
        <ele>85.705864</ele>
        <time>2024-08-15T08:16:23.892Z</time>
      </trkpt>
      <trkpt lat="51.19622" lon="6.70761">
        <ele>85.741952</ele>
        <time>2024-08-15T08:16:25.901Z</time>
      </trkpt>
      <trkpt lat="51.1963" lon="6.7077">
        <ele>85.780371</ele>
        <time>2024-08-15T08:16:27.902Z</time>
      </trkpt>
      <trkpt lat="51.19638" lon="6.7078">
        <ele>85.819783</ele>
        <time>2024-08-15T08:16:29.912Z</time>
      </trkpt>
      <trkpt lat="51.19646" lon="6.7079">
        <ele>85.860435</ele>
        <time>2024-08-15T08:16:31.911Z</time>
      </trkpt>
      <trkpt lat="51.19654" lon="6.708">
        <ele>85.898455</ele>
        <time>2024-08-15T08:16:33.898Z</time>
      </trkpt>
      <trkpt lat="51.19662" lon="6.70808">
        <ele>85.936267</ele>
        <time>2024-08-15T08:16:35.890Z</time>
      </trkpt>
      <trkpt lat="51.1967" lon="6.70817">
        <ele>85.975729</ele>
        <time>2024-08-15T08:16:37.901Z</time>
      </trkpt>
      <trkpt lat="51.19678" lon="6.70827">
        <ele>86.016726</ele>
        <time>2024-08-15T08:16:39.910Z</time>
      </trkpt>
      <trkpt lat="51.19686" lon="6.70836">
        <ele>86.055543</ele>
        <time>2024-08-15T08:16:41.899Z</time>
      </trkpt>
      <trkpt lat="51.19694" lon="6.70845">
        <ele>86.092671</ele>
        <time>2024-08-15T08:16:43.920Z</time>
      </trkpt>
      <trkpt lat="51.19702" lon="6.70853">
        <ele>86.12974</ele>
        <time>2024-08-15T08:16:45.906Z</time>
      </trkpt>
      <trkpt lat="51.19709" lon="6.70862">
        <ele>86.167759</ele>
        <time>2024-08-15T08:16:47.899Z</time>
      </trkpt>
      <trkpt lat="51.19717" lon="6.70871">
        <ele>86.205387</ele>
        <time>2024-08-15T08:16:49.908Z</time>
      </trkpt>
      <trkpt lat="51.19725" lon="6.7088">
        <ele>86.243592</ele>
        <time>2024-08-15T08:16:51.908Z</time>
      </trkpt>
      <trkpt lat="51.19733" lon="6.70889">
        <ele>86.28239</ele>
        <time>2024-08-15T08:16:53.900Z</time>
      </trkpt>
      <trkpt lat="51.1974" lon="6.70899">
        <ele>86.320413</ele>
        <time>2024-08-15T08:16:55.890Z</time>
      </trkpt>
      <trkpt lat="51.19748" lon="6.70908">
        <ele>86.359513</ele>
        <time>2024-08-15T08:16:57.902Z</time>
      </trkpt>
      <trkpt lat="51.19757" lon="6.70916">
        <ele>86.35555</ele>
        <time>2024-08-15T08:16:59.902Z</time>
      </trkpt>
      <trkpt lat="51.19765" lon="6.70926">
        <ele>86.321761</ele>
        <time>2024-08-15T08:17:01.911Z</time>
      </trkpt>
      <trkpt lat="51.19771" lon="6.70937">
        <ele>86.287096</ele>
        <time>2024-08-15T08:17:03.894Z</time>
      </trkpt>
      <trkpt lat="51.19777" lon="6.7095">
        <ele>86.251281</ele>
        <time>2024-08-15T08:17:05.907Z</time>
      </trkpt>
      <trkpt lat="51.19783" lon="6.70962">
        <ele>86.216147</ele>
        <time>2024-08-15T08:17:07.906Z</time>
      </trkpt>
      <trkpt lat="51.19788" lon="6.70974">
        <ele>86.183513</ele>
        <time>2024-08-15T08:17:09.914Z</time>
      </trkpt>
      <trkpt lat="51.19794" lon="6.70991">
        <ele>86.139134</ele>
        <time>2024-08-15T08:17:12.911Z</time>
      </trkpt>
      <trkpt lat="51.19799" lon="6.71008">
        <ele>86.098222</ele>
        <time>2024-08-15T08:17:15.895Z</time>
      </trkpt>
      <trkpt lat="51.19805" lon="6.71019">
        <ele>86.061905</ele>
        <time>2024-08-15T08:17:18.894Z</time>
      </trkpt>
      <trkpt lat="51.19813" lon="6.71034">
        <ele>86.018068</ele>
        <time>2024-08-15T08:17:21.911Z</time>
      </trkpt>
      <trkpt lat="51.1982" lon="6.71048">
        <ele>85.976889</ele>
        <time>2024-08-15T08:17:24.891Z</time>
      </trkpt>
      <trkpt lat="51.19828" lon="6.71064">
        <ele>85.932836</ele>
        <time>2024-08-15T08:17:27.904Z</time>
      </trkpt>
      <trkpt lat="51.19836" lon="6.71077">
        <ele>85.889066</ele>
        <time>2024-08-15T08:17:30.886Z</time>
      </trkpt>
      <trkpt lat="51.19845" lon="6.71093">
        <ele>85.843112</ele>
        <time>2024-08-15T08:17:33.889Z</time>
      </trkpt>
      <trkpt lat="51.1985" lon="6.71105">
        <ele>85.809134</ele>
        <time>2024-08-15T08:17:35.911Z</time>
      </trkpt>
      <trkpt lat="51.19854" lon="6.7112">
        <ele>85.772411</ele>
        <time>2024-08-15T08:17:37.891Z</time>
      </trkpt>
      <trkpt lat="51.19859" lon="6.71135">
        <ele>85.735096</ele>
        <time>2024-08-15T08:17:39.919Z</time>
      </trkpt>
      <trkpt lat="51.19863" lon="6.71149">
        <ele>85.778594</ele>
        <time>2024-08-15T08:17:41.905Z</time>
      </trkpt>
      <trkpt lat="51.19868" lon="6.71164">
        <ele>85.848032</ele>
        <time>2024-08-15T08:17:43.894Z</time>
      </trkpt>
      <trkpt lat="51.19873" lon="6.71178">
        <ele>85.916168</ele>
        <time>2024-08-15T08:17:45.891Z</time>
      </trkpt>
      <trkpt lat="51.19877" lon="6.71193">
        <ele>85.98304</ele>
        <time>2024-08-15T08:17:47.910Z</time>
      </trkpt>
      <trkpt lat="51.19881" lon="6.71208">
        <ele>86.049389</ele>
        <time>2024-08-15T08:17:49.882Z</time>
      </trkpt>
      <trkpt lat="51.19885" lon="6.71224">
        <ele>86.118478</ele>
        <time>2024-08-15T08:17:51.922Z</time>
      </trkpt>
      <trkpt lat="51.19888" lon="6.71239">
        <ele>86.184347</ele>
        <time>2024-08-15T08:17:53.899Z</time>
      </trkpt>
      <trkpt lat="51.1989" lon="6.71254">
        <ele>86.248724</ele>
        <time>2024-08-15T08:17:55.902Z</time>
      </trkpt>
      <trkpt lat="51.19892" lon="6.7127">
        <ele>86.317919</ele>
        <time>2024-08-15T08:17:57.909Z</time>
      </trkpt>
      <trkpt lat="51.19893" lon="6.71286">
        <ele>86.384437</ele>
        <time>2024-08-15T08:17:59.909Z</time>
      </trkpt>
      <trkpt lat="51.19893" lon="6.71304">
        <ele>86.455593</ele>
        <time>2024-08-15T08:18:01.902Z</time>
      </trkpt>
      <trkpt lat="51.19893" lon="6.71321">
        <ele>86.527502</ele>
        <time>2024-08-15T08:18:03.898Z</time>
      </trkpt>
      <trkpt lat="51.19893" lon="6.71337">
        <ele>86.595288</ele>
        <time>2024-08-15T08:18:05.901Z</time>
      </trkpt>
      <trkpt lat="51.19894" lon="6.71354">
        <ele>86.663504</ele>
        <time>2024-08-15T08:18:07.914Z</time>
      </trkpt>
      <trkpt lat="51.19894" lon="6.71371">
        <ele>86.734247</ele>
        <time>2024-08-15T08:18:09.895Z</time>
      </trkpt>
      <trkpt lat="51.19894" lon="6.71388">
        <ele>86.805354</ele>
        <time>2024-08-15T08:18:11.901Z</time>
      </trkpt>
      <trkpt lat="51.19893" lon="6.71406">
        <ele>86.879353</ele>
        <time>2024-08-15T08:18:13.895Z</time>
      </trkpt>
      <trkpt lat="51.19894" lon="6.71424">
        <ele>86.87072</ele>
        <time>2024-08-15T08:18:15.895Z</time>
      </trkpt>
      <trkpt lat="51.19894" lon="6.71441">
        <ele>86.795004</ele>
        <time>2024-08-15T08:18:17.910Z</time>
      </trkpt>
      <trkpt lat="51.19894" lon="6.71457">
        <ele>86.723698</ele>
        <time>2024-08-15T08:18:19.902Z</time>
      </trkpt>
      <trkpt lat="51.19893" lon="6.71474">
        <ele>86.649152</ele>
        <time>2024-08-15T08:18:21.900Z</time>
      </trkpt>
      <trkpt lat="51.19892" lon="6.71491">
        <ele>86.575125</ele>
        <time>2024-08-15T08:18:23.908Z</time>
      </trkpt>
      <trkpt lat="51.19892" lon="6.71507">
        <ele>86.502912</ele>
        <time>2024-08-15T08:18:25.914Z</time>
      </trkpt>
      <trkpt lat="51.19892" lon="6.71524">
        <ele>86.428006</ele>
        <time>2024-08-15T08:18:27.905Z</time>
      </trkpt>
      <trkpt lat="51.19891" lon="6.71541">
        <ele>86.354889</ele>
        <time>2024-08-15T08:18:29.906Z</time>
      </trkpt>
      <trkpt lat="51.19891" lon="6.71559">
        <ele>86.277424</ele>
        <time>2024-08-15T08:18:31.899Z</time>
      </trkpt>
      <trkpt lat="51.19891" lon="6.71576">
        <ele>86.199067</ele>
        <time>2024-08-15T08:18:33.910Z</time>
      </trkpt>
      <trkpt lat="51.19891" lon="6.71594">
        <ele>86.122871</ele>
        <time>2024-08-15T08:18:35.899Z</time>
      </trkpt>
      <trkpt lat="51.1989" lon="6.71611">
        <ele>86.047138</ele>
        <time>2024-08-15T08:18:37.907Z</time>
      </trkpt>
      <trkpt lat="51.1989" lon="6.71628">
        <ele>85.973141</ele>
        <time>2024-08-15T08:18:39.915Z</time>
      </trkpt>
      <trkpt lat="51.19889" lon="6.71646">
        <ele>85.893278</ele>
        <time>2024-08-15T08:18:41.905Z</time>
      </trkpt>
      <trkpt lat="51.19888" lon="6.71662">
        <ele>85.820429</ele>
        <time>2024-08-15T08:18:43.895Z</time>
      </trkpt>
      <trkpt lat="51.19885" lon="6.71676">
        <ele>85.755448</ele>
        <time>2024-08-15T08:18:45.900Z</time>
      </trkpt>
      <trkpt lat="51.19882" lon="6.71691">
        <ele>85.688697</ele>
        <time>2024-08-15T08:18:48.903Z</time>
      </trkpt>
      <trkpt lat="51.19886" lon="6.71705">
        <ele>85.650308</ele>
        <time>2024-08-15T08:18:52.903Z</time>
      </trkpt>
      <trkpt lat="51.19885" lon="6.71729">
        <ele>85.652182</ele>
        <time>2024-08-15T08:19:18.898Z</time>
      </trkpt>
      <trkpt lat="51.19883" lon="6.71755">
        <ele>85.654247</ele>
        <time>2024-08-15T08:19:58.915Z</time>
      </trkpt>
      <trkpt lat="51.19881" lon="6.71771">
        <ele>85.655471</ele>
        <time>2024-08-15T08:20:02.916Z</time>
      </trkpt>
      <trkpt lat="51.19895" lon="6.71777">
        <ele>85.657243</ele>
        <time>2024-08-15T08:20:42.899Z</time>
      </trkpt>
      <trkpt lat="51.19905" lon="6.71778">
        <ele>85.658567</ele>
        <time>2024-08-15T08:20:46.901Z</time>
      </trkpt>
      <trkpt lat="51.19917" lon="6.71778">
        <ele>85.660014</ele>
        <time>2024-08-15T08:20:50.902Z</time>
      </trkpt>
      <trkpt lat="51.19926" lon="6.71778">
        <ele>85.661138</ele>
        <time>2024-08-15T08:20:53.894Z</time>
      </trkpt>
      <trkpt lat="51.19927" lon="6.71793">
        <ele>85.662256</ele>
        <time>2024-08-15T08:20:57.898Z</time>
      </trkpt>
      <trkpt lat="51.19925" lon="6.71808">
        <ele>85.66344</ele>
        <time>2024-08-15T08:21:00.897Z</time>
      </trkpt>
      <trkpt lat="51.19926" lon="6.71825">
        <ele>85.664816</ele>
        <time>2024-08-15T08:21:03.893Z</time>
      </trkpt>
      <trkpt lat="51.19927" lon="6.71844">
        <ele>85.666323</ele>
        <time>2024-08-15T08:21:06.892Z</time>
      </trkpt>
      <trkpt lat="51.19928" lon="6.71864">
        <ele>85.667838</ele>
        <time>2024-08-15T08:21:09.898Z</time>
      </trkpt>
      <trkpt lat="51.19932" lon="6.71883">
        <ele>85.669406</ele>
        <time>2024-08-15T08:21:12.887Z</time>
      </trkpt>
      <trkpt lat="51.19936" lon="6.71903">
        <ele>85.671036</ele>
        <time>2024-08-15T08:21:15.913Z</time>
      </trkpt>
      <trkpt lat="51.19938" lon="6.71917">
        <ele>85.673605</ele>
        <time>2024-08-15T08:21:17.911Z</time>
      </trkpt>
      <trkpt lat="51.19941" lon="6.71936">
        <ele>86.017311</ele>
        <time>2024-08-15T08:21:20.906Z</time>
      </trkpt>
      <trkpt lat="51.19945" lon="6.71956">
        <ele>86.37727</ele>
        <time>2024-08-15T08:21:23.903Z</time>
      </trkpt>
      <trkpt lat="51.19948" lon="6.71973">
        <ele>86.687905</ele>
        <time>2024-08-15T08:21:26.898Z</time>
      </trkpt>
      <trkpt lat="51.19951" lon="6.7199">
        <ele>86.978034</ele>
        <time>2024-08-15T08:21:29.905Z</time>
      </trkpt>
      <trkpt lat="51.19953" lon="6.72006">
        <ele>87.269848</ele>
        <time>2024-08-15T08:21:32.898Z</time>
      </trkpt>
      <trkpt lat="51.19955" lon="6.72022">
        <ele>87.545388</ele>
        <time>2024-08-15T08:21:35.906Z</time>
      </trkpt>
      <trkpt lat="51.19957" lon="6.72039">
        <ele>87.848602</ele>
        <time>2024-08-15T08:21:38.910Z</time>
      </trkpt>
      <trkpt lat="51.19959" lon="6.72056">
        <ele>88.147733</ele>
        <time>2024-08-15T08:21:41.908Z</time>
      </trkpt>
      <trkpt lat="51.1996" lon="6.72073">
        <ele>88.444787</ele>
        <time>2024-08-15T08:21:44.915Z</time>
      </trkpt>
      <trkpt lat="51.19961" lon="6.72091">
        <ele>88.750665</ele>
        <time>2024-08-15T08:21:47.898Z</time>
      </trkpt>
      <trkpt lat="51.19961" lon="6.72109">
        <ele>89.051368</ele>
        <time>2024-08-15T08:21:50.904Z</time>
      </trkpt>
      <trkpt lat="51.19961" lon="6.72126">
        <ele>89.353595</ele>
        <time>2024-08-15T08:21:53.897Z</time>
      </trkpt>
      <trkpt lat="51.1996" lon="6.72144">
        <ele>89.656725</ele>
        <time>2024-08-15T08:21:56.915Z</time>
      </trkpt>
      <trkpt lat="51.19958" lon="6.72161">
        <ele>89.961653</ele>
        <time>2024-08-15T08:21:59.912Z</time>
      </trkpt>
      <trkpt lat="51.19956" lon="6.72178">
        <ele>90.267546</ele>
        <time>2024-08-15T08:22:02.908Z</time>
      </trkpt>
      <trkpt lat="51.19953" lon="6.72197">
        <ele>90.592754</ele>
        <time>2024-08-15T08:22:05.911Z</time>
      </trkpt>
      <trkpt lat="51.1995" lon="6.72215">
        <ele>90.742541</ele>
        <time>2024-08-15T08:22:08.906Z</time>
      </trkpt>
      <trkpt lat="51.19947" lon="6.72233">
        <ele>90.868646</ele>
        <time>2024-08-15T08:22:11.908Z</time>
      </trkpt>
      <trkpt lat="51.19944" lon="6.72252">
        <ele>90.998884</ele>
        <time>2024-08-15T08:22:14.903Z</time>
      </trkpt>
      <trkpt lat="51.1994" lon="6.72272">
        <ele>91.139108</ele>
        <time>2024-08-15T08:22:17.910Z</time>
      </trkpt>
      <trkpt lat="51.19937" lon="6.72292">
        <ele>91.278689</ele>
        <time>2024-08-15T08:22:20.908Z</time>
      </trkpt>
      <trkpt lat="51.19934" lon="6.72313">
        <ele>91.422846</ele>
        <time>2024-08-15T08:22:23.902Z</time>
      </trkpt>
      <trkpt lat="51.19932" lon="6.72334">
        <ele>91.569009</ele>
        <time>2024-08-15T08:22:26.900Z</time>
      </trkpt>
      <trkpt lat="51.19932" lon="6.72349">
        <ele>91.669273</ele>
        <time>2024-08-15T08:22:28.888Z</time>
      </trkpt>
      <trkpt lat="51.1993" lon="6.7237">
        <ele>91.811826</ele>
        <time>2024-08-15T08:22:31.901Z</time>
      </trkpt>
      <trkpt lat="51.19929" lon="6.72391">
        <ele>91.958813</ele>
        <time>2024-08-15T08:22:34.905Z</time>
      </trkpt>
      <trkpt lat="51.19928" lon="6.72413">
        <ele>92.10428</ele>
        <time>2024-08-15T08:22:37.909Z</time>
      </trkpt>
      <trkpt lat="51.19927" lon="6.72434">
        <ele>92.247753</ele>
        <time>2024-08-15T08:22:40.914Z</time>
      </trkpt>
      <trkpt lat="51.19925" lon="6.72455">
        <ele>92.390936</ele>
        <time>2024-08-15T08:22:43.896Z</time>
      </trkpt>
      <trkpt lat="51.19923" lon="6.72476">
        <ele>92.533927</ele>
        <time>2024-08-15T08:22:46.910Z</time>
      </trkpt>
      <trkpt lat="51.19921" lon="6.72496">
        <ele>92.705741</ele>
        <time>2024-08-15T08:22:49.902Z</time>
      </trkpt>
      <trkpt lat="51.19919" lon="6.7251">
        <ele>92.834185</ele>
        <time>2024-08-15T08:22:51.898Z</time>
      </trkpt>
      <trkpt lat="51.19918" lon="6.72532">
        <ele>93.027274</ele>
        <time>2024-08-15T08:22:54.896Z</time>
      </trkpt>
      <trkpt lat="51.19917" lon="6.72546">
        <ele>93.156373</ele>
        <time>2024-08-15T08:22:56.900Z</time>
      </trkpt>
      <trkpt lat="51.19917" lon="6.72567">
        <ele>93.346103</ele>
        <time>2024-08-15T08:22:59.914Z</time>
      </trkpt>
      <trkpt lat="51.19915" lon="6.72588">
        <ele>93.532857</ele>
        <time>2024-08-15T08:23:02.919Z</time>
      </trkpt>
      <trkpt lat="51.19914" lon="6.72609">
        <ele>93.722096</ele>
        <time>2024-08-15T08:23:05.898Z</time>
      </trkpt>
      <trkpt lat="51.19913" lon="6.72624">
        <ele>93.853973</ele>
        <time>2024-08-15T08:23:07.901Z</time>
      </trkpt>
      <trkpt lat="51.19912" lon="6.72638">
        <ele>93.984067</ele>
        <time>2024-08-15T08:23:09.905Z</time>
      </trkpt>
      <trkpt lat="51.19911" lon="6.72652">
        <ele>94.112631</ele>
        <time>2024-08-15T08:23:11.900Z</time>
      </trkpt>
      <trkpt lat="51.19911" lon="6.72667">
        <ele>94.243359</ele>
        <time>2024-08-15T08:23:13.911Z</time>
      </trkpt>
      <trkpt lat="51.1991" lon="6.72688">
        <ele>94.431103</ele>
        <time>2024-08-15T08:23:16.899Z</time>
      </trkpt>
      <trkpt lat="51.19908" lon="6.72705">
        <ele>94.589993</ele>
        <time>2024-08-15T08:23:19.900Z</time>
      </trkpt>
      <trkpt lat="51.19907" lon="6.72722">
        <ele>94.735478</ele>
        <time>2024-08-15T08:23:22.912Z</time>
      </trkpt>
      <trkpt lat="51.19906" lon="6.72739">
        <ele>94.889876</ele>
        <time>2024-08-15T08:23:25.901Z</time>
      </trkpt>
      <trkpt lat="51.19905" lon="6.72757">
        <ele>95.05196</ele>
        <time>2024-08-15T08:23:28.900Z</time>
      </trkpt>
      <trkpt lat="51.19904" lon="6.72774">
        <ele>95.219775</ele>
        <time>2024-08-15T08:23:31.901Z</time>
      </trkpt>
      <trkpt lat="51.19903" lon="6.72791">
        <ele>95.408458</ele>
        <time>2024-08-15T08:23:34.913Z</time>
      </trkpt>
      <trkpt lat="51.19902" lon="6.72807">
        <ele>95.579318</ele>
        <time>2024-08-15T08:23:37.906Z</time>
      </trkpt>
      <trkpt lat="51.19901" lon="6.72826">
        <ele>95.778251</ele>
        <time>2024-08-15T08:23:41.911Z</time>
      </trkpt>
      <trkpt lat="51.199" lon="6.72843">
        <ele>95.96372</ele>
        <time>2024-08-15T08:23:46.914Z</time>
      </trkpt>
      <trkpt lat="51.199" lon="6.72848">
        <ele>96.026261</ele>
        <time>2024-08-15T08:23:56.759Z</time>
      </trkpt>
      <trkpt lat="51.19899" lon="6.72871">
        <ele>96.272296</ele>
        <time>2024-08-15T08:26:41.914Z</time>
      </trkpt>
      <trkpt lat="51.19898" lon="6.72886">
        <ele>96.435081</ele>
        <time>2024-08-15T08:26:44.894Z</time>
      </trkpt>
      <trkpt lat="51.19897" lon="6.72901">
        <ele>96.5952</ele>
        <time>2024-08-15T08:26:47.908Z</time>
      </trkpt>
      <trkpt lat="51.19895" lon="6.72918">
        <ele>96.776232</ele>
        <time>2024-08-15T08:26:50.914Z</time>
      </trkpt>
      <trkpt lat="51.19894" lon="6.72935">
        <ele>96.960278</ele>
        <time>2024-08-15T08:26:53.915Z</time>
      </trkpt>
      <trkpt lat="51.19892" lon="6.72952">
        <ele>97.150655</ele>
        <time>2024-08-15T08:26:56.899Z</time>
      </trkpt>
      <trkpt lat="51.19892" lon="6.7297">
        <ele>97.34582</ele>
        <time>2024-08-15T08:26:59.896Z</time>
      </trkpt>
      <trkpt lat="51.19891" lon="6.7299">
        <ele>97.557018</ele>
        <time>2024-08-15T08:27:02.899Z</time>
      </trkpt>
      <trkpt lat="51.1989" lon="6.73008">
        <ele>97.761093</ele>
        <time>2024-08-15T08:27:05.914Z</time>
      </trkpt>
      <trkpt lat="51.19889" lon="6.73029">
        <ele>97.98078</ele>
        <time>2024-08-15T08:27:08.911Z</time>
      </trkpt>
      <trkpt lat="51.19888" lon="6.73048">
        <ele>98.194892</ele>
        <time>2024-08-15T08:27:11.922Z</time>
      </trkpt>
      <trkpt lat="51.19886" lon="6.73068">
        <ele>98.175195</ele>
        <time>2024-08-15T08:27:14.923Z</time>
      </trkpt>
      <trkpt lat="51.19886" lon="6.73087">
        <ele>98.112954</ele>
        <time>2024-08-15T08:27:17.910Z</time>
      </trkpt>
      <trkpt lat="51.19884" lon="6.73107">
        <ele>98.049752</ele>
        <time>2024-08-15T08:27:20.913Z</time>
      </trkpt>
      <trkpt lat="51.19883" lon="6.73127">
        <ele>97.985033</ele>
        <time>2024-08-15T08:27:23.908Z</time>
      </trkpt>
      <trkpt lat="51.19881" lon="6.73147">
        <ele>97.919609</ele>
        <time>2024-08-15T08:27:26.908Z</time>
      </trkpt>
      <trkpt lat="51.19881" lon="6.73168">
        <ele>97.853825</ele>
        <time>2024-08-15T08:27:29.894Z</time>
      </trkpt>
      <trkpt lat="51.1988" lon="6.73187">
        <ele>97.791525</ele>
        <time>2024-08-15T08:27:32.912Z</time>
      </trkpt>
      <trkpt lat="51.19879" lon="6.73207">
        <ele>97.726508</ele>
        <time>2024-08-15T08:27:35.912Z</time>
      </trkpt>
      <trkpt lat="51.19877" lon="6.73228">
        <ele>97.65759</ele>
        <time>2024-08-15T08:27:38.902Z</time>
      </trkpt>
      <trkpt lat="51.19875" lon="6.7325">
        <ele>97.589057</ele>
        <time>2024-08-15T08:27:41.911Z</time>
      </trkpt>
      <trkpt lat="51.19874" lon="6.73264">
        <ele>97.54302</ele>
        <time>2024-08-15T08:27:43.910Z</time>
      </trkpt>
      <trkpt lat="51.19874" lon="6.73279">
        <ele>97.495218</ele>
        <time>2024-08-15T08:27:45.910Z</time>
      </trkpt>
      <trkpt lat="51.19873" lon="6.73294">
        <ele>97.445303</ele>
        <time>2024-08-15T08:27:47.918Z</time>
      </trkpt>
      <trkpt lat="51.19872" lon="6.73311">
        <ele>97.393153</ele>
        <time>2024-08-15T08:27:49.910Z</time>
      </trkpt>
      <trkpt lat="51.19871" lon="6.73327">
        <ele>97.340955</ele>
        <time>2024-08-15T08:27:51.916Z</time>
      </trkpt>
      <trkpt lat="51.1987" lon="6.73343">
        <ele>97.230122</ele>
        <time>2024-08-15T08:27:53.911Z</time>
      </trkpt>
      <trkpt lat="51.1987" lon="6.73359">
        <ele>97.02612</ele>
        <time>2024-08-15T08:27:55.908Z</time>
      </trkpt>
      <trkpt lat="51.19869" lon="6.73376">
        <ele>96.813316</ele>
        <time>2024-08-15T08:27:57.912Z</time>
      </trkpt>
      <trkpt lat="51.19868" lon="6.73392">
        <ele>96.616173</ele>
        <time>2024-08-15T08:27:59.917Z</time>
      </trkpt>
      <trkpt lat="51.19867" lon="6.73408">
        <ele>96.408793</ele>
        <time>2024-08-15T08:28:01.912Z</time>
      </trkpt>
      <trkpt lat="51.19865" lon="6.73425">
        <ele>96.197398</ele>
        <time>2024-08-15T08:28:03.906Z</time>
      </trkpt>
      <trkpt lat="51.19865" lon="6.7344">
        <ele>96.001681</ele>
        <time>2024-08-15T08:28:05.907Z</time>
      </trkpt>
      <trkpt lat="51.19864" lon="6.73456">
        <ele>95.797847</ele>
        <time>2024-08-15T08:28:07.909Z</time>
      </trkpt>
      <trkpt lat="51.19864" lon="6.73471">
        <ele>95.606592</ele>
        <time>2024-08-15T08:28:09.913Z</time>
      </trkpt>
      <trkpt lat="51.19863" lon="6.73486">
        <ele>95.418013</ele>
        <time>2024-08-15T08:28:11.908Z</time>
      </trkpt>
      <trkpt lat="51.19862" lon="6.73501">
        <ele>95.225795</ele>
        <time>2024-08-15T08:28:13.898Z</time>
      </trkpt>
      <trkpt lat="51.19861" lon="6.73516">
        <ele>95.03957</ele>
        <time>2024-08-15T08:28:15.901Z</time>
      </trkpt>
      <trkpt lat="51.19861" lon="6.7353">
        <ele>94.858687</ele>
        <time>2024-08-15T08:28:17.902Z</time>
      </trkpt>
      <trkpt lat="51.1986" lon="6.73545">
        <ele>94.667591</ele>
        <time>2024-08-15T08:28:19.901Z</time>
      </trkpt>
      <trkpt lat="51.19858" lon="6.73561">
        <ele>94.46868</ele>
        <time>2024-08-15T08:28:21.914Z</time>
      </trkpt>
      <trkpt lat="51.19857" lon="6.73576">
        <ele>94.280808</ele>
        <time>2024-08-15T08:28:23.900Z</time>
      </trkpt>
      <trkpt lat="51.19856" lon="6.7359">
        <ele>94.092462</ele>
        <time>2024-08-15T08:28:25.913Z</time>
      </trkpt>
      <trkpt lat="51.19855" lon="6.73605">
        <ele>93.909376</ele>
        <time>2024-08-15T08:28:27.902Z</time>
      </trkpt>
      <trkpt lat="51.19854" lon="6.73626">
        <ele>93.661895</ele>
        <time>2024-08-15T08:28:30.919Z</time>
      </trkpt>
      <trkpt lat="51.19853" lon="6.73642">
        <ele>93.539966</ele>
        <time>2024-08-15T08:28:33.895Z</time>
      </trkpt>
      <trkpt lat="51.19855" lon="6.73657">
        <ele>93.425419</ele>
        <time>2024-08-15T08:28:39.918Z</time>
      </trkpt>
      <trkpt lat="51.19857" lon="6.73676">
        <ele>93.286367</ele>
        <time>2024-08-15T08:28:43.905Z</time>
      </trkpt>
      <trkpt lat="51.19857" lon="6.73692">
        <ele>93.165947</ele>
        <time>2024-08-15T08:28:45.922Z</time>
      </trkpt>
      <trkpt lat="51.19856" lon="6.73712">
        <ele>93.016953</ele>
        <time>2024-08-15T08:28:47.906Z</time>
      </trkpt>
      <trkpt lat="51.19855" lon="6.73734">
        <ele>92.858027</ele>
        <time>2024-08-15T08:28:49.923Z</time>
      </trkpt>
      <trkpt lat="51.19852" lon="6.73749">
        <ele>92.738574</ele>
        <time>2024-08-15T08:28:51.930Z</time>
      </trkpt>
      <trkpt lat="51.19847" lon="6.73764">
        <ele>92.61525</ele>
        <time>2024-08-15T08:28:54.915Z</time>
      </trkpt>
      <trkpt lat="51.19846" lon="6.73782">
        <ele>92.481169</ele>
        <time>2024-08-15T08:28:57.913Z</time>
      </trkpt>
      <trkpt lat="51.19846" lon="6.73802">
        <ele>92.332665</ele>
        <time>2024-08-15T08:29:00.917Z</time>
      </trkpt>
      <trkpt lat="51.19845" lon="6.73823">
        <ele>92.178777</ele>
        <time>2024-08-15T08:29:03.905Z</time>
      </trkpt>
      <trkpt lat="51.19844" lon="6.73844">
        <ele>92.019655</ele>
        <time>2024-08-15T08:29:06.913Z</time>
      </trkpt>
      <trkpt lat="51.19845" lon="6.73859">
        <ele>91.911198</ele>
        <time>2024-08-15T08:29:08.898Z</time>
      </trkpt>
      <trkpt lat="51.19845" lon="6.73874">
        <ele>91.798214</ele>
        <time>2024-08-15T08:29:10.918Z</time>
      </trkpt>
      <trkpt lat="51.19845" lon="6.7389">
        <ele>91.682864</ele>
        <time>2024-08-15T08:29:12.918Z</time>
      </trkpt>
      <trkpt lat="51.19845" lon="6.73905">
        <ele>91.56988</ele>
        <time>2024-08-15T08:29:14.918Z</time>
      </trkpt>
      <trkpt lat="51.19845" lon="6.73921">
        <ele>91.379316</ele>
        <time>2024-08-15T08:29:16.920Z</time>
      </trkpt>
      <trkpt lat="51.19845" lon="6.73938">
        <ele>91.175654</ele>
        <time>2024-08-15T08:29:19.905Z</time>
      </trkpt>
      <trkpt lat="51.19847" lon="6.73956">
        <ele>90.957207</ele>
        <time>2024-08-15T08:29:22.914Z</time>
      </trkpt>
      <trkpt lat="51.19847" lon="6.73975">
        <ele>90.721286</ele>
        <time>2024-08-15T08:29:25.917Z</time>
      </trkpt>
      <trkpt lat="51.19848" lon="6.7399">
        <ele>90.547183</ele>
        <time>2024-08-15T08:29:27.911Z</time>
      </trkpt>
      <trkpt lat="51.19849" lon="6.74005">
        <ele>90.363779</ele>
        <time>2024-08-15T08:29:29.968Z</time>
      </trkpt>
      <trkpt lat="51.1985" lon="6.74021">
        <ele>90.167338</ele>
        <time>2024-08-15T08:29:31.916Z</time>
      </trkpt>
      <trkpt lat="51.19851" lon="6.74037">
        <ele>89.970065</ele>
        <time>2024-08-15T08:29:33.906Z</time>
      </trkpt>
      <trkpt lat="51.19852" lon="6.74053">
        <ele>89.778782</ele>
        <time>2024-08-15T08:29:35.912Z</time>
      </trkpt>
      <trkpt lat="51.19854" lon="6.74069">
        <ele>89.584845</ele>
        <time>2024-08-15T08:29:37.918Z</time>
      </trkpt>
      <trkpt lat="51.19855" lon="6.74084">
        <ele>89.396202</ele>
        <time>2024-08-15T08:29:39.911Z</time>
      </trkpt>
      <trkpt lat="51.19856" lon="6.741">
        <ele>89.201565</ele>
        <time>2024-08-15T08:29:41.920Z</time>
      </trkpt>
      <trkpt lat="51.19857" lon="6.74117">
        <ele>89.004528</ele>
        <time>2024-08-15T08:29:43.912Z</time>
      </trkpt>
      <trkpt lat="51.19858" lon="6.74132">
        <ele>88.813488</ele>
        <time>2024-08-15T08:29:45.913Z</time>
      </trkpt>
      <trkpt lat="51.19859" lon="6.74148">
        <ele>88.624078</ele>
        <time>2024-08-15T08:29:47.903Z</time>
      </trkpt>
      <trkpt lat="51.19861" lon="6.74163">
        <ele>88.437833</ele>
        <time>2024-08-15T08:29:49.895Z</time>
      </trkpt>
      <trkpt lat="51.19861" lon="6.74178">
        <ele>88.257697</ele>
        <time>2024-08-15T08:29:51.909Z</time>
      </trkpt>
      <trkpt lat="51.19863" lon="6.74194">
        <ele>88.092195</ele>
        <time>2024-08-15T08:29:53.898Z</time>
      </trkpt>
      <trkpt lat="51.19864" lon="6.74209">
        <ele>88.054733</ele>
        <time>2024-08-15T08:29:55.928Z</time>
      </trkpt>
      <trkpt lat="51.19866" lon="6.74225">
        <ele>88.01549</ele>
        <time>2024-08-15T08:29:57.916Z</time>
      </trkpt>
      <trkpt lat="51.19868" lon="6.74242">
        <ele>87.973208</ele>
        <time>2024-08-15T08:29:59.905Z</time>
      </trkpt>
      <trkpt lat="51.1987" lon="6.74257">
        <ele>87.936289</ele>
        <time>2024-08-15T08:30:01.912Z</time>
      </trkpt>
      <trkpt lat="51.19872" lon="6.74273">
        <ele>87.899134</ele>
        <time>2024-08-15T08:30:03.911Z</time>
      </trkpt>
      <trkpt lat="51.19873" lon="6.74287">
        <ele>87.863621</ele>
        <time>2024-08-15T08:30:05.916Z</time>
      </trkpt>
      <trkpt lat="51.19875" lon="6.74304">
        <ele>87.822853</ele>
        <time>2024-08-15T08:30:07.920Z</time>
      </trkpt>
      <trkpt lat="51.19878" lon="6.74319">
        <ele>87.783427</ele>
        <time>2024-08-15T08:30:09.903Z</time>
      </trkpt>
      <trkpt lat="51.19881" lon="6.74335">
        <ele>87.744197</ele>
        <time>2024-08-15T08:30:11.905Z</time>
      </trkpt>
      <trkpt lat="51.19883" lon="6.7435">
        <ele>87.70776</ele>
        <time>2024-08-15T08:30:13.913Z</time>
      </trkpt>
      <trkpt lat="51.19885" lon="6.74366">
        <ele>87.66792</ele>
        <time>2024-08-15T08:30:15.916Z</time>
      </trkpt>
      <trkpt lat="51.19888" lon="6.74382">
        <ele>87.628516</ele>
        <time>2024-08-15T08:30:17.917Z</time>
      </trkpt>
      <trkpt lat="51.19891" lon="6.74397">
        <ele>87.591177</ele>
        <time>2024-08-15T08:30:19.924Z</time>
      </trkpt>
      <trkpt lat="51.19894" lon="6.74411">
        <ele>87.55373</ele>
        <time>2024-08-15T08:30:21.912Z</time>
      </trkpt>
      <trkpt lat="51.19897" lon="6.74425">
        <ele>87.51869</ele>
        <time>2024-08-15T08:30:23.894Z</time>
      </trkpt>
      <trkpt lat="51.19901" lon="6.74446">
        <ele>87.466772</ele>
        <time>2024-08-15T08:30:26.932Z</time>
      </trkpt>
      <trkpt lat="51.19908" lon="6.74463">
        <ele>87.418016</ele>
        <time>2024-08-15T08:30:29.912Z</time>
      </trkpt>
      <trkpt lat="51.19912" lon="6.74476">
        <ele>87.442581</ele>
        <time>2024-08-15T08:30:31.913Z</time>
      </trkpt>
      <trkpt lat="51.19915" lon="6.74495">
        <ele>87.508859</ele>
        <time>2024-08-15T08:30:34.914Z</time>
      </trkpt>
      <trkpt lat="51.19919" lon="6.74513">
        <ele>87.570622</ele>
        <time>2024-08-15T08:30:37.907Z</time>
      </trkpt>
      <trkpt lat="51.19923" lon="6.7453">
        <ele>87.632959</ele>
        <time>2024-08-15T08:30:40.917Z</time>
      </trkpt>
      <trkpt lat="51.19927" lon="6.74551">
        <ele>87.704593</ele>
        <time>2024-08-15T08:30:43.906Z</time>
      </trkpt>
      <trkpt lat="51.19932" lon="6.7457">
        <ele>87.772899</ele>
        <time>2024-08-15T08:30:46.926Z</time>
      </trkpt>
      <trkpt lat="51.19935" lon="6.74589">
        <ele>87.83864</ele>
        <time>2024-08-15T08:30:49.915Z</time>
      </trkpt>
      <trkpt lat="51.19937" lon="6.7461">
        <ele>87.909095</ele>
        <time>2024-08-15T08:30:52.915Z</time>
      </trkpt>
      <trkpt lat="51.1994" lon="6.74624">
        <ele>87.960343</ele>
        <time>2024-08-15T08:30:54.930Z</time>
      </trkpt>
      <trkpt lat="51.19944" lon="6.74638">
        <ele>88.00922</ele>
        <time>2024-08-15T08:30:56.916Z</time>
      </trkpt>
      <trkpt lat="51.19947" lon="6.74652">
        <ele>88.059756</ele>
        <time>2024-08-15T08:30:58.920Z</time>
      </trkpt>
      <trkpt lat="51.19951" lon="6.74667">
        <ele>88.111103</ele>
        <time>2024-08-15T08:31:00.921Z</time>
      </trkpt>
      <trkpt lat="51.19954" lon="6.74681">
        <ele>88.161104</ele>
        <time>2024-08-15T08:31:02.911Z</time>
      </trkpt>
      <trkpt lat="51.19958" lon="6.74694">
        <ele>88.210001</ele>
        <time>2024-08-15T08:31:04.915Z</time>
      </trkpt>
      <trkpt lat="51.19962" lon="6.74708">
        <ele>88.261234</ele>
        <time>2024-08-15T08:31:06.920Z</time>
      </trkpt>
      <trkpt lat="51.19965" lon="6.74722">
        <ele>88.310221</ele>
        <time>2024-08-15T08:31:08.912Z</time>
      </trkpt>
      <trkpt lat="51.19969" lon="6.74736">
        <ele>88.361155</ele>
        <time>2024-08-15T08:31:10.918Z</time>
      </trkpt>
      <trkpt lat="51.19973" lon="6.74749">
        <ele>88.320007</ele>
        <time>2024-08-15T08:31:12.902Z</time>
      </trkpt>
      <trkpt lat="51.19977" lon="6.74762">
        <ele>88.277976</ele>
        <time>2024-08-15T08:31:14.918Z</time>
      </trkpt>
      <trkpt lat="51.1998" lon="6.74776">
        <ele>88.234589</ele>
        <time>2024-08-15T08:31:16.920Z</time>
      </trkpt>
      <trkpt lat="51.19983" lon="6.74791">
        <ele>88.18816</ele>
        <time>2024-08-15T08:31:18.912Z</time>
      </trkpt>
      <trkpt lat="51.19987" lon="6.74805">
        <ele>88.144157</ele>
        <time>2024-08-15T08:31:20.924Z</time>
      </trkpt>
      <trkpt lat="51.19991" lon="6.7482">
        <ele>88.097627</ele>
        <time>2024-08-15T08:31:22.917Z</time>
      </trkpt>
      <trkpt lat="51.19994" lon="6.74835">
        <ele>88.052244</ele>
        <time>2024-08-15T08:31:24.913Z</time>
      </trkpt>
      <trkpt lat="51.19998" lon="6.74849">
        <ele>88.00824</ele>
        <time>2024-08-15T08:31:26.918Z</time>
      </trkpt>
      <trkpt lat="51.20003" lon="6.74869">
        <ele>87.945499</ele>
        <time>2024-08-15T08:31:29.902Z</time>
      </trkpt>
      <trkpt lat="51.20006" lon="6.74882">
        <ele>87.903553</ele>
        <time>2024-08-15T08:31:31.909Z</time>
      </trkpt>
      <trkpt lat="51.2001" lon="6.74895">
        <ele>87.861331</ele>
        <time>2024-08-15T08:31:33.901Z</time>
      </trkpt>
      <trkpt lat="51.20013" lon="6.74909">
        <ele>87.818314</ele>
        <time>2024-08-15T08:31:35.917Z</time>
      </trkpt>
      <trkpt lat="51.20017" lon="6.74923">
        <ele>87.773147</ele>
        <time>2024-08-15T08:31:37.908Z</time>
      </trkpt>
      <trkpt lat="51.2002" lon="6.74937">
        <ele>87.730737</ele>
        <time>2024-08-15T08:31:39.908Z</time>
      </trkpt>
      <trkpt lat="51.20024" lon="6.7495">
        <ele>87.688243</ele>
        <time>2024-08-15T08:31:41.907Z</time>
      </trkpt>
      <trkpt lat="51.20027" lon="6.74963">
        <ele>87.64603</ele>
        <time>2024-08-15T08:31:43.907Z</time>
      </trkpt>
      <trkpt lat="51.20033" lon="6.74982">
        <ele>87.586325</ele>
        <time>2024-08-15T08:31:46.925Z</time>
      </trkpt>
      <trkpt lat="51.20038" lon="6.75001">
        <ele>87.526367</ele>
        <time>2024-08-15T08:31:49.902Z</time>
      </trkpt>
      <trkpt lat="51.20042" lon="6.7502">
        <ele>87.518328</ele>
        <time>2024-08-15T08:31:52.913Z</time>
      </trkpt>
      <trkpt lat="51.20047" lon="6.75038">
        <ele>87.511129</ele>
        <time>2024-08-15T08:31:55.912Z</time>
      </trkpt>
      <trkpt lat="51.2005" lon="6.75057">
        <ele>87.504073</ele>
        <time>2024-08-15T08:31:58.931Z</time>
      </trkpt>
      <trkpt lat="51.20055" lon="6.75076">
        <ele>87.496861</ele>
        <time>2024-08-15T08:32:01.930Z</time>
      </trkpt>
      <trkpt lat="51.20062" lon="6.75093">
        <ele>87.489586</ele>
        <time>2024-08-15T08:32:04.894Z</time>
      </trkpt>
      <trkpt lat="51.20068" lon="6.75106">
        <ele>87.483325</ele>
        <time>2024-08-15T08:32:07.919Z</time>
      </trkpt>
      <trkpt lat="51.20072" lon="6.75121">
        <ele>87.477497</ele>
        <time>2024-08-15T08:32:10.896Z</time>
      </trkpt>
      <trkpt lat="51.20077" lon="6.75139">
        <ele>87.470705</ele>
        <time>2024-08-15T08:32:13.914Z</time>
      </trkpt>
      <trkpt lat="51.20081" lon="6.75156">
        <ele>87.463932</ele>
        <time>2024-08-15T08:32:16.886Z</time>
      </trkpt>
      <trkpt lat="51.20084" lon="6.75176">
        <ele>87.456676</ele>
        <time>2024-08-15T08:32:19.916Z</time>
      </trkpt>
      <trkpt lat="51.20087" lon="6.75195">
        <ele>87.449463</ele>
        <time>2024-08-15T08:32:22.919Z</time>
      </trkpt>
      <trkpt lat="51.20091" lon="6.75212">
        <ele>87.442889</ele>
        <time>2024-08-15T08:32:25.911Z</time>
      </trkpt>
      <trkpt lat="51.20093" lon="6.7523">
        <ele>87.436286</ele>
        <time>2024-08-15T08:32:28.903Z</time>
      </trkpt>
      <trkpt lat="51.20096" lon="6.75246">
        <ele>87.430448</ele>
        <time>2024-08-15T08:32:31.915Z</time>
      </trkpt>
      <trkpt lat="51.20097" lon="6.75263">
        <ele>87.424239</ele>
        <time>2024-08-15T08:32:35.917Z</time>
      </trkpt>
      <trkpt lat="51.20101" lon="6.75282">
        <ele>87.400972</ele>
        <time>2024-08-15T08:36:59.912Z</time>
      </trkpt>
      <trkpt lat="51.20102" lon="6.75299">
        <ele>87.374933</ele>
        <time>2024-08-15T08:37:03.908Z</time>
      </trkpt>
      <trkpt lat="51.20104" lon="6.75315">
        <ele>87.349737</ele>
        <time>2024-08-15T08:37:06.919Z</time>
      </trkpt>
      <trkpt lat="51.20105" lon="6.75332">
        <ele>87.322993</ele>
        <time>2024-08-15T08:37:09.907Z</time>
      </trkpt>
      <trkpt lat="51.20107" lon="6.75349">
        <ele>87.296611</ele>
        <time>2024-08-15T08:37:12.912Z</time>
      </trkpt>
      <trkpt lat="51.20108" lon="6.75367">
        <ele>87.267217</ele>
        <time>2024-08-15T08:37:15.892Z</time>
      </trkpt>
      <trkpt lat="51.20109" lon="6.75387">
        <ele>87.236396</ele>
        <time>2024-08-15T08:37:18.905Z</time>
      </trkpt>
      <trkpt lat="51.2011" lon="6.75407">
        <ele>87.204916</ele>
        <time>2024-08-15T08:37:21.907Z</time>
      </trkpt>
      <trkpt lat="51.20111" lon="6.75427">
        <ele>87.174364</ele>
        <time>2024-08-15T08:37:24.910Z</time>
      </trkpt>
      <trkpt lat="51.20114" lon="6.75446">
        <ele>87.14406</ele>
        <time>2024-08-15T08:37:27.902Z</time>
      </trkpt>
      <trkpt lat="51.20116" lon="6.75464">
        <ele>87.115914</ele>
        <time>2024-08-15T08:37:30.920Z</time>
      </trkpt>
      <trkpt lat="51.20116" lon="6.75482">
        <ele>87.088238</ele>
        <time>2024-08-15T08:37:33.914Z</time>
      </trkpt>
      <trkpt lat="51.20116" lon="6.75499">
        <ele>87.061205</ele>
        <time>2024-08-15T08:37:36.905Z</time>
      </trkpt>
      <trkpt lat="51.20113" lon="6.75517">
        <ele>87.033433</ele>
        <time>2024-08-15T08:37:39.909Z</time>
      </trkpt>
      <trkpt lat="51.20112" lon="6.75532">
        <ele>87.008391</ele>
        <time>2024-08-15T08:37:42.913Z</time>
      </trkpt>
      <trkpt lat="51.2011" lon="6.75556">
        <ele>86.971988</ele>
        <time>2024-08-15T08:38:08.913Z</time>
      </trkpt>
      <trkpt lat="51.20109" lon="6.75573">
        <ele>86.94791</ele>
        <time>2024-08-15T08:38:14.899Z</time>
      </trkpt>
      <trkpt lat="51.201" lon="6.7557">
        <ele>86.926522</ele>
        <time>2024-08-15T08:38:51.920Z</time>
      </trkpt>
      <trkpt lat="51.20091" lon="6.75561">
        <ele>86.903038</ele>
        <time>2024-08-15T08:38:56.909Z</time>
      </trkpt>
      <trkpt lat="51.20083" lon="6.75555">
        <ele>86.8822</ele>
        <time>2024-08-15T08:39:08.902Z</time>
      </trkpt>
      <trkpt lat="51.20075" lon="6.75564">
        <ele>86.860348</ele>
        <time>2024-08-15T08:39:12.907Z</time>
      </trkpt>
      <trkpt lat="51.20073" lon="6.7558">
        <ele>86.83725</ele>
        <time>2024-08-15T08:39:15.909Z</time>
      </trkpt>
      <trkpt lat="51.20072" lon="6.75598">
        <ele>86.811402</ele>
        <time>2024-08-15T08:39:18.919Z</time>
      </trkpt>
      <trkpt lat="51.20071" lon="6.75617">
        <ele>86.784406</ele>
        <time>2024-08-15T08:39:21.894Z</time>
      </trkpt>
      <trkpt lat="51.20073" lon="6.75638">
        <ele>86.755168</ele>
        <time>2024-08-15T08:39:24.910Z</time>
      </trkpt>
      <trkpt lat="51.20074" lon="6.75653">
        <ele>86.733853</ele>
        <time>2024-08-15T08:39:26.915Z</time>
      </trkpt>
      <trkpt lat="51.20075" lon="6.75668">
        <ele>86.712266</ele>
        <time>2024-08-15T08:39:28.898Z</time>
      </trkpt>
      <trkpt lat="51.20075" lon="6.75683">
        <ele>86.691318</ele>
        <time>2024-08-15T08:39:30.897Z</time>
      </trkpt>
      <trkpt lat="51.20074" lon="6.75698">
        <ele>86.669791</ele>
        <time>2024-08-15T08:39:32.907Z</time>
      </trkpt>
      <trkpt lat="51.20073" lon="6.75714">
        <ele>86.647101</ele>
        <time>2024-08-15T08:39:34.920Z</time>
      </trkpt>
      <trkpt lat="51.20073" lon="6.75729">
        <ele>86.626319</ele>
        <time>2024-08-15T08:39:36.922Z</time>
      </trkpt>
      <trkpt lat="51.20072" lon="6.75745">
        <ele>86.603665</ele>
        <time>2024-08-15T08:39:38.920Z</time>
      </trkpt>
      <trkpt lat="51.20071" lon="6.7576">
        <ele>86.58132</ele>
        <time>2024-08-15T08:39:40.914Z</time>
      </trkpt>
      <trkpt lat="51.20071" lon="6.75775">
        <ele>86.539407</ele>
        <time>2024-08-15T08:39:42.890Z</time>
      </trkpt>
      <trkpt lat="51.2007" lon="6.7579">
        <ele>86.479449</ele>
        <time>2024-08-15T08:39:44.908Z</time>
      </trkpt>
      <trkpt lat="51.20069" lon="6.75805">
        <ele>86.419085</ele>
        <time>2024-08-15T08:39:46.903Z</time>
      </trkpt>
      <trkpt lat="51.20069" lon="6.7582">
        <ele>86.356132</ele>
        <time>2024-08-15T08:39:48.917Z</time>
      </trkpt>
      <trkpt lat="51.20068" lon="6.75836">
        <ele>86.293236</ele>
        <time>2024-08-15T08:39:50.916Z</time>
      </trkpt>
      <trkpt lat="51.20067" lon="6.75851">
        <ele>86.22941</ele>
        <time>2024-08-15T08:39:52.892Z</time>
      </trkpt>
      <trkpt lat="51.20066" lon="6.75867">
        <ele>86.163764</ele>
        <time>2024-08-15T08:39:54.914Z</time>
      </trkpt>
      <trkpt lat="51.20066" lon="6.75883">
        <ele>86.099744</ele>
        <time>2024-08-15T08:39:56.917Z</time>
      </trkpt>
      <trkpt lat="51.20065" lon="6.75899">
        <ele>86.036386</ele>
        <time>2024-08-15T08:39:58.904Z</time>
      </trkpt>
      <trkpt lat="51.20064" lon="6.75914">
        <ele>85.97399</ele>
        <time>2024-08-15T08:40:00.911Z</time>
      </trkpt>
      <trkpt lat="51.20063" lon="6.7593">
        <ele>85.909115</ele>
        <time>2024-08-15T08:40:02.910Z</time>
      </trkpt>
      <trkpt lat="51.20063" lon="6.75946">
        <ele>85.843979</ele>
        <time>2024-08-15T08:40:04.907Z</time>
      </trkpt>
      <trkpt lat="51.20062" lon="6.75961">
        <ele>85.78154</ele>
        <time>2024-08-15T08:40:06.917Z</time>
      </trkpt>
      <trkpt lat="51.20062" lon="6.75977">
        <ele>85.71707</ele>
        <time>2024-08-15T08:40:08.915Z</time>
      </trkpt>
      <trkpt lat="51.20061" lon="6.75993">
        <ele>85.650814</ele>
        <time>2024-08-15T08:40:10.917Z</time>
      </trkpt>
      <trkpt lat="51.2006" lon="6.76009">
        <ele>85.585484</ele>
        <time>2024-08-15T08:40:12.912Z</time>
      </trkpt>
      <trkpt lat="51.20059" lon="6.76025">
        <ele>85.520966</ele>
        <time>2024-08-15T08:40:14.917Z</time>
      </trkpt>
      <trkpt lat="51.20058" lon="6.76047">
        <ele>85.431949</ele>
        <time>2024-08-15T08:40:17.902Z</time>
      </trkpt>
      <trkpt lat="51.20057" lon="6.76062">
        <ele>85.419812</ele>
        <time>2024-08-15T08:40:19.915Z</time>
      </trkpt>
      <trkpt lat="51.20056" lon="6.76077">
        <ele>85.455145</ele>
        <time>2024-08-15T08:40:21.904Z</time>
      </trkpt>
      <trkpt lat="51.20056" lon="6.76093">
        <ele>85.490392</ele>
        <time>2024-08-15T08:40:23.906Z</time>
      </trkpt>
      <trkpt lat="51.20056" lon="6.76108">
        <ele>85.52295</ele>
        <time>2024-08-15T08:40:25.908Z</time>
      </trkpt>
      <trkpt lat="51.20055" lon="6.76129">
        <ele>85.570639</ele>
        <time>2024-08-15T08:40:28.911Z</time>
      </trkpt>
      <trkpt lat="51.20054" lon="6.7615">
        <ele>85.618057</ele>
        <time>2024-08-15T08:40:31.912Z</time>
      </trkpt>
      <trkpt lat="51.20052" lon="6.7617">
        <ele>85.664174</ele>
        <time>2024-08-15T08:40:34.913Z</time>
      </trkpt>
      <trkpt lat="51.20052" lon="6.7619">
        <ele>85.70837</ele>
        <time>2024-08-15T08:40:37.906Z</time>
      </trkpt>
      <trkpt lat="51.20051" lon="6.76208">
        <ele>85.748205</ele>
        <time>2024-08-15T08:40:40.907Z</time>
      </trkpt>
      <trkpt lat="51.20048" lon="6.76223">
        <ele>85.783099</ele>
        <time>2024-08-15T08:40:44.900Z</time>
      </trkpt>
      <trkpt lat="51.20049" lon="6.76241">
        <ele>85.825325</ele>
        <time>2024-08-15T08:41:22.915Z</time>
      </trkpt>
      <trkpt lat="51.20049" lon="6.7626">
        <ele>85.866377</ele>
        <time>2024-08-15T08:41:26.887Z</time>
      </trkpt>
      <trkpt lat="51.20048" lon="6.76276">
        <ele>85.902616</ele>
        <time>2024-08-15T08:41:29.891Z</time>
      </trkpt>
      <trkpt lat="51.20047" lon="6.76293">
        <ele>85.941556</ele>
        <time>2024-08-15T08:41:32.909Z</time>
      </trkpt>
      <trkpt lat="51.20047" lon="6.76313">
        <ele>85.987546</ele>
        <time>2024-08-15T08:41:35.906Z</time>
      </trkpt>
      <trkpt lat="51.20045" lon="6.76329">
        <ele>86.021787</ele>
        <time>2024-08-15T08:41:37.902Z</time>
      </trkpt>
      <trkpt lat="51.20044" lon="6.76343">
        <ele>86.04842</ele>
        <time>2024-08-15T08:41:39.914Z</time>
      </trkpt>
      <trkpt lat="51.20044" lon="6.76364">
        <ele>86.06012</ele>
        <time>2024-08-15T08:41:42.922Z</time>
      </trkpt>
      <trkpt lat="51.20043" lon="6.76385">
        <ele>86.072282</ele>
        <time>2024-08-15T08:41:45.907Z</time>
      </trkpt>
      <trkpt lat="51.20042" lon="6.76401">
        <ele>86.080905</ele>
        <time>2024-08-15T08:41:47.904Z</time>
      </trkpt>
      <trkpt lat="51.20042" lon="6.76416">
        <ele>86.089404</ele>
        <time>2024-08-15T08:41:49.905Z</time>
      </trkpt>
      <trkpt lat="51.20041" lon="6.76432">
        <ele>86.098258</ele>
        <time>2024-08-15T08:41:51.919Z</time>
      </trkpt>
      <trkpt lat="51.2004" lon="6.76447">
        <ele>86.106746</ele>
        <time>2024-08-15T08:41:53.897Z</time>
      </trkpt>
      <trkpt lat="51.2004" lon="6.76461">
        <ele>86.115067</ele>
        <time>2024-08-15T08:41:55.917Z</time>
      </trkpt>
      <trkpt lat="51.2004" lon="6.76478">
        <ele>86.124341</ele>
        <time>2024-08-15T08:41:57.911Z</time>
      </trkpt>
      <trkpt lat="51.20039" lon="6.76494">
        <ele>86.133351</ele>
        <time>2024-08-15T08:41:59.906Z</time>
      </trkpt>
      <trkpt lat="51.20038" lon="6.7651">
        <ele>86.142296</ele>
        <time>2024-08-15T08:42:01.910Z</time>
      </trkpt>
      <trkpt lat="51.20037" lon="6.76526">
        <ele>86.151525</ele>
        <time>2024-08-15T08:42:03.911Z</time>
      </trkpt>
      <trkpt lat="51.20037" lon="6.76541">
        <ele>86.160073</ele>
        <time>2024-08-15T08:42:05.914Z</time>
      </trkpt>
      <trkpt lat="51.20036" lon="6.76556">
        <ele>86.168584</ele>
        <time>2024-08-15T08:42:07.904Z</time>
      </trkpt>
      <trkpt lat="51.20035" lon="6.76571">
        <ele>86.177118</ele>
        <time>2024-08-15T08:42:09.884Z</time>
      </trkpt>
      <trkpt lat="51.20033" lon="6.76586">
        <ele>86.185428</ele>
        <time>2024-08-15T08:42:11.902Z</time>
      </trkpt>
      <trkpt lat="51.20033" lon="6.76601">
        <ele>86.194036</ele>
        <time>2024-08-15T08:42:13.898Z</time>
      </trkpt>
      <trkpt lat="51.20032" lon="6.76617">
        <ele>86.202915</ele>
        <time>2024-08-15T08:42:15.897Z</time>
      </trkpt>
      <trkpt lat="51.20031" lon="6.76632">
        <ele>86.232265</ele>
        <time>2024-08-15T08:42:17.907Z</time>
      </trkpt>
      <trkpt lat="51.2003" lon="6.76647">
        <ele>86.293062</ele>
        <time>2024-08-15T08:42:19.915Z</time>
      </trkpt>
      <trkpt lat="51.20028" lon="6.76666">
        <ele>86.371839</ele>
        <time>2024-08-15T08:42:22.916Z</time>
      </trkpt>
      <trkpt lat="51.20024" lon="6.76679">
        <ele>86.429422</ele>
        <time>2024-08-15T08:42:26.914Z</time>
      </trkpt>
      <trkpt lat="51.20024" lon="6.76697">
        <ele>86.502933</ele>
        <time>2024-08-15T08:42:48.907Z</time>
      </trkpt>
      <trkpt lat="51.20023" lon="6.76712">
        <ele>86.562259</ele>
        <time>2024-08-15T08:42:51.907Z</time>
      </trkpt>
      <trkpt lat="51.20024" lon="6.76729">
        <ele>86.629952</ele>
        <time>2024-08-15T08:42:54.906Z</time>
      </trkpt>
      <trkpt lat="51.20023" lon="6.76747">
        <ele>86.701813</ele>
        <time>2024-08-15T08:42:57.905Z</time>
      </trkpt>
      <trkpt lat="51.20021" lon="6.76766">
        <ele>86.778365</ele>
        <time>2024-08-15T08:43:00.910Z</time>
      </trkpt>
      <trkpt lat="51.20018" lon="6.76786">
        <ele>86.857581</ele>
        <time>2024-08-15T08:43:03.914Z</time>
      </trkpt>
      <trkpt lat="51.20016" lon="6.76806">
        <ele>86.941114</ele>
        <time>2024-08-15T08:43:06.911Z</time>
      </trkpt>
      <trkpt lat="51.20014" lon="6.76826">
        <ele>87.021004</ele>
        <time>2024-08-15T08:43:09.913Z</time>
      </trkpt>
      <trkpt lat="51.20012" lon="6.76841">
        <ele>87.078838</ele>
        <time>2024-08-15T08:43:11.936Z</time>
      </trkpt>
      <trkpt lat="51.20011" lon="6.76856">
        <ele>87.139489</ele>
        <time>2024-08-15T08:43:13.918Z</time>
      </trkpt>
      <trkpt lat="51.20009" lon="6.76871">
        <ele>87.200141</ele>
        <time>2024-08-15T08:43:15.889Z</time>
      </trkpt>
      <trkpt lat="51.20008" lon="6.76886">
        <ele>87.261803</ele>
        <time>2024-08-15T08:43:17.914Z</time>
      </trkpt>
      <trkpt lat="51.20007" lon="6.76901">
        <ele>87.319918</ele>
        <time>2024-08-15T08:43:19.904Z</time>
      </trkpt>
      <trkpt lat="51.20006" lon="6.76916">
        <ele>87.43491</ele>
        <time>2024-08-15T08:43:21.919Z</time>
      </trkpt>
      <trkpt lat="51.20004" lon="6.76932">
        <ele>87.597914</ele>
        <time>2024-08-15T08:43:23.910Z</time>
      </trkpt>
      <trkpt lat="51.20003" lon="6.76947">
        <ele>87.752305</ele>
        <time>2024-08-15T08:43:25.914Z</time>
      </trkpt>
      <trkpt lat="51.20001" lon="6.76962">
        <ele>87.902299</ele>
        <time>2024-08-15T08:43:27.897Z</time>
      </trkpt>
      <trkpt lat="51.19999" lon="6.76983">
        <ele>88.118609</ele>
        <time>2024-08-15T08:43:30.904Z</time>
      </trkpt>
      <trkpt lat="51.19998" lon="6.77003">
        <ele>88.330096</ele>
        <time>2024-08-15T08:43:33.905Z</time>
      </trkpt>
      <trkpt lat="51.19997" lon="6.77023">
        <ele>88.52688</ele>
        <time>2024-08-15T08:43:36.911Z</time>
      </trkpt>
      <trkpt lat="51.19995" lon="6.7704">
        <ele>88.700434</ele>
        <time>2024-08-15T08:43:40.902Z</time>
      </trkpt>
      <trkpt lat="51.20003" lon="6.77048">
        <ele>88.854475</ele>
        <time>2024-08-15T08:43:45.896Z</time>
      </trkpt>
      <trkpt lat="51.20014" lon="6.77049">
        <ele>89.029833</ele>
        <time>2024-08-15T08:43:50.907Z</time>
      </trkpt>
      <trkpt lat="51.20024" lon="6.77051">
        <ele>89.193503</ele>
        <time>2024-08-15T08:43:54.910Z</time>
      </trkpt>
      <trkpt lat="51.20027" lon="6.77066">
        <ele>89.359954</ele>
        <time>2024-08-15T08:44:19.914Z</time>
      </trkpt>
      <trkpt lat="51.20036" lon="6.77073">
        <ele>89.524907</ele>
        <time>2024-08-15T08:44:25.900Z</time>
      </trkpt>
      <trkpt lat="51.20048" lon="6.77073">
        <ele>89.713166</ele>
        <time>2024-08-15T08:44:29.901Z</time>
      </trkpt>
      <trkpt lat="51.2006" lon="6.77074">
        <ele>89.899877</ele>
        <time>2024-08-15T08:44:32.901Z</time>
      </trkpt>
      <trkpt lat="51.20073" lon="6.77076">
        <ele>90.123637</ele>
        <time>2024-08-15T08:44:35.891Z</time>
      </trkpt>
      <trkpt lat="51.20082" lon="6.77078">
        <ele>90.267425</ele>
        <time>2024-08-15T08:44:37.912Z</time>
      </trkpt>
      <trkpt lat="51.20095" lon="6.77081">
        <ele>90.28617</ele>
        <time>2024-08-15T08:44:40.906Z</time>
      </trkpt>
      <trkpt lat="51.20107" lon="6.77084">
        <ele>90.303305</ele>
        <time>2024-08-15T08:44:43.901Z</time>
      </trkpt>
      <trkpt lat="51.20119" lon="6.77088">
        <ele>90.32069</ele>
        <time>2024-08-15T08:44:46.900Z</time>
      </trkpt>
      <trkpt lat="51.2013" lon="6.77092">
        <ele>90.33786</ele>
        <time>2024-08-15T08:44:49.900Z</time>
      </trkpt>
      <trkpt lat="51.20139" lon="6.77097">
        <ele>90.351294</ele>
        <time>2024-08-15T08:44:52.901Z</time>
      </trkpt>
      <trkpt lat="51.20148" lon="6.77101">
        <ele>90.365213</ele>
        <time>2024-08-15T08:45:01.906Z</time>
      </trkpt>
      <trkpt lat="51.20158" lon="6.77106">
        <ele>90.379835</ele>
        <time>2024-08-15T08:45:05.899Z</time>
      </trkpt>
      <trkpt lat="51.20167" lon="6.77112">
        <ele>90.394809</ele>
        <time>2024-08-15T08:45:08.911Z</time>
      </trkpt>
      <trkpt lat="51.20179" lon="6.77117">
        <ele>90.412115</ele>
        <time>2024-08-15T08:45:11.900Z</time>
      </trkpt>
      <trkpt lat="51.20191" lon="6.77122">
        <ele>90.4308</ele>
        <time>2024-08-15T08:45:14.916Z</time>
      </trkpt>
      <trkpt lat="51.20204" lon="6.77127">
        <ele>90.44953</ele>
        <time>2024-08-15T08:45:17.905Z</time>
      </trkpt>
      <trkpt lat="51.20217" lon="6.77132">
        <ele>90.468594</ele>
        <time>2024-08-15T08:45:20.914Z</time>
      </trkpt>
      <trkpt lat="51.20226" lon="6.77136">
        <ele>90.482001</ele>
        <time>2024-08-15T08:45:22.908Z</time>
      </trkpt>
      <trkpt lat="51.20234" lon="6.7714">
        <ele>90.495458</ele>
        <time>2024-08-15T08:45:24.904Z</time>
      </trkpt>
      <trkpt lat="51.20244" lon="6.77144">
        <ele>90.509143</ele>
        <time>2024-08-15T08:45:26.914Z</time>
      </trkpt>
      <trkpt lat="51.20257" lon="6.7715">
        <ele>90.523432</ele>
        <time>2024-08-15T08:45:29.900Z</time>
      </trkpt>
      <trkpt lat="51.20269" lon="6.77156">
        <ele>90.46126</ele>
        <time>2024-08-15T08:45:32.898Z</time>
      </trkpt>
      <trkpt lat="51.20283" lon="6.77164">
        <ele>90.3953</ele>
        <time>2024-08-15T08:45:35.905Z</time>
      </trkpt>
      <trkpt lat="51.20291" lon="6.77171">
        <ele>90.350068</ele>
        <time>2024-08-15T08:45:37.910Z</time>
      </trkpt>
      <trkpt lat="51.203" lon="6.77176">
        <ele>90.306944</ele>
        <time>2024-08-15T08:45:39.912Z</time>
      </trkpt>
      <trkpt lat="51.20309" lon="6.77183">
        <ele>90.259411</ele>
        <time>2024-08-15T08:45:41.909Z</time>
      </trkpt>
      <trkpt lat="51.20318" lon="6.77189">
        <ele>90.211451</ele>
        <time>2024-08-15T08:45:43.896Z</time>
      </trkpt>
      <trkpt lat="51.20327" lon="6.77197">
        <ele>90.166064</ele>
        <time>2024-08-15T08:45:45.915Z</time>
      </trkpt>
      <trkpt lat="51.20335" lon="6.77203">
        <ele>90.122257</ele>
        <time>2024-08-15T08:45:47.905Z</time>
      </trkpt>
      <trkpt lat="51.20347" lon="6.77212">
        <ele>90.062183</ele>
        <time>2024-08-15T08:45:50.905Z</time>
      </trkpt>
      <trkpt lat="51.20357" lon="6.77218">
        <ele>90.011541</ele>
        <time>2024-08-15T08:45:52.903Z</time>
      </trkpt>
      <trkpt lat="51.20365" lon="6.77227">
        <ele>89.964311</ele>
        <time>2024-08-15T08:45:54.919Z</time>
      </trkpt>
      <trkpt lat="51.20373" lon="6.77236">
        <ele>89.918745</ele>
        <time>2024-08-15T08:45:56.914Z</time>
      </trkpt>
      <trkpt lat="51.20383" lon="6.77247">
        <ele>89.86029</ele>
        <time>2024-08-15T08:45:59.910Z</time>
      </trkpt>
      <trkpt lat="51.20392" lon="6.77259">
        <ele>89.806465</ele>
        <time>2024-08-15T08:46:02.907Z</time>
      </trkpt>
      <trkpt lat="51.20402" lon="6.77269">
        <ele>89.749875</ele>
        <time>2024-08-15T08:46:05.902Z</time>
      </trkpt>
      <trkpt lat="51.20412" lon="6.77281">
        <ele>89.691041</ele>
        <time>2024-08-15T08:46:08.902Z</time>
      </trkpt>
      <trkpt lat="51.20421" lon="6.77295">
        <ele>89.536681</ele>
        <time>2024-08-15T08:46:11.901Z</time>
      </trkpt>
      <trkpt lat="51.20434" lon="6.77316">
        <ele>89.281345</ele>
        <time>2024-08-15T08:46:45.912Z</time>
      </trkpt>
      <trkpt lat="51.20441" lon="6.77327">
        <ele>89.141378</ele>
        <time>2024-08-15T08:46:48.886Z</time>
      </trkpt>
      <trkpt lat="51.20451" lon="6.77337">
        <ele>88.9794</ele>
        <time>2024-08-15T08:46:51.900Z</time>
      </trkpt>
      <trkpt lat="51.20461" lon="6.7735">
        <ele>88.805315</ele>
        <time>2024-08-15T08:46:54.916Z</time>
      </trkpt>
      <trkpt lat="51.20471" lon="6.77363">
        <ele>88.622551</ele>
        <time>2024-08-15T08:46:57.907Z</time>
      </trkpt>
      <trkpt lat="51.20482" lon="6.77376">
        <ele>88.439802</ele>
        <time>2024-08-15T08:47:00.900Z</time>
      </trkpt>
      <trkpt lat="51.20489" lon="6.77384">
        <ele>88.313952</ele>
        <time>2024-08-15T08:47:02.902Z</time>
      </trkpt>
      <trkpt lat="51.20497" lon="6.77392">
        <ele>88.184176</ele>
        <time>2024-08-15T08:47:04.903Z</time>
      </trkpt>
      <trkpt lat="51.20505" lon="6.774">
        <ele>88.05737</ele>
        <time>2024-08-15T08:47:06.905Z</time>
      </trkpt>
      <trkpt lat="51.20515" lon="6.77412">
        <ele>87.880424</ele>
        <time>2024-08-15T08:47:09.906Z</time>
      </trkpt>
      <trkpt lat="51.20522" lon="6.77421">
        <ele>87.755116</ele>
        <time>2024-08-15T08:47:13.901Z</time>
      </trkpt>
      <trkpt lat="51.20534" lon="6.77438">
        <ele>87.527055</ele>
        <time>2024-08-15T08:47:46.911Z</time>
      </trkpt>
      <trkpt lat="51.20534" lon="6.77455">
        <ele>87.379204</ele>
        <time>2024-08-15T08:47:49.890Z</time>
      </trkpt>
      <trkpt lat="51.20533" lon="6.77474">
        <ele>87.210592</ele>
        <time>2024-08-15T08:47:52.911Z</time>
      </trkpt>
      <trkpt lat="51.20531" lon="6.77496">
        <ele>87.053733</ele>
        <time>2024-08-15T08:47:55.911Z</time>
      </trkpt>
      <trkpt lat="51.2053" lon="6.77511">
        <ele>86.949922</ele>
        <time>2024-08-15T08:47:57.915Z</time>
      </trkpt>
      <trkpt lat="51.20529" lon="6.77526">
        <ele>86.846605</ele>
        <time>2024-08-15T08:47:59.903Z</time>
      </trkpt>
      <trkpt lat="51.20529" lon="6.77542">
        <ele>86.73559</ele>
        <time>2024-08-15T08:48:01.898Z</time>
      </trkpt>
      <trkpt lat="51.20528" lon="6.77558">
        <ele>86.625603</ele>
        <time>2024-08-15T08:48:03.907Z</time>
      </trkpt>
      <trkpt lat="51.20528" lon="6.77573">
        <ele>86.521716</ele>
        <time>2024-08-15T08:48:05.901Z</time>
      </trkpt>
      <trkpt lat="51.20528" lon="6.77589">
        <ele>86.414479</ele>
        <time>2024-08-15T08:48:07.910Z</time>
      </trkpt>
      <trkpt lat="51.20527" lon="6.7761">
        <ele>86.270311</ele>
        <time>2024-08-15T08:48:10.894Z</time>
      </trkpt>
      <trkpt lat="51.20527" lon="6.77625">
        <ele>86.166464</ele>
        <time>2024-08-15T08:48:12.900Z</time>
      </trkpt>
      <trkpt lat="51.20526" lon="6.77645">
        <ele>86.029517</ele>
        <time>2024-08-15T08:48:15.894Z</time>
      </trkpt>
      <trkpt lat="51.20525" lon="6.77662">
        <ele>85.911648</ele>
        <time>2024-08-15T08:48:18.906Z</time>
      </trkpt>
      <trkpt lat="51.20523" lon="6.77691">
        <ele>85.712318</ele>
        <time>2024-08-15T08:49:06.897Z</time>
      </trkpt>
      <trkpt lat="51.20522" lon="6.77709">
        <ele>85.588584</ele>
        <time>2024-08-15T08:49:09.881Z</time>
      </trkpt>
      <trkpt lat="51.20521" lon="6.77727">
        <ele>85.459812</ele>
        <time>2024-08-15T08:49:12.906Z</time>
      </trkpt>
      <trkpt lat="51.20519" lon="6.77745">
        <ele>85.339606</ele>
        <time>2024-08-15T08:49:15.896Z</time>
      </trkpt>
      <trkpt lat="51.20522" lon="6.77763">
        <ele>85.218545</ele>
        <time>2024-08-15T08:49:18.889Z</time>
      </trkpt>
      <trkpt lat="51.20524" lon="6.77782">
        <ele>85.332429</ele>
        <time>2024-08-15T08:49:21.902Z</time>
      </trkpt>
      <trkpt lat="51.20524" lon="6.77801">
        <ele>85.453567</ele>
        <time>2024-08-15T08:49:24.902Z</time>
      </trkpt>
      <trkpt lat="51.20524" lon="6.77822">
        <ele>85.579658</ele>
        <time>2024-08-15T08:49:27.897Z</time>
      </trkpt>
      <trkpt lat="51.20526" lon="6.77837">
        <ele>85.676225</ele>
        <time>2024-08-15T08:49:29.902Z</time>
      </trkpt>
      <trkpt lat="51.20528" lon="6.77854">
        <ele>85.7825</ele>
        <time>2024-08-15T08:49:31.903Z</time>
      </trkpt>
      <trkpt lat="51.2053" lon="6.7787">
        <ele>85.877927</ele>
        <time>2024-08-15T08:49:33.892Z</time>
      </trkpt>
      <trkpt lat="51.20534" lon="6.77883">
        <ele>85.96918</ele>
        <time>2024-08-15T08:49:35.905Z</time>
      </trkpt>
      <trkpt lat="51.20538" lon="6.77904">
        <ele>86.10462</ele>
        <time>2024-08-15T08:49:38.893Z</time>
      </trkpt>
      <trkpt lat="51.20542" lon="6.77919">
        <ele>86.205521</ele>
        <time>2024-08-15T08:49:40.922Z</time>
      </trkpt>
      <trkpt lat="51.20545" lon="6.77933">
        <ele>86.297999</ele>
        <time>2024-08-15T08:49:42.898Z</time>
      </trkpt>
      <trkpt lat="51.20548" lon="6.7795">
        <ele>86.409108</ele>
        <time>2024-08-15T08:49:45.902Z</time>
      </trkpt>
      <trkpt lat="51.2055" lon="6.77965">
        <ele>86.50093</ele>
        <time>2024-08-15T08:49:48.901Z</time>
      </trkpt>
      <trkpt lat="51.20551" lon="6.7798">
        <ele>86.595668</ele>
        <time>2024-08-15T08:49:53.898Z</time>
      </trkpt>
      <trkpt lat="51.20552" lon="6.77996">
        <ele>86.694212</ele>
        <time>2024-08-15T08:50:05.900Z</time>
      </trkpt>
      <trkpt lat="51.20555" lon="6.78013">
        <ele>86.801964</ele>
        <time>2024-08-15T08:50:10.901Z</time>
      </trkpt>
      <trkpt lat="51.20564" lon="6.78023">
        <ele>86.907898</ele>
        <time>2024-08-15T08:50:15.897Z</time>
      </trkpt>
      <trkpt lat="51.20573" lon="6.7803">
        <ele>87.050817</ele>
        <time>2024-08-15T08:50:20.913Z</time>
      </trkpt>
      <trkpt lat="51.20582" lon="6.78037">
        <ele>87.312816</ele>
        <time>2024-08-15T08:50:27.895Z</time>
      </trkpt>
      <trkpt lat="51.20593" lon="6.78044">
        <ele>87.605733</ele>
        <time>2024-08-15T08:50:31.894Z</time>
      </trkpt>
      <trkpt lat="51.20602" lon="6.7805">
        <ele>87.841345</ele>
        <time>2024-08-15T08:50:34.907Z</time>
      </trkpt>
      <trkpt lat="51.2061" lon="6.78056">
        <ele>88.078385</ele>
        <time>2024-08-15T08:50:37.910Z</time>
      </trkpt>
      <trkpt lat="51.20618" lon="6.78068">
        <ele>88.330826</ele>
        <time>2024-08-15T08:50:40.909Z</time>
      </trkpt>
      <trkpt lat="51.20627" lon="6.78074">
        <ele>88.586703</ele>
        <time>2024-08-15T08:50:44.909Z</time>
      </trkpt>
      <trkpt lat="51.20637" lon="6.7808">
        <ele>88.841992</ele>
        <time>2024-08-15T08:50:48.897Z</time>
      </trkpt>
      <trkpt lat="51.20646" lon="6.78086">
        <ele>89.085155</ele>
        <time>2024-08-15T08:50:53.912Z</time>
      </trkpt>
      <trkpt lat="51.20657" lon="6.78093">
        <ele>89.385683</ele>
        <time>2024-08-15T08:50:57.899Z</time>
      </trkpt>
      <trkpt lat="51.20667" lon="6.78099">
        <ele>89.656697</ele>
        <time>2024-08-15T08:51:01.885Z</time>
      </trkpt>
      <trkpt lat="51.20677" lon="6.78104">
        <ele>89.917951</ele>
        <time>2024-08-15T08:51:04.907Z</time>
      </trkpt>
      <trkpt lat="51.20688" lon="6.78109">
        <ele>90.201132</ele>
        <time>2024-08-15T08:51:07.884Z</time>
      </trkpt>
      <trkpt lat="51.20699" lon="6.78114">
        <ele>90.492656</ele>
        <time>2024-08-15T08:51:10.896Z</time>
      </trkpt>
      <trkpt lat="51.20709" lon="6.78121">
        <ele>90.760326</ele>
        <time>2024-08-15T08:51:13.886Z</time>
      </trkpt>
      <trkpt lat="51.20718" lon="6.78129">
        <ele>91.015007</ele>
        <time>2024-08-15T08:51:16.904Z</time>
      </trkpt>
      <trkpt lat="51.20726" lon="6.78137">
        <ele>91.263166</ele>
        <time>2024-08-15T08:51:19.906Z</time>
      </trkpt>
      <trkpt lat="51.20737" lon="6.78145">
        <ele>91.368271</ele>
        <time>2024-08-15T08:51:22.895Z</time>
      </trkpt>
      <trkpt lat="51.20745" lon="6.78151">
        <ele>91.100537</ele>
        <time>2024-08-15T08:51:25.893Z</time>
      </trkpt>
      <trkpt lat="51.20755" lon="6.78157">
        <ele>90.821902</ele>
        <time>2024-08-15T08:51:28.900Z</time>
      </trkpt>
      <trkpt lat="51.20765" lon="6.78165">
        <ele>90.503976</ele>
        <time>2024-08-15T08:51:31.904Z</time>
      </trkpt>
      <trkpt lat="51.20776" lon="6.78172">
        <ele>90.172859</ele>
        <time>2024-08-15T08:51:34.908Z</time>
      </trkpt>
      <trkpt lat="51.20787" lon="6.78181">
        <ele>89.817716</ele>
        <time>2024-08-15T08:51:37.895Z</time>
      </trkpt>
      <trkpt lat="51.208" lon="6.78189">
        <ele>89.447668</ele>
        <time>2024-08-15T08:51:40.894Z</time>
      </trkpt>
      <trkpt lat="51.2081" lon="6.78198">
        <ele>89.122279</ele>
        <time>2024-08-15T08:51:42.907Z</time>
      </trkpt>
      <trkpt lat="51.20821" lon="6.78207">
        <ele>88.782284</ele>
        <time>2024-08-15T08:51:45.904Z</time>
      </trkpt>
      <trkpt lat="51.20829" lon="6.78212">
        <ele>88.526527</ele>
        <time>2024-08-15T08:51:47.898Z</time>
      </trkpt>
      <trkpt lat="51.2084" lon="6.78224">
        <ele>88.146151</ele>
        <time>2024-08-15T08:51:50.889Z</time>
      </trkpt>
      <trkpt lat="51.20848" lon="6.78235">
        <ele>87.864271</ele>
        <time>2024-08-15T08:51:53.914Z</time>
      </trkpt>
      <trkpt lat="51.20856" lon="6.78243">
        <ele>87.59153</ele>
        <time>2024-08-15T08:51:59.905Z</time>
      </trkpt>
      <trkpt lat="51.20867" lon="6.78256">
        <ele>87.221763</ele>
        <time>2024-08-15T08:52:29.906Z</time>
      </trkpt>
      <trkpt lat="51.20876" lon="6.78269">
        <ele>86.883604</ele>
        <time>2024-08-15T08:52:33.898Z</time>
      </trkpt>
      <trkpt lat="51.20885" lon="6.78277">
        <ele>86.600403</ele>
        <time>2024-08-15T08:52:36.898Z</time>
      </trkpt>
      <trkpt lat="51.20894" lon="6.78285">
        <ele>86.105234</ele>
        <time>2024-08-15T08:52:39.894Z</time>
      </trkpt>
      <trkpt lat="51.20904" lon="6.78292">
        <ele>85.426442</ele>
        <time>2024-08-15T08:52:42.898Z</time>
      </trkpt>
      <trkpt lat="51.20915" lon="6.78297">
        <ele>84.689518</ele>
        <time>2024-08-15T08:52:46.904Z</time>
      </trkpt>
      <trkpt lat="51.20924" lon="6.78297">
        <ele>84.083798</ele>
        <time>2024-08-15T08:52:49.898Z</time>
      </trkpt>
      <trkpt lat="51.20935" lon="6.78295">
        <ele>83.379526</ele>
        <time>2024-08-15T08:52:53.899Z</time>
      </trkpt>
      <trkpt lat="51.20945" lon="6.78292">
        <ele>82.75222</ele>
        <time>2024-08-15T08:52:59.890Z</time>
      </trkpt>
      <trkpt lat="51.20951" lon="6.78304">
        <ele>82.123693</ele>
        <time>2024-08-15T08:53:05.909Z</time>
      </trkpt>
      <trkpt lat="51.20955" lon="6.78319">
        <ele>81.447991</ele>
        <time>2024-08-15T08:53:10.911Z</time>
      </trkpt>
      <trkpt lat="51.20962" lon="6.78332">
        <ele>80.78377</ele>
        <time>2024-08-15T08:53:15.920Z</time>
      </trkpt>
      <trkpt lat="51.20971" lon="6.78344">
        <ele>80.013255</ele>
        <time>2024-08-15T08:53:19.898Z</time>
      </trkpt>
      <trkpt lat="51.20979" lon="6.78354">
        <ele>79.343469</ele>
        <time>2024-08-15T08:53:24.895Z</time>
      </trkpt>
      <trkpt lat="51.20987" lon="6.78367">
        <ele>78.64443</ele>
        <time>2024-08-15T08:53:30.897Z</time>
      </trkpt>
      <trkpt lat="51.20994" lon="6.7838">
        <ele>77.963912</ele>
        <time>2024-08-15T08:53:34.904Z</time>
      </trkpt>
      <trkpt lat="51.21" lon="6.78391">
        <ele>77.335021</ele>
        <time>2024-08-15T08:53:37.895Z</time>
      </trkpt>
      <trkpt lat="51.21007" lon="6.78404">
        <ele>76.668571</ele>
        <time>2024-08-15T08:53:40.899Z</time>
      </trkpt>
      <trkpt lat="51.21014" lon="6.78415">
        <ele>76.033056</ele>
        <time>2024-08-15T08:53:43.887Z</time>
      </trkpt>
      <trkpt lat="51.21022" lon="6.78427">
        <ele>75.340309</ele>
        <time>2024-08-15T08:53:46.915Z</time>
      </trkpt>
      <trkpt lat="51.21032" lon="6.78438">
        <ele>75.117388</ele>
        <time>2024-08-15T08:53:49.895Z</time>
      </trkpt>
      <trkpt lat="51.21039" lon="6.78446">
        <ele>75.651919</ele>
        <time>2024-08-15T08:53:51.903Z</time>
      </trkpt>
      <trkpt lat="51.21048" lon="6.78458">
        <ele>76.316997</ele>
        <time>2024-08-15T08:53:54.878Z</time>
      </trkpt>
      <trkpt lat="51.21057" lon="6.7847">
        <ele>76.990262</ele>
        <time>2024-08-15T08:53:57.915Z</time>
      </trkpt>
      <trkpt lat="51.21065" lon="6.78481">
        <ele>77.648085</ele>
        <time>2024-08-15T08:54:00.903Z</time>
      </trkpt>
      <trkpt lat="51.21076" lon="6.78495">
        <ele>78.435422</ele>
        <time>2024-08-15T08:54:03.900Z</time>
      </trkpt>
      <trkpt lat="51.21086" lon="6.78505">
        <ele>79.122636</ele>
        <time>2024-08-15T08:54:06.884Z</time>
      </trkpt>
      <trkpt lat="51.21092" lon="6.78516">
        <ele>79.674516</ele>
        <time>2024-08-15T08:54:10.918Z</time>
      </trkpt>
      <trkpt lat="51.21097" lon="6.7853">
        <ele>80.257714</ele>
        <time>2024-08-15T08:54:15.891Z</time>
      </trkpt>
      <trkpt lat="51.21115" lon="6.78541">
        <ele>81.388702</ele>
        <time>2024-08-15T08:54:46.902Z</time>
      </trkpt>
      <trkpt lat="51.21124" lon="6.78546">
        <ele>81.943419</ele>
        <time>2024-08-15T08:54:49.909Z</time>
      </trkpt>
      <trkpt lat="51.21134" lon="6.78546">
        <ele>82.516126</ele>
        <time>2024-08-15T08:54:52.914Z</time>
      </trkpt>
      <trkpt lat="51.21143" lon="6.78546">
        <ele>83.07678</ele>
        <time>2024-08-15T08:54:55.910Z</time>
      </trkpt>
      <trkpt lat="51.21153" lon="6.78546">
        <ele>83.643415</ele>
        <time>2024-08-15T08:54:58.906Z</time>
      </trkpt>
      <trkpt lat="51.21164" lon="6.78544">
        <ele>84.310582</ele>
        <time>2024-08-15T08:55:01.904Z</time>
      </trkpt>
      <trkpt lat="51.21175" lon="6.78544">
        <ele>84.929682</ele>
        <time>2024-08-15T08:55:04.909Z</time>
      </trkpt>
      <trkpt lat="51.21186" lon="6.78544">
        <ele>85.394308</ele>
        <time>2024-08-15T08:55:07.901Z</time>
      </trkpt>
      <trkpt lat="51.21198" lon="6.78543">
        <ele>85.53665</ele>
        <time>2024-08-15T08:55:10.885Z</time>
      </trkpt>
      <trkpt lat="51.21209" lon="6.78542">
        <ele>85.655435</ele>
        <time>2024-08-15T08:55:13.901Z</time>
      </trkpt>
      <trkpt lat="51.21221" lon="6.78543">
        <ele>85.785439</ele>
        <time>2024-08-15T08:55:16.899Z</time>
      </trkpt>
      <trkpt lat="51.2123" lon="6.78546">
        <ele>85.892548</ele>
        <time>2024-08-15T08:55:19.906Z</time>
      </trkpt>
      <trkpt lat="51.21235" lon="6.78562">
        <ele>86.016255</ele>
        <time>2024-08-15T08:55:23.914Z</time>
      </trkpt>
      <trkpt lat="51.2124" lon="6.78577">
        <ele>86.139107</ele>
        <time>2024-08-15T08:55:27.912Z</time>
      </trkpt>
      <trkpt lat="51.21246" lon="6.78589">
        <ele>86.248797</ele>
        <time>2024-08-15T08:55:31.899Z</time>
      </trkpt>
      <trkpt lat="51.21255" lon="6.786">
        <ele>86.370612</ele>
        <time>2024-08-15T08:55:35.893Z</time>
      </trkpt>
      <trkpt lat="51.21264" lon="6.78603">
        <ele>86.475654</ele>
        <time>2024-08-15T08:55:38.904Z</time>
      </trkpt>
      <trkpt lat="51.21275" lon="6.78606">
        <ele>86.599796</ele>
        <time>2024-08-15T08:55:42.901Z</time>
      </trkpt>
      <trkpt lat="51.21286" lon="6.78605">
        <ele>86.729761</ele>
        <time>2024-08-15T08:55:47.907Z</time>
      </trkpt>
      <trkpt lat="51.21295" lon="6.78601">
        <ele>86.833328</ele>
        <time>2024-08-15T08:55:50.909Z</time>
      </trkpt>
      <trkpt lat="51.21306" lon="6.786">
        <ele>86.953707</ele>
        <time>2024-08-15T08:55:53.893Z</time>
      </trkpt>
      <trkpt lat="51.21318" lon="6.78598">
        <ele>87.090882</ele>
        <time>2024-08-15T08:55:56.911Z</time>
      </trkpt>
      <trkpt lat="51.21328" lon="6.78598">
        <ele>87.199555</ele>
        <time>2024-08-15T08:55:59.910Z</time>
      </trkpt>
      <trkpt lat="51.21337" lon="6.78599">
        <ele>87.304932</ele>
        <time>2024-08-15T08:56:02.898Z</time>
      </trkpt>
      <trkpt lat="51.21348" lon="6.78603">
        <ele>87.391738</ele>
        <time>2024-08-15T08:56:05.897Z</time>
      </trkpt>
      <trkpt lat="51.21356" lon="6.7861">
        <ele>87.434778</ele>
        <time>2024-08-15T08:56:08.905Z</time>
      </trkpt>
      <trkpt lat="51.21365" lon="6.78614">
        <ele>87.477268</ele>
        <time>2024-08-15T08:56:11.896Z</time>
      </trkpt>
      <trkpt lat="51.21375" lon="6.78617">
        <ele>87.518506</ele>
        <time>2024-08-15T08:56:14.915Z</time>
      </trkpt>
      <trkpt lat="51.21382" lon="6.78627">
        <ele>87.562539</ele>
        <time>2024-08-15T08:56:17.898Z</time>
      </trkpt>
      <trkpt lat="51.21392" lon="6.78635">
        <ele>87.610074</ele>
        <time>2024-08-15T08:56:20.902Z</time>
      </trkpt>
      <trkpt lat="51.214" lon="6.78643">
        <ele>87.651496</ele>
        <time>2024-08-15T08:56:23.892Z</time>
      </trkpt>
      <trkpt lat="51.2141" lon="6.78651">
        <ele>87.702214</ele>
        <time>2024-08-15T08:56:28.906Z</time>
      </trkpt>
      <trkpt lat="51.21419" lon="6.78661">
        <ele>87.748708</ele>
        <time>2024-08-15T08:56:31.894Z</time>
      </trkpt>
      <trkpt lat="51.21429" lon="6.78672">
        <ele>87.804177</ele>
        <time>2024-08-15T08:56:34.906Z</time>
      </trkpt>
      <trkpt lat="51.21439" lon="6.78682">
        <ele>87.857492</ele>
        <time>2024-08-15T08:56:37.904Z</time>
      </trkpt>
      <trkpt lat="51.21448" lon="6.78692">
        <ele>87.906425</ele>
        <time>2024-08-15T08:56:40.914Z</time>
      </trkpt>
      <trkpt lat="51.21455" lon="6.78705">
        <ele>87.953118</ele>
        <time>2024-08-15T08:56:43.906Z</time>
      </trkpt>
      <trkpt lat="51.21462" lon="6.78716">
        <ele>87.997225</ele>
        <time>2024-08-15T08:56:46.886Z</time>
      </trkpt>
      <trkpt lat="51.2147" lon="6.78729">
        <ele>88.047902</ele>
        <time>2024-08-15T08:56:49.902Z</time>
      </trkpt>
      <trkpt lat="51.21477" lon="6.7874">
        <ele>88.090409</ele>
        <time>2024-08-15T08:56:51.900Z</time>
      </trkpt>
      <trkpt lat="51.21484" lon="6.7875">
        <ele>88.13151</ele>
        <time>2024-08-15T08:56:53.900Z</time>
      </trkpt>
      <trkpt lat="51.21492" lon="6.78758">
        <ele>88.197757</ele>
        <time>2024-08-15T08:56:55.900Z</time>
      </trkpt>
      <trkpt lat="51.215" lon="6.78765">
        <ele>88.364249</ele>
        <time>2024-08-15T08:56:57.898Z</time>
      </trkpt>
      <trkpt lat="51.21508" lon="6.78773">
        <ele>88.541415</ele>
        <time>2024-08-15T08:56:59.902Z</time>
      </trkpt>
      <trkpt lat="51.21516" lon="6.78782">
        <ele>88.71801</ele>
        <time>2024-08-15T08:57:01.884Z</time>
      </trkpt>
      <trkpt lat="51.21524" lon="6.78791">
        <ele>88.893557</ele>
        <time>2024-08-15T08:57:03.889Z</time>
      </trkpt>
      <trkpt lat="51.21532" lon="6.788">
        <ele>89.078398</ele>
        <time>2024-08-15T08:57:05.908Z</time>
      </trkpt>
      <trkpt lat="51.21541" lon="6.7881">
        <ele>89.271729</ele>
        <time>2024-08-15T08:57:07.914Z</time>
      </trkpt>
      <trkpt lat="51.21549" lon="6.7882">
        <ele>89.45713</ele>
        <time>2024-08-15T08:57:09.907Z</time>
      </trkpt>
      <trkpt lat="51.21557" lon="6.78829">
        <ele>89.647574</ele>
        <time>2024-08-15T08:57:11.902Z</time>
      </trkpt>
      <trkpt lat="51.21566" lon="6.78838">
        <ele>89.839061</ele>
        <time>2024-08-15T08:57:13.895Z</time>
      </trkpt>
      <trkpt lat="51.21574" lon="6.78848">
        <ele>90.026888</ele>
        <time>2024-08-15T08:57:15.897Z</time>
      </trkpt>
      <trkpt lat="51.21583" lon="6.78858">
        <ele>90.223055</ele>
        <time>2024-08-15T08:57:17.898Z</time>
      </trkpt>
      <trkpt lat="51.21592" lon="6.78868">
        <ele>90.415197</ele>
        <time>2024-08-15T08:57:19.909Z</time>
      </trkpt>
      <trkpt lat="51.21601" lon="6.78877">
        <ele>90.614911</ele>
        <time>2024-08-15T08:57:21.911Z</time>
      </trkpt>
      <trkpt lat="51.2161" lon="6.78887">
        <ele>90.818955</ele>
        <time>2024-08-15T08:57:23.897Z</time>
      </trkpt>
      <trkpt lat="51.21621" lon="6.78896">
        <ele>91.043648</ele>
        <time>2024-08-15T08:57:25.917Z</time>
      </trkpt>
      <trkpt lat="51.2163" lon="6.78905">
        <ele>91.239325</ele>
        <time>2024-08-15T08:57:27.891Z</time>
      </trkpt>
      <trkpt lat="51.21639" lon="6.78913">
        <ele>91.430792</ele>
        <time>2024-08-15T08:57:29.912Z</time>
      </trkpt>
      <trkpt lat="51.21647" lon="6.78923">
        <ele>91.467052</ele>
        <time>2024-08-15T08:57:31.909Z</time>
      </trkpt>
      <trkpt lat="51.21658" lon="6.78931">
        <ele>91.479608</ele>
        <time>2024-08-15T08:57:34.919Z</time>
      </trkpt>
      <trkpt lat="51.21665" lon="6.7894">
        <ele>91.488515</ele>
        <time>2024-08-15T08:57:39.896Z</time>
      </trkpt>
      <trkpt lat="51.21674" lon="6.78952">
        <ele>91.499818</ele>
        <time>2024-08-15T08:57:51.906Z</time>
      </trkpt>
      <trkpt lat="51.21683" lon="6.78963">
        <ele>91.510652</ele>
        <time>2024-08-15T08:57:55.917Z</time>
      </trkpt>
      <trkpt lat="51.21691" lon="6.78974">
        <ele>91.521225</ele>
        <time>2024-08-15T08:57:58.911Z</time>
      </trkpt>
      <trkpt lat="51.21697" lon="6.78985">
        <ele>91.53057</ele>
        <time>2024-08-15T08:58:00.909Z</time>
      </trkpt>
      <trkpt lat="51.21703" lon="6.78999">
        <ele>91.540744</ele>
        <time>2024-08-15T08:58:03.908Z</time>
      </trkpt>
      <trkpt lat="51.21704" lon="6.79017">
        <ele>91.552198</ele>
        <time>2024-08-15T08:58:07.917Z</time>
      </trkpt>
      <trkpt lat="51.21709" lon="6.7903">
        <ele>91.561417</ele>
        <time>2024-08-15T08:58:12.890Z</time>
      </trkpt>
      <trkpt lat="51.21718" lon="6.7903">
        <ele>91.570593</ele>
        <time>2024-08-15T08:58:21.900Z</time>
      </trkpt>
      <trkpt lat="51.21733" lon="6.79027">
        <ele>91.58529</ele>
        <time>2024-08-15T08:58:44.903Z</time>
      </trkpt>
      <trkpt lat="51.21742" lon="6.79028">
        <ele>91.594286</ele>
        <time>2024-08-15T08:58:47.905Z</time>
      </trkpt>
      <trkpt lat="51.21751" lon="6.79028">
        <ele>91.603365</ele>
        <time>2024-08-15T08:58:50.911Z</time>
      </trkpt>
      <trkpt lat="51.21761" lon="6.79027">
        <ele>91.612937</ele>
        <time>2024-08-15T08:58:54.908Z</time>
      </trkpt>
      <trkpt lat="51.2177" lon="6.79027">
        <ele>91.622022</ele>
        <time>2024-08-15T08:58:59.908Z</time>
      </trkpt>
      <trkpt lat="51.2178" lon="6.79025">
        <ele>91.631343</ele>
        <time>2024-08-15T08:59:03.901Z</time>
      </trkpt>
      <trkpt lat="51.21792" lon="6.79024">
        <ele>91.636511</ele>
        <time>2024-08-15T08:59:07.893Z</time>
      </trkpt>
      <trkpt lat="51.21801" lon="6.79024">
        <ele>91.636511</ele>
        <time>2024-08-15T08:59:10.912Z</time>
      </trkpt>
      <trkpt lat="51.21811" lon="6.79026">
        <ele>91.636511</ele>
        <time>2024-08-15T08:59:13.895Z</time>
      </trkpt>
      <trkpt lat="51.21821" lon="6.79025">
        <ele>91.636511</ele>
        <time>2024-08-15T08:59:16.903Z</time>
      </trkpt>
      <trkpt lat="51.21831" lon="6.79027">
        <ele>91.636511</ele>
        <time>2024-08-15T08:59:19.913Z</time>
      </trkpt>
      <trkpt lat="51.21844" lon="6.79032">
        <ele>91.636511</ele>
        <time>2024-08-15T08:59:22.882Z</time>
      </trkpt>
      <trkpt lat="51.21856" lon="6.79039">
        <ele>91.636511</ele>
        <time>2024-08-15T08:59:25.914Z</time>
      </trkpt>
      <trkpt lat="51.21866" lon="6.7905">
        <ele>91.636511</ele>
        <time>2024-08-15T08:59:28.912Z</time>
      </trkpt>
      <trkpt lat="51.21876" lon="6.79061">
        <ele>91.636511</ele>
        <time>2024-08-15T08:59:31.905Z</time>
      </trkpt>
      <trkpt lat="51.21884" lon="6.79069">
        <ele>91.636511</ele>
        <time>2024-08-15T08:59:34.923Z</time>
      </trkpt>
      <trkpt lat="51.21894" lon="6.79079">
        <ele>91.636511</ele>
        <time>2024-08-15T08:59:36.923Z</time>
      </trkpt>
      <trkpt lat="51.21902" lon="6.79088">
        <ele>91.636511</ele>
        <time>2024-08-15T08:59:38.905Z</time>
      </trkpt>
      <trkpt lat="51.21913" lon="6.79101">
        <ele>91.636511</ele>
        <time>2024-08-15T08:59:41.918Z</time>
      </trkpt>
      <trkpt lat="51.21923" lon="6.79113">
        <ele>91.636511</ele>
        <time>2024-08-15T08:59:44.939Z</time>
      </trkpt>
      <trkpt lat="51.21931" lon="6.79124">
        <ele>91.636511</ele>
        <time>2024-08-15T08:59:47.902Z</time>
      </trkpt>
      <trkpt lat="51.21939" lon="6.79134">
        <ele>91.636511</ele>
        <time>2024-08-15T08:59:49.927Z</time>
      </trkpt>
      <trkpt lat="51.21949" lon="6.79149">
        <ele>91.636511</ele>
        <time>2024-08-15T08:59:52.909Z</time>
      </trkpt>
      <trkpt lat="51.21958" lon="6.79163">
        <ele>91.636511</ele>
        <time>2024-08-15T08:59:55.900Z</time>
      </trkpt>
      <trkpt lat="51.21965" lon="6.79176">
        <ele>91.636511</ele>
        <time>2024-08-15T08:59:58.908Z</time>
      </trkpt>
      <trkpt lat="51.21974" lon="6.79181">
        <ele>91.636511</ele>
        <time>2024-08-15T09:00:01.903Z</time>
      </trkpt>
      <trkpt lat="51.21982" lon="6.79192">
        <ele>91.636511</ele>
        <time>2024-08-15T09:00:06.915Z</time>
      </trkpt>
      <trkpt lat="51.21985" lon="6.79208">
        <ele>91.636511</ele>
        <time>2024-08-15T09:00:12.906Z</time>
      </trkpt>
    </trkseg>
  </trk>
</gpx>